<?xml version="1.0" encoding="UTF-8" standalone="no" ?>
<gpx xmlns="http://www.topografix.com/GPX/1/1" xmlns:xsi="http://www.w3.org/2001/XMLSchema-instance" xsi:schemaLocation="http://www.topografix.com/GPX/1/1 http://www.topografix.com/GPX/1/1/gpx.xsd" version="1.1" creator="VisuGPX - https://www.visugpx.com">
  <metadata>
    <name>83-D-Cotignac</name>
    <desc><![CDATA[83-D-Cotignac : autour du Gros Bessillon
2019-12-15]]></desc>
  </metadata>
  <trk>
    <name><![CDATA[2019-12-15-Autour de Cotignac]]></name>
    <trkseg>
      <trkpt lat="43.53401" lon="6.12515">
        <ele>364.8</ele>
        <time>2019-12-15T08:39:33Z</time>
      </trkpt>
      <trkpt lat="43.53401" lon="6.12516">
        <ele>375</ele>
        <time>2019-12-15T08:39:34Z</time>
      </trkpt>
      <trkpt lat="43.53411" lon="6.12516">
        <ele>397</ele>
        <time>2019-12-15T08:42:02Z</time>
      </trkpt>
      <trkpt lat="43.53403" lon="6.12522">
        <ele>396.1</ele>
        <time>2019-12-15T08:43:39Z</time>
      </trkpt>
      <trkpt lat="43.5341" lon="6.12515">
        <ele>397.3</ele>
        <time>2019-12-15T08:44:19Z</time>
      </trkpt>
      <trkpt lat="43.53418" lon="6.12507">
        <ele>397.3</ele>
        <time>2019-12-15T08:44:29Z</time>
      </trkpt>
      <trkpt lat="43.53427" lon="6.12508">
        <ele>397.2</ele>
        <time>2019-12-15T08:44:51Z</time>
      </trkpt>
      <trkpt lat="43.53436" lon="6.12508">
        <ele>398</ele>
        <time>2019-12-15T08:45:15Z</time>
      </trkpt>
      <trkpt lat="43.53427" lon="6.12503">
        <ele>397.1</ele>
        <time>2019-12-15T08:45:38Z</time>
      </trkpt>
      <trkpt lat="43.53417" lon="6.12507">
        <ele>396.9</ele>
        <time>2019-12-15T08:45:44Z</time>
      </trkpt>
      <trkpt lat="43.53408" lon="6.12512">
        <ele>397.3</ele>
        <time>2019-12-15T08:45:54Z</time>
      </trkpt>
      <trkpt lat="43.53408" lon="6.12499">
        <ele>398.1</ele>
        <time>2019-12-15T08:47:10Z</time>
      </trkpt>
      <trkpt lat="43.53406" lon="6.12486">
        <ele>397.7</ele>
        <time>2019-12-15T08:47:24Z</time>
      </trkpt>
      <trkpt lat="43.53401" lon="6.12475">
        <ele>398.8</ele>
        <time>2019-12-15T08:47:38Z</time>
      </trkpt>
      <trkpt lat="43.534" lon="6.12463">
        <ele>397.4</ele>
        <time>2019-12-15T08:47:50Z</time>
      </trkpt>
      <trkpt lat="43.53408" lon="6.12456">
        <ele>398.3</ele>
        <time>2019-12-15T08:48:06Z</time>
      </trkpt>
      <trkpt lat="43.53416" lon="6.12448">
        <ele>399.7</ele>
        <time>2019-12-15T08:48:17Z</time>
      </trkpt>
      <trkpt lat="43.5342" lon="6.12437">
        <ele>400</ele>
        <time>2019-12-15T08:48:27Z</time>
      </trkpt>
      <trkpt lat="43.53418" lon="6.12424">
        <ele>401</ele>
        <time>2019-12-15T08:48:37Z</time>
      </trkpt>
      <trkpt lat="43.53414" lon="6.12412">
        <ele>401.2</ele>
        <time>2019-12-15T08:48:46Z</time>
      </trkpt>
      <trkpt lat="43.53411" lon="6.12399">
        <ele>403.1</ele>
        <time>2019-12-15T08:48:56Z</time>
      </trkpt>
      <trkpt lat="43.53409" lon="6.12387">
        <ele>404</ele>
        <time>2019-12-15T08:49:06Z</time>
      </trkpt>
      <trkpt lat="43.53408" lon="6.12373">
        <ele>403.7</ele>
        <time>2019-12-15T08:49:16Z</time>
      </trkpt>
      <trkpt lat="43.53408" lon="6.12359">
        <ele>404.9</ele>
        <time>2019-12-15T08:49:26Z</time>
      </trkpt>
      <trkpt lat="43.5341" lon="6.12347">
        <ele>406.8</ele>
        <time>2019-12-15T08:49:35Z</time>
      </trkpt>
      <trkpt lat="43.5341" lon="6.12333">
        <ele>407.3</ele>
        <time>2019-12-15T08:49:45Z</time>
      </trkpt>
      <trkpt lat="43.53409" lon="6.12321">
        <ele>408.5</ele>
        <time>2019-12-15T08:49:54Z</time>
      </trkpt>
      <trkpt lat="43.53408" lon="6.12307">
        <ele>409</ele>
        <time>2019-12-15T08:50:03Z</time>
      </trkpt>
      <trkpt lat="43.53408" lon="6.12294">
        <ele>411.4</ele>
        <time>2019-12-15T08:50:13Z</time>
      </trkpt>
      <trkpt lat="43.53406" lon="6.1228">
        <ele>412</ele>
        <time>2019-12-15T08:50:23Z</time>
      </trkpt>
      <trkpt lat="43.53405" lon="6.12267">
        <ele>413.8</ele>
        <time>2019-12-15T08:50:35Z</time>
      </trkpt>
      <trkpt lat="43.53403" lon="6.12254">
        <ele>414.5</ele>
        <time>2019-12-15T08:50:44Z</time>
      </trkpt>
      <trkpt lat="43.534" lon="6.12242">
        <ele>415.4</ele>
        <time>2019-12-15T08:50:54Z</time>
      </trkpt>
      <trkpt lat="43.53397" lon="6.12229">
        <ele>417</ele>
        <time>2019-12-15T08:51:03Z</time>
      </trkpt>
      <trkpt lat="43.53393" lon="6.12218">
        <ele>416.8</ele>
        <time>2019-12-15T08:51:11Z</time>
      </trkpt>
      <trkpt lat="43.53387" lon="6.12207">
        <ele>417.7</ele>
        <time>2019-12-15T08:51:20Z</time>
      </trkpt>
      <trkpt lat="43.5338" lon="6.12198">
        <ele>417.8</ele>
        <time>2019-12-15T08:51:29Z</time>
      </trkpt>
      <trkpt lat="43.53374" lon="6.1219">
        <ele>419.5</ele>
        <time>2019-12-15T08:51:38Z</time>
      </trkpt>
      <trkpt lat="43.53369" lon="6.12164">
        <ele>420.4</ele>
        <time>2019-12-15T08:52:00Z</time>
      </trkpt>
      <trkpt lat="43.53376" lon="6.12155">
        <ele>421.2</ele>
        <time>2019-12-15T08:52:10Z</time>
      </trkpt>
      <trkpt lat="43.53383" lon="6.12147">
        <ele>423.9</ele>
        <time>2019-12-15T08:52:21Z</time>
      </trkpt>
      <trkpt lat="43.5339" lon="6.12138">
        <ele>424.8</ele>
        <time>2019-12-15T08:52:32Z</time>
      </trkpt>
      <trkpt lat="43.53397" lon="6.12129">
        <ele>427</ele>
        <time>2019-12-15T08:52:42Z</time>
      </trkpt>
      <trkpt lat="43.53413" lon="6.12117">
        <ele>429.8</ele>
        <time>2019-12-15T08:53:01Z</time>
      </trkpt>
      <trkpt lat="43.53422" lon="6.12112">
        <ele>430.7</ele>
        <time>2019-12-15T08:53:12Z</time>
      </trkpt>
      <trkpt lat="43.5343" lon="6.12105">
        <ele>433.7</ele>
        <time>2019-12-15T08:53:25Z</time>
      </trkpt>
      <trkpt lat="43.53436" lon="6.12095">
        <ele>435.8</ele>
        <time>2019-12-15T08:53:38Z</time>
      </trkpt>
      <trkpt lat="43.5344" lon="6.12083">
        <ele>436.2</ele>
        <time>2019-12-15T08:53:52Z</time>
      </trkpt>
      <trkpt lat="43.53448" lon="6.1206">
        <ele>441.9</ele>
        <time>2019-12-15T08:54:21Z</time>
      </trkpt>
      <trkpt lat="43.53441" lon="6.12051">
        <ele>442.8</ele>
        <time>2019-12-15T08:54:30Z</time>
      </trkpt>
      <trkpt lat="43.53434" lon="6.12042">
        <ele>443.7</ele>
        <time>2019-12-15T08:54:38Z</time>
      </trkpt>
      <trkpt lat="43.53427" lon="6.12034">
        <ele>443.6</ele>
        <time>2019-12-15T08:54:46Z</time>
      </trkpt>
      <trkpt lat="43.5342" lon="6.12026">
        <ele>443.1</ele>
        <time>2019-12-15T08:54:56Z</time>
      </trkpt>
      <trkpt lat="43.53404" lon="6.12012">
        <ele>445.1</ele>
        <time>2019-12-15T08:55:18Z</time>
      </trkpt>
      <trkpt lat="43.53397" lon="6.12004">
        <ele>446.6</ele>
        <time>2019-12-15T08:55:27Z</time>
      </trkpt>
      <trkpt lat="43.53389" lon="6.11996">
        <ele>448</ele>
        <time>2019-12-15T08:55:36Z</time>
      </trkpt>
      <trkpt lat="43.53382" lon="6.11986">
        <ele>448.7</ele>
        <time>2019-12-15T08:55:46Z</time>
      </trkpt>
      <trkpt lat="43.53374" lon="6.11977">
        <ele>449.4</ele>
        <time>2019-12-15T08:55:55Z</time>
      </trkpt>
      <trkpt lat="43.53367" lon="6.11969">
        <ele>450.1</ele>
        <time>2019-12-15T08:56:04Z</time>
      </trkpt>
      <trkpt lat="43.53353" lon="6.11951">
        <ele>450.5</ele>
        <time>2019-12-15T08:56:23Z</time>
      </trkpt>
      <trkpt lat="43.53346" lon="6.11941">
        <ele>449.4</ele>
        <time>2019-12-15T08:56:32Z</time>
      </trkpt>
      <trkpt lat="43.53339" lon="6.11932">
        <ele>448.8</ele>
        <time>2019-12-15T08:56:41Z</time>
      </trkpt>
      <trkpt lat="43.5333" lon="6.11925">
        <ele>449</ele>
        <time>2019-12-15T08:56:50Z</time>
      </trkpt>
      <trkpt lat="43.53321" lon="6.11921">
        <ele>447.8</ele>
        <time>2019-12-15T08:56:58Z</time>
      </trkpt>
      <trkpt lat="43.53311" lon="6.11919">
        <ele>447.7</ele>
        <time>2019-12-15T08:57:06Z</time>
      </trkpt>
      <trkpt lat="43.53293" lon="6.11913">
        <ele>449.1</ele>
        <time>2019-12-15T08:57:36Z</time>
      </trkpt>
      <trkpt lat="43.53289" lon="6.11924">
        <ele>448.4</ele>
        <time>2019-12-15T08:58:37Z</time>
      </trkpt>
      <trkpt lat="43.53278" lon="6.11906">
        <ele>449</ele>
        <time>2019-12-15T09:02:28Z</time>
      </trkpt>
      <trkpt lat="43.53307" lon="6.11912">
        <ele>448.7</ele>
        <time>2019-12-15T09:05:24Z</time>
      </trkpt>
      <trkpt lat="43.53316" lon="6.11917">
        <ele>446.5</ele>
        <time>2019-12-15T09:05:45Z</time>
      </trkpt>
      <trkpt lat="43.5331" lon="6.11927">
        <ele>445.2</ele>
        <time>2019-12-15T09:06:31Z</time>
      </trkpt>
      <trkpt lat="43.53292" lon="6.11927">
        <ele>441.1</ele>
        <time>2019-12-15T09:06:59Z</time>
      </trkpt>
      <trkpt lat="43.53283" lon="6.11931">
        <ele>440.4</ele>
        <time>2019-12-15T09:07:23Z</time>
      </trkpt>
      <trkpt lat="43.53273" lon="6.1193">
        <ele>439.2</ele>
        <time>2019-12-15T09:07:34Z</time>
      </trkpt>
      <trkpt lat="43.53255" lon="6.11928">
        <ele>435.9</ele>
        <time>2019-12-15T09:08:02Z</time>
      </trkpt>
      <trkpt lat="43.53245" lon="6.11928">
        <ele>434.7</ele>
        <time>2019-12-15T09:08:18Z</time>
      </trkpt>
      <trkpt lat="43.53238" lon="6.11921">
        <ele>431.5</ele>
        <time>2019-12-15T09:08:39Z</time>
      </trkpt>
      <trkpt lat="43.53222" lon="6.11905">
        <ele>429</ele>
        <time>2019-12-15T09:09:07Z</time>
      </trkpt>
      <trkpt lat="43.53215" lon="6.11897">
        <ele>428.8</ele>
        <time>2019-12-15T09:09:17Z</time>
      </trkpt>
      <trkpt lat="43.53208" lon="6.11888">
        <ele>428</ele>
        <time>2019-12-15T09:09:30Z</time>
      </trkpt>
      <trkpt lat="43.53201" lon="6.1188">
        <ele>427</ele>
        <time>2019-12-15T09:09:41Z</time>
      </trkpt>
      <trkpt lat="43.53184" lon="6.11867">
        <ele>424.2</ele>
        <time>2019-12-15T09:10:03Z</time>
      </trkpt>
      <trkpt lat="43.53176" lon="6.11861">
        <ele>424.6</ele>
        <time>2019-12-15T09:10:16Z</time>
      </trkpt>
      <trkpt lat="43.53168" lon="6.11855">
        <ele>424.4</ele>
        <time>2019-12-15T09:10:36Z</time>
      </trkpt>
      <trkpt lat="43.5316" lon="6.11849">
        <ele>424.9</ele>
        <time>2019-12-15T09:10:48Z</time>
      </trkpt>
      <trkpt lat="43.53149" lon="6.11828">
        <ele>424.2</ele>
        <time>2019-12-15T09:11:13Z</time>
      </trkpt>
      <trkpt lat="43.53147" lon="6.11815">
        <ele>425.2</ele>
        <time>2019-12-15T09:11:25Z</time>
      </trkpt>
      <trkpt lat="43.53145" lon="6.11803">
        <ele>424.9</ele>
        <time>2019-12-15T09:11:36Z</time>
      </trkpt>
      <trkpt lat="43.53144" lon="6.1179">
        <ele>426.6</ele>
        <time>2019-12-15T09:11:47Z</time>
      </trkpt>
      <trkpt lat="43.53141" lon="6.11778">
        <ele>426.1</ele>
        <time>2019-12-15T09:11:57Z</time>
      </trkpt>
      <trkpt lat="43.53127" lon="6.1176">
        <ele>427.1</ele>
        <time>2019-12-15T09:12:17Z</time>
      </trkpt>
      <trkpt lat="43.53122" lon="6.11751">
        <ele>427.5</ele>
        <time>2019-12-15T09:12:26Z</time>
      </trkpt>
      <trkpt lat="43.53116" lon="6.11741">
        <ele>427.3</ele>
        <time>2019-12-15T09:12:36Z</time>
      </trkpt>
      <trkpt lat="43.53111" lon="6.11729">
        <ele>428.1</ele>
        <time>2019-12-15T09:12:48Z</time>
      </trkpt>
      <trkpt lat="43.53109" lon="6.11717">
        <ele>427.8</ele>
        <time>2019-12-15T09:12:58Z</time>
      </trkpt>
      <trkpt lat="43.53108" lon="6.11691">
        <ele>429.3</ele>
        <time>2019-12-15T09:13:21Z</time>
      </trkpt>
      <trkpt lat="43.53104" lon="6.11678">
        <ele>428.9</ele>
        <time>2019-12-15T09:13:31Z</time>
      </trkpt>
      <trkpt lat="43.53097" lon="6.11669">
        <ele>431.1</ele>
        <time>2019-12-15T09:13:45Z</time>
      </trkpt>
      <trkpt lat="43.53088" lon="6.11665">
        <ele>430.5</ele>
        <time>2019-12-15T09:13:56Z</time>
      </trkpt>
      <trkpt lat="43.5308" lon="6.11657">
        <ele>431.3</ele>
        <time>2019-12-15T09:14:07Z</time>
      </trkpt>
      <trkpt lat="43.53067" lon="6.11637">
        <ele>432</ele>
        <time>2019-12-15T09:14:45Z</time>
      </trkpt>
      <trkpt lat="43.53064" lon="6.11625">
        <ele>431.9</ele>
        <time>2019-12-15T09:16:05Z</time>
      </trkpt>
      <trkpt lat="43.53069" lon="6.116">
        <ele>433.6</ele>
        <time>2019-12-15T09:16:28Z</time>
      </trkpt>
      <trkpt lat="43.53075" lon="6.11589">
        <ele>434.2</ele>
        <time>2019-12-15T09:16:39Z</time>
      </trkpt>
      <trkpt lat="43.53074" lon="6.11576">
        <ele>434.9</ele>
        <time>2019-12-15T09:16:49Z</time>
      </trkpt>
      <trkpt lat="43.53068" lon="6.11566">
        <ele>434.4</ele>
        <time>2019-12-15T09:16:59Z</time>
      </trkpt>
      <trkpt lat="43.5306" lon="6.11559">
        <ele>435.6</ele>
        <time>2019-12-15T09:17:10Z</time>
      </trkpt>
      <trkpt lat="43.53048" lon="6.11539">
        <ele>435.1</ele>
        <time>2019-12-15T09:17:29Z</time>
      </trkpt>
      <trkpt lat="43.53043" lon="6.11528">
        <ele>435.5</ele>
        <time>2019-12-15T09:17:38Z</time>
      </trkpt>
      <trkpt lat="43.53039" lon="6.11517">
        <ele>436.4</ele>
        <time>2019-12-15T09:17:47Z</time>
      </trkpt>
      <trkpt lat="43.53038" lon="6.11503">
        <ele>436.3</ele>
        <time>2019-12-15T09:17:57Z</time>
      </trkpt>
      <trkpt lat="43.53042" lon="6.11491">
        <ele>436.8</ele>
        <time>2019-12-15T09:18:06Z</time>
      </trkpt>
      <trkpt lat="43.53048" lon="6.1148">
        <ele>437.9</ele>
        <time>2019-12-15T09:18:16Z</time>
      </trkpt>
      <trkpt lat="43.5306" lon="6.11459">
        <ele>439.1</ele>
        <time>2019-12-15T09:18:36Z</time>
      </trkpt>
      <trkpt lat="43.53065" lon="6.11449">
        <ele>439.2</ele>
        <time>2019-12-15T09:18:45Z</time>
      </trkpt>
      <trkpt lat="43.5307" lon="6.11439">
        <ele>439.9</ele>
        <time>2019-12-15T09:18:55Z</time>
      </trkpt>
      <trkpt lat="43.53078" lon="6.11431">
        <ele>440.6</ele>
        <time>2019-12-15T09:19:05Z</time>
      </trkpt>
      <trkpt lat="43.53086" lon="6.11422">
        <ele>441.1</ele>
        <time>2019-12-15T09:19:15Z</time>
      </trkpt>
      <trkpt lat="43.53094" lon="6.11413">
        <ele>441</ele>
        <time>2019-12-15T09:19:24Z</time>
      </trkpt>
      <trkpt lat="43.53108" lon="6.11396">
        <ele>442.2</ele>
        <time>2019-12-15T09:19:42Z</time>
      </trkpt>
      <trkpt lat="43.53115" lon="6.11388">
        <ele>442.3</ele>
        <time>2019-12-15T09:19:52Z</time>
      </trkpt>
      <trkpt lat="43.53123" lon="6.11381">
        <ele>444</ele>
        <time>2019-12-15T09:20:01Z</time>
      </trkpt>
      <trkpt lat="43.53131" lon="6.11374">
        <ele>444.2</ele>
        <time>2019-12-15T09:20:10Z</time>
      </trkpt>
      <trkpt lat="43.53137" lon="6.11363">
        <ele>444.4</ele>
        <time>2019-12-15T09:20:20Z</time>
      </trkpt>
      <trkpt lat="43.53141" lon="6.11352">
        <ele>444.5</ele>
        <time>2019-12-15T09:20:30Z</time>
      </trkpt>
      <trkpt lat="43.53147" lon="6.11328">
        <ele>444.9</ele>
        <time>2019-12-15T09:20:47Z</time>
      </trkpt>
      <trkpt lat="43.53151" lon="6.11316">
        <ele>445.9</ele>
        <time>2019-12-15T09:20:56Z</time>
      </trkpt>
      <trkpt lat="43.53154" lon="6.11304">
        <ele>444.5</ele>
        <time>2019-12-15T09:21:04Z</time>
      </trkpt>
      <trkpt lat="43.53159" lon="6.11292">
        <ele>445.7</ele>
        <time>2019-12-15T09:21:12Z</time>
      </trkpt>
      <trkpt lat="43.53163" lon="6.1128">
        <ele>447.6</ele>
        <time>2019-12-15T09:21:20Z</time>
      </trkpt>
      <trkpt lat="43.53166" lon="6.11267">
        <ele>447.1</ele>
        <time>2019-12-15T09:21:28Z</time>
      </trkpt>
      <trkpt lat="43.53167" lon="6.11254">
        <ele>447.1</ele>
        <time>2019-12-15T09:21:36Z</time>
      </trkpt>
      <trkpt lat="43.53167" lon="6.11227">
        <ele>449.1</ele>
        <time>2019-12-15T09:21:54Z</time>
      </trkpt>
      <trkpt lat="43.53167" lon="6.11213">
        <ele>449.2</ele>
        <time>2019-12-15T09:22:03Z</time>
      </trkpt>
      <trkpt lat="43.53167" lon="6.112">
        <ele>450.3</ele>
        <time>2019-12-15T09:22:12Z</time>
      </trkpt>
      <trkpt lat="43.53167" lon="6.11187">
        <ele>450.3</ele>
        <time>2019-12-15T09:22:21Z</time>
      </trkpt>
      <trkpt lat="43.53169" lon="6.11173">
        <ele>450.5</ele>
        <time>2019-12-15T09:22:30Z</time>
      </trkpt>
      <trkpt lat="43.53174" lon="6.11162">
        <ele>449.9</ele>
        <time>2019-12-15T09:22:39Z</time>
      </trkpt>
      <trkpt lat="43.53186" lon="6.11142">
        <ele>451.3</ele>
        <time>2019-12-15T09:22:55Z</time>
      </trkpt>
      <trkpt lat="43.53189" lon="6.11129">
        <ele>452</ele>
        <time>2019-12-15T09:23:03Z</time>
      </trkpt>
      <trkpt lat="43.5319" lon="6.11116">
        <ele>451.9</ele>
        <time>2019-12-15T09:23:11Z</time>
      </trkpt>
      <trkpt lat="43.53189" lon="6.11103">
        <ele>453</ele>
        <time>2019-12-15T09:23:21Z</time>
      </trkpt>
      <trkpt lat="43.53185" lon="6.11091">
        <ele>453.9</ele>
        <time>2019-12-15T09:23:30Z</time>
      </trkpt>
      <trkpt lat="43.53182" lon="6.11078">
        <ele>452.1</ele>
        <time>2019-12-15T09:23:39Z</time>
      </trkpt>
      <trkpt lat="43.5318" lon="6.11066">
        <ele>453.3</ele>
        <time>2019-12-15T09:23:48Z</time>
      </trkpt>
      <trkpt lat="43.53173" lon="6.11042">
        <ele>452.6</ele>
        <time>2019-12-15T09:24:06Z</time>
      </trkpt>
      <trkpt lat="43.53168" lon="6.11029">
        <ele>453</ele>
        <time>2019-12-15T09:24:15Z</time>
      </trkpt>
      <trkpt lat="43.53164" lon="6.11019">
        <ele>452.8</ele>
        <time>2019-12-15T09:24:23Z</time>
      </trkpt>
      <trkpt lat="43.53161" lon="6.11006">
        <ele>452.8</ele>
        <time>2019-12-15T09:24:32Z</time>
      </trkpt>
      <trkpt lat="43.53159" lon="6.10994">
        <ele>454.8</ele>
        <time>2019-12-15T09:24:48Z</time>
      </trkpt>
      <trkpt lat="43.53153" lon="6.10985">
        <ele>454.2</ele>
        <time>2019-12-15T09:25:37Z</time>
      </trkpt>
      <trkpt lat="43.53166" lon="6.10958">
        <ele>454.4</ele>
        <time>2019-12-15T09:29:06Z</time>
      </trkpt>
      <trkpt lat="43.5317" lon="6.10941">
        <ele>454.3</ele>
        <time>2019-12-15T09:29:36Z</time>
      </trkpt>
      <trkpt lat="43.53163" lon="6.10932">
        <ele>456.3</ele>
        <time>2019-12-15T09:29:45Z</time>
      </trkpt>
      <trkpt lat="43.53155" lon="6.10926">
        <ele>454.3</ele>
        <time>2019-12-15T09:29:53Z</time>
      </trkpt>
      <trkpt lat="43.53147" lon="6.10918">
        <ele>456.1</ele>
        <time>2019-12-15T09:30:00Z</time>
      </trkpt>
      <trkpt lat="43.53139" lon="6.10909">
        <ele>456.7</ele>
        <time>2019-12-15T09:30:08Z</time>
      </trkpt>
      <trkpt lat="43.53127" lon="6.1089">
        <ele>458.4</ele>
        <time>2019-12-15T09:30:24Z</time>
      </trkpt>
      <trkpt lat="43.53122" lon="6.10878">
        <ele>458.4</ele>
        <time>2019-12-15T09:30:34Z</time>
      </trkpt>
      <trkpt lat="43.53118" lon="6.10866">
        <ele>457.9</ele>
        <time>2019-12-15T09:30:43Z</time>
      </trkpt>
      <trkpt lat="43.53113" lon="6.10855">
        <ele>459.6</ele>
        <time>2019-12-15T09:30:51Z</time>
      </trkpt>
      <trkpt lat="43.53112" lon="6.10842">
        <ele>458.9</ele>
        <time>2019-12-15T09:31:00Z</time>
      </trkpt>
      <trkpt lat="43.53112" lon="6.10829">
        <ele>460.1</ele>
        <time>2019-12-15T09:31:09Z</time>
      </trkpt>
      <trkpt lat="43.5311" lon="6.10803">
        <ele>459.9</ele>
        <time>2019-12-15T09:31:27Z</time>
      </trkpt>
      <trkpt lat="43.53106" lon="6.10791">
        <ele>460.4</ele>
        <time>2019-12-15T09:31:36Z</time>
      </trkpt>
      <trkpt lat="43.531" lon="6.10781">
        <ele>461</ele>
        <time>2019-12-15T09:31:46Z</time>
      </trkpt>
      <trkpt lat="43.53093" lon="6.10773">
        <ele>461.8</ele>
        <time>2019-12-15T09:31:55Z</time>
      </trkpt>
      <trkpt lat="43.53086" lon="6.10763">
        <ele>462</ele>
        <time>2019-12-15T09:32:05Z</time>
      </trkpt>
      <trkpt lat="43.53078" lon="6.10757">
        <ele>462.4</ele>
        <time>2019-12-15T09:32:14Z</time>
      </trkpt>
      <trkpt lat="43.53063" lon="6.10742">
        <ele>461.1</ele>
        <time>2019-12-15T09:32:30Z</time>
      </trkpt>
      <trkpt lat="43.53056" lon="6.10732">
        <ele>461.8</ele>
        <time>2019-12-15T09:32:37Z</time>
      </trkpt>
      <trkpt lat="43.53056" lon="6.10719">
        <ele>461.7</ele>
        <time>2019-12-15T09:32:46Z</time>
      </trkpt>
      <trkpt lat="43.53062" lon="6.10708">
        <ele>461.1</ele>
        <time>2019-12-15T09:32:57Z</time>
      </trkpt>
      <trkpt lat="43.53069" lon="6.107">
        <ele>461.3</ele>
        <time>2019-12-15T09:33:07Z</time>
      </trkpt>
      <trkpt lat="43.53078" lon="6.10692">
        <ele>460.9</ele>
        <time>2019-12-15T09:33:17Z</time>
      </trkpt>
      <trkpt lat="43.53093" lon="6.10678">
        <ele>459.7</ele>
        <time>2019-12-15T09:33:36Z</time>
      </trkpt>
      <trkpt lat="43.53101" lon="6.10669">
        <ele>459.4</ele>
        <time>2019-12-15T09:33:45Z</time>
      </trkpt>
      <trkpt lat="43.53108" lon="6.10661">
        <ele>458.7</ele>
        <time>2019-12-15T09:33:53Z</time>
      </trkpt>
      <trkpt lat="43.53115" lon="6.10652">
        <ele>459.6</ele>
        <time>2019-12-15T09:34:02Z</time>
      </trkpt>
      <trkpt lat="43.53122" lon="6.10644">
        <ele>458.9</ele>
        <time>2019-12-15T09:34:13Z</time>
      </trkpt>
      <trkpt lat="43.53129" lon="6.10635">
        <ele>458.7</ele>
        <time>2019-12-15T09:34:23Z</time>
      </trkpt>
      <trkpt lat="43.53144" lon="6.10618">
        <ele>459.6</ele>
        <time>2019-12-15T09:34:40Z</time>
      </trkpt>
      <trkpt lat="43.53152" lon="6.10612">
        <ele>458.6</ele>
        <time>2019-12-15T09:34:49Z</time>
      </trkpt>
      <trkpt lat="43.5316" lon="6.10607">
        <ele>459.3</ele>
        <time>2019-12-15T09:34:58Z</time>
      </trkpt>
      <trkpt lat="43.53169" lon="6.10601">
        <ele>459.9</ele>
        <time>2019-12-15T09:35:07Z</time>
      </trkpt>
      <trkpt lat="43.53178" lon="6.10595">
        <ele>460.9</ele>
        <time>2019-12-15T09:35:18Z</time>
      </trkpt>
      <trkpt lat="43.53187" lon="6.1059">
        <ele>459.6</ele>
        <time>2019-12-15T09:35:27Z</time>
      </trkpt>
      <trkpt lat="43.53203" lon="6.10577">
        <ele>461.3</ele>
        <time>2019-12-15T09:35:46Z</time>
      </trkpt>
      <trkpt lat="43.53212" lon="6.10571">
        <ele>460.4</ele>
        <time>2019-12-15T09:35:56Z</time>
      </trkpt>
      <trkpt lat="43.5322" lon="6.10565">
        <ele>461.9</ele>
        <time>2019-12-15T09:36:06Z</time>
      </trkpt>
      <trkpt lat="43.53228" lon="6.10559">
        <ele>462.4</ele>
        <time>2019-12-15T09:36:16Z</time>
      </trkpt>
      <trkpt lat="43.53235" lon="6.10549">
        <ele>461.6</ele>
        <time>2019-12-15T09:36:26Z</time>
      </trkpt>
      <trkpt lat="43.53235" lon="6.10536">
        <ele>460.8</ele>
        <time>2019-12-15T09:37:45Z</time>
      </trkpt>
      <trkpt lat="43.53216" lon="6.10531">
        <ele>458.7</ele>
        <time>2019-12-15T09:38:10Z</time>
      </trkpt>
      <trkpt lat="43.53207" lon="6.10532">
        <ele>458.1</ele>
        <time>2019-12-15T09:38:20Z</time>
      </trkpt>
      <trkpt lat="43.53198" lon="6.10533">
        <ele>457.3</ele>
        <time>2019-12-15T09:38:30Z</time>
      </trkpt>
      <trkpt lat="43.53189" lon="6.10536">
        <ele>456.3</ele>
        <time>2019-12-15T09:38:40Z</time>
      </trkpt>
      <trkpt lat="43.53179" lon="6.10537">
        <ele>455.9</ele>
        <time>2019-12-15T09:38:51Z</time>
      </trkpt>
      <trkpt lat="43.53161" lon="6.10537">
        <ele>454.5</ele>
        <time>2019-12-15T09:39:09Z</time>
      </trkpt>
      <trkpt lat="43.53152" lon="6.10536">
        <ele>454.8</ele>
        <time>2019-12-15T09:39:18Z</time>
      </trkpt>
      <trkpt lat="43.53142" lon="6.10537">
        <ele>454.3</ele>
        <time>2019-12-15T09:39:27Z</time>
      </trkpt>
      <trkpt lat="43.53133" lon="6.10539">
        <ele>453.6</ele>
        <time>2019-12-15T09:39:36Z</time>
      </trkpt>
      <trkpt lat="43.53123" lon="6.10538">
        <ele>452.9</ele>
        <time>2019-12-15T09:39:46Z</time>
      </trkpt>
      <trkpt lat="43.53113" lon="6.10539">
        <ele>454.2</ele>
        <time>2019-12-15T09:39:56Z</time>
      </trkpt>
      <trkpt lat="43.53096" lon="6.1053">
        <ele>453.1</ele>
        <time>2019-12-15T09:40:16Z</time>
      </trkpt>
      <trkpt lat="43.53092" lon="6.10518">
        <ele>455.1</ele>
        <time>2019-12-15T09:40:27Z</time>
      </trkpt>
      <trkpt lat="43.5309" lon="6.10505">
        <ele>454.2</ele>
        <time>2019-12-15T09:40:36Z</time>
      </trkpt>
      <trkpt lat="43.53089" lon="6.10492">
        <ele>454.3</ele>
        <time>2019-12-15T09:40:45Z</time>
      </trkpt>
      <trkpt lat="43.53089" lon="6.10479">
        <ele>454.4</ele>
        <time>2019-12-15T09:40:53Z</time>
      </trkpt>
      <trkpt lat="43.5309" lon="6.10465">
        <ele>454</ele>
        <time>2019-12-15T09:41:02Z</time>
      </trkpt>
      <trkpt lat="43.5309" lon="6.10438">
        <ele>453.6</ele>
        <time>2019-12-15T09:41:18Z</time>
      </trkpt>
      <trkpt lat="43.53089" lon="6.10425">
        <ele>452.5</ele>
        <time>2019-12-15T09:41:28Z</time>
      </trkpt>
      <trkpt lat="43.5309" lon="6.10411">
        <ele>451.5</ele>
        <time>2019-12-15T09:41:37Z</time>
      </trkpt>
      <trkpt lat="43.5309" lon="6.10399">
        <ele>451.4</ele>
        <time>2019-12-15T09:41:45Z</time>
      </trkpt>
      <trkpt lat="43.53091" lon="6.10385">
        <ele>451.2</ele>
        <time>2019-12-15T09:41:53Z</time>
      </trkpt>
      <trkpt lat="43.53093" lon="6.10372">
        <ele>451.5</ele>
        <time>2019-12-15T09:42:01Z</time>
      </trkpt>
      <trkpt lat="43.53096" lon="6.1036">
        <ele>451.9</ele>
        <time>2019-12-15T09:42:10Z</time>
      </trkpt>
      <trkpt lat="43.53104" lon="6.10336">
        <ele>453.1</ele>
        <time>2019-12-15T09:42:29Z</time>
      </trkpt>
      <trkpt lat="43.5311" lon="6.10324">
        <ele>452.8</ele>
        <time>2019-12-15T09:42:39Z</time>
      </trkpt>
      <trkpt lat="43.53116" lon="6.10315">
        <ele>453.4</ele>
        <time>2019-12-15T09:42:47Z</time>
      </trkpt>
      <trkpt lat="43.53123" lon="6.10307">
        <ele>452.9</ele>
        <time>2019-12-15T09:42:55Z</time>
      </trkpt>
      <trkpt lat="43.53129" lon="6.10297">
        <ele>453.9</ele>
        <time>2019-12-15T09:43:03Z</time>
      </trkpt>
      <trkpt lat="43.53136" lon="6.10288">
        <ele>454.7</ele>
        <time>2019-12-15T09:43:13Z</time>
      </trkpt>
      <trkpt lat="43.53151" lon="6.10271">
        <ele>456.2</ele>
        <time>2019-12-15T09:43:34Z</time>
      </trkpt>
      <trkpt lat="43.53159" lon="6.10263">
        <ele>456.9</ele>
        <time>2019-12-15T09:43:44Z</time>
      </trkpt>
      <trkpt lat="43.53167" lon="6.10256">
        <ele>456.3</ele>
        <time>2019-12-15T09:43:54Z</time>
      </trkpt>
      <trkpt lat="43.53174" lon="6.10247">
        <ele>456.5</ele>
        <time>2019-12-15T09:44:04Z</time>
      </trkpt>
      <trkpt lat="43.53178" lon="6.10235">
        <ele>456.8</ele>
        <time>2019-12-15T09:44:14Z</time>
      </trkpt>
      <trkpt lat="43.53178" lon="6.10209">
        <ele>458.5</ele>
        <time>2019-12-15T09:44:38Z</time>
      </trkpt>
      <trkpt lat="43.53176" lon="6.10197">
        <ele>458.7</ele>
        <time>2019-12-15T09:44:47Z</time>
      </trkpt>
      <trkpt lat="43.53173" lon="6.10184">
        <ele>458.8</ele>
        <time>2019-12-15T09:44:57Z</time>
      </trkpt>
      <trkpt lat="43.53169" lon="6.10171">
        <ele>459.6</ele>
        <time>2019-12-15T09:45:07Z</time>
      </trkpt>
      <trkpt lat="43.53165" lon="6.1016">
        <ele>458.8</ele>
        <time>2019-12-15T09:45:16Z</time>
      </trkpt>
      <trkpt lat="43.53165" lon="6.10133">
        <ele>460</ele>
        <time>2019-12-15T09:45:34Z</time>
      </trkpt>
      <trkpt lat="43.53163" lon="6.1012">
        <ele>461.1</ele>
        <time>2019-12-15T09:45:43Z</time>
      </trkpt>
      <trkpt lat="43.53162" lon="6.10107">
        <ele>461.1</ele>
        <time>2019-12-15T09:45:52Z</time>
      </trkpt>
      <trkpt lat="43.53161" lon="6.10094">
        <ele>462</ele>
        <time>2019-12-15T09:46:02Z</time>
      </trkpt>
      <trkpt lat="43.5316" lon="6.1008">
        <ele>463</ele>
        <time>2019-12-15T09:46:12Z</time>
      </trkpt>
      <trkpt lat="43.53159" lon="6.10067">
        <ele>463.7</ele>
        <time>2019-12-15T09:46:22Z</time>
      </trkpt>
      <trkpt lat="43.53162" lon="6.10041">
        <ele>466</ele>
        <time>2019-12-15T09:46:40Z</time>
      </trkpt>
      <trkpt lat="43.53164" lon="6.10029">
        <ele>465.5</ele>
        <time>2019-12-15T09:46:49Z</time>
      </trkpt>
      <trkpt lat="43.53167" lon="6.10017">
        <ele>466.6</ele>
        <time>2019-12-15T09:46:59Z</time>
      </trkpt>
      <trkpt lat="43.53171" lon="6.10004">
        <ele>466</ele>
        <time>2019-12-15T09:47:09Z</time>
      </trkpt>
      <trkpt lat="43.53172" lon="6.09991">
        <ele>467.6</ele>
        <time>2019-12-15T09:47:19Z</time>
      </trkpt>
      <trkpt lat="43.53165" lon="6.09981">
        <ele>466.4</ele>
        <time>2019-12-15T09:47:32Z</time>
      </trkpt>
      <trkpt lat="43.53155" lon="6.0996">
        <ele>467.4</ele>
        <time>2019-12-15T09:47:52Z</time>
      </trkpt>
      <trkpt lat="43.53153" lon="6.09948">
        <ele>467.8</ele>
        <time>2019-12-15T09:48:02Z</time>
      </trkpt>
      <trkpt lat="43.53152" lon="6.09935">
        <ele>466.9</ele>
        <time>2019-12-15T09:48:10Z</time>
      </trkpt>
      <trkpt lat="43.53148" lon="6.09923">
        <ele>466.5</ele>
        <time>2019-12-15T09:48:19Z</time>
      </trkpt>
      <trkpt lat="43.53148" lon="6.0991">
        <ele>467.3</ele>
        <time>2019-12-15T09:48:28Z</time>
      </trkpt>
      <trkpt lat="43.53146" lon="6.09898">
        <ele>467.5</ele>
        <time>2019-12-15T09:48:36Z</time>
      </trkpt>
      <trkpt lat="43.53132" lon="6.09881">
        <ele>465.7</ele>
        <time>2019-12-15T09:48:54Z</time>
      </trkpt>
      <trkpt lat="43.53124" lon="6.09874">
        <ele>464.7</ele>
        <time>2019-12-15T09:49:03Z</time>
      </trkpt>
      <trkpt lat="43.53116" lon="6.09865">
        <ele>466</ele>
        <time>2019-12-15T09:49:12Z</time>
      </trkpt>
      <trkpt lat="43.53113" lon="6.09853">
        <ele>463.8</ele>
        <time>2019-12-15T09:49:21Z</time>
      </trkpt>
      <trkpt lat="43.53106" lon="6.09844">
        <ele>465.8</ele>
        <time>2019-12-15T09:49:32Z</time>
      </trkpt>
      <trkpt lat="43.53097" lon="6.09841">
        <ele>465.8</ele>
        <time>2019-12-15T09:49:42Z</time>
      </trkpt>
      <trkpt lat="43.53082" lon="6.09827">
        <ele>464.9</ele>
        <time>2019-12-15T09:50:00Z</time>
      </trkpt>
      <trkpt lat="43.53075" lon="6.09817">
        <ele>464.3</ele>
        <time>2019-12-15T09:50:09Z</time>
      </trkpt>
      <trkpt lat="43.53068" lon="6.09807">
        <ele>464.1</ele>
        <time>2019-12-15T09:50:18Z</time>
      </trkpt>
      <trkpt lat="43.53063" lon="6.09796">
        <ele>465.3</ele>
        <time>2019-12-15T09:50:28Z</time>
      </trkpt>
      <trkpt lat="43.53058" lon="6.09786">
        <ele>463.8</ele>
        <time>2019-12-15T09:50:47Z</time>
      </trkpt>
      <trkpt lat="43.53048" lon="6.09764">
        <ele>462.3</ele>
        <time>2019-12-15T09:51:32Z</time>
      </trkpt>
      <trkpt lat="43.53044" lon="6.09753">
        <ele>463.4</ele>
        <time>2019-12-15T09:51:49Z</time>
      </trkpt>
      <trkpt lat="43.53031" lon="6.09732">
        <ele>463.2</ele>
        <time>2019-12-15T09:52:18Z</time>
      </trkpt>
      <trkpt lat="43.53027" lon="6.09721">
        <ele>464.3</ele>
        <time>2019-12-15T09:52:29Z</time>
      </trkpt>
      <trkpt lat="43.53023" lon="6.0971">
        <ele>463.2</ele>
        <time>2019-12-15T09:52:39Z</time>
      </trkpt>
      <trkpt lat="43.53019" lon="6.09698">
        <ele>462.7</ele>
        <time>2019-12-15T09:52:50Z</time>
      </trkpt>
      <trkpt lat="43.5301" lon="6.09675">
        <ele>461.8</ele>
        <time>2019-12-15T09:53:07Z</time>
      </trkpt>
      <trkpt lat="43.53005" lon="6.09664">
        <ele>461.2</ele>
        <time>2019-12-15T09:53:15Z</time>
      </trkpt>
      <trkpt lat="43.52998" lon="6.09654">
        <ele>459.6</ele>
        <time>2019-12-15T09:53:23Z</time>
      </trkpt>
      <trkpt lat="43.52991" lon="6.09644">
        <ele>460.1</ele>
        <time>2019-12-15T09:53:32Z</time>
      </trkpt>
      <trkpt lat="43.52983" lon="6.09637">
        <ele>460.5</ele>
        <time>2019-12-15T09:53:40Z</time>
      </trkpt>
      <trkpt lat="43.52975" lon="6.09629">
        <ele>459.7</ele>
        <time>2019-12-15T09:53:49Z</time>
      </trkpt>
      <trkpt lat="43.52967" lon="6.09622">
        <ele>460.3</ele>
        <time>2019-12-15T09:53:58Z</time>
      </trkpt>
      <trkpt lat="43.5295" lon="6.09611">
        <ele>460</ele>
        <time>2019-12-15T09:54:15Z</time>
      </trkpt>
      <trkpt lat="43.52942" lon="6.09605">
        <ele>459.2</ele>
        <time>2019-12-15T09:54:24Z</time>
      </trkpt>
      <trkpt lat="43.52936" lon="6.09594">
        <ele>458.6</ele>
        <time>2019-12-15T09:54:34Z</time>
      </trkpt>
      <trkpt lat="43.5293" lon="6.09585">
        <ele>460</ele>
        <time>2019-12-15T09:54:44Z</time>
      </trkpt>
      <trkpt lat="43.52925" lon="6.09574">
        <ele>460.6</ele>
        <time>2019-12-15T09:54:53Z</time>
      </trkpt>
      <trkpt lat="43.5292" lon="6.09562">
        <ele>460.1</ele>
        <time>2019-12-15T09:55:02Z</time>
      </trkpt>
      <trkpt lat="43.52916" lon="6.09537">
        <ele>460.1</ele>
        <time>2019-12-15T09:55:20Z</time>
      </trkpt>
      <trkpt lat="43.52913" lon="6.09524">
        <ele>459.6</ele>
        <time>2019-12-15T09:55:29Z</time>
      </trkpt>
      <trkpt lat="43.52913" lon="6.09511">
        <ele>459.1</ele>
        <time>2019-12-15T09:55:37Z</time>
      </trkpt>
      <trkpt lat="43.52912" lon="6.09499">
        <ele>460.2</ele>
        <time>2019-12-15T09:55:45Z</time>
      </trkpt>
      <trkpt lat="43.52911" lon="6.09486">
        <ele>458.7</ele>
        <time>2019-12-15T09:55:54Z</time>
      </trkpt>
      <trkpt lat="43.52912" lon="6.09474">
        <ele>458.4</ele>
        <time>2019-12-15T09:56:04Z</time>
      </trkpt>
      <trkpt lat="43.52918" lon="6.09449">
        <ele>460</ele>
        <time>2019-12-15T09:56:21Z</time>
      </trkpt>
      <trkpt lat="43.52922" lon="6.09438">
        <ele>460.6</ele>
        <time>2019-12-15T09:56:29Z</time>
      </trkpt>
      <trkpt lat="43.52929" lon="6.09428">
        <ele>460.4</ele>
        <time>2019-12-15T09:56:38Z</time>
      </trkpt>
      <trkpt lat="43.52937" lon="6.09422">
        <ele>459.6</ele>
        <time>2019-12-15T09:56:48Z</time>
      </trkpt>
      <trkpt lat="43.52942" lon="6.09412">
        <ele>459.6</ele>
        <time>2019-12-15T09:56:58Z</time>
      </trkpt>
      <trkpt lat="43.52942" lon="6.09399">
        <ele>458.5</ele>
        <time>2019-12-15T09:57:09Z</time>
      </trkpt>
      <trkpt lat="43.52947" lon="6.09375">
        <ele>459.8</ele>
        <time>2019-12-15T09:57:27Z</time>
      </trkpt>
      <trkpt lat="43.52952" lon="6.09363">
        <ele>458.1</ele>
        <time>2019-12-15T09:57:36Z</time>
      </trkpt>
      <trkpt lat="43.52957" lon="6.09352">
        <ele>458.2</ele>
        <time>2019-12-15T09:57:45Z</time>
      </trkpt>
      <trkpt lat="43.52959" lon="6.09339">
        <ele>458.1</ele>
        <time>2019-12-15T09:57:55Z</time>
      </trkpt>
      <trkpt lat="43.52958" lon="6.09326">
        <ele>458.8</ele>
        <time>2019-12-15T09:58:05Z</time>
      </trkpt>
      <trkpt lat="43.52958" lon="6.09312">
        <ele>458.8</ele>
        <time>2019-12-15T09:58:14Z</time>
      </trkpt>
      <trkpt lat="43.52963" lon="6.09286">
        <ele>459.3</ele>
        <time>2019-12-15T09:58:32Z</time>
      </trkpt>
      <trkpt lat="43.52965" lon="6.09274">
        <ele>459.4</ele>
        <time>2019-12-15T09:58:42Z</time>
      </trkpt>
      <trkpt lat="43.52974" lon="6.09268">
        <ele>460</ele>
        <time>2019-12-15T10:00:01Z</time>
      </trkpt>
      <trkpt lat="43.52951" lon="6.09248">
        <ele>459.8</ele>
        <time>2019-12-15T10:02:48Z</time>
      </trkpt>
      <trkpt lat="43.52942" lon="6.09245">
        <ele>460.1</ele>
        <time>2019-12-15T10:02:58Z</time>
      </trkpt>
      <trkpt lat="43.52933" lon="6.09242">
        <ele>460.3</ele>
        <time>2019-12-15T10:03:11Z</time>
      </trkpt>
      <trkpt lat="43.52923" lon="6.09239">
        <ele>459.6</ele>
        <time>2019-12-15T10:03:21Z</time>
      </trkpt>
      <trkpt lat="43.52908" lon="6.09226">
        <ele>460.9</ele>
        <time>2019-12-15T10:03:40Z</time>
      </trkpt>
      <trkpt lat="43.52901" lon="6.09217">
        <ele>459.7</ele>
        <time>2019-12-15T10:03:49Z</time>
      </trkpt>
      <trkpt lat="43.52895" lon="6.09206">
        <ele>460.2</ele>
        <time>2019-12-15T10:04:00Z</time>
      </trkpt>
      <trkpt lat="43.52895" lon="6.09194">
        <ele>461.5</ele>
        <time>2019-12-15T10:04:08Z</time>
      </trkpt>
      <trkpt lat="43.52896" lon="6.09181">
        <ele>461.3</ele>
        <time>2019-12-15T10:04:17Z</time>
      </trkpt>
      <trkpt lat="43.52902" lon="6.09169">
        <ele>461.8</ele>
        <time>2019-12-15T10:04:27Z</time>
      </trkpt>
      <trkpt lat="43.52909" lon="6.09145">
        <ele>463.4</ele>
        <time>2019-12-15T10:04:46Z</time>
      </trkpt>
      <trkpt lat="43.5291" lon="6.09133">
        <ele>464.6</ele>
        <time>2019-12-15T10:04:56Z</time>
      </trkpt>
      <trkpt lat="43.52909" lon="6.09119">
        <ele>464.7</ele>
        <time>2019-12-15T10:05:07Z</time>
      </trkpt>
      <trkpt lat="43.52909" lon="6.09106">
        <ele>464.2</ele>
        <time>2019-12-15T10:05:19Z</time>
      </trkpt>
      <trkpt lat="43.52909" lon="6.09093">
        <ele>465.5</ele>
        <time>2019-12-15T10:05:29Z</time>
      </trkpt>
      <trkpt lat="43.52912" lon="6.09068">
        <ele>466.3</ele>
        <time>2019-12-15T10:05:45Z</time>
      </trkpt>
      <trkpt lat="43.52916" lon="6.09056">
        <ele>466.2</ele>
        <time>2019-12-15T10:05:54Z</time>
      </trkpt>
      <trkpt lat="43.5292" lon="6.09044">
        <ele>465.9</ele>
        <time>2019-12-15T10:06:03Z</time>
      </trkpt>
      <trkpt lat="43.52925" lon="6.09033">
        <ele>468.1</ele>
        <time>2019-12-15T10:06:14Z</time>
      </trkpt>
      <trkpt lat="43.52931" lon="6.09022">
        <ele>467.4</ele>
        <time>2019-12-15T10:06:24Z</time>
      </trkpt>
      <trkpt lat="43.52936" lon="6.09012">
        <ele>468</ele>
        <time>2019-12-15T10:06:33Z</time>
      </trkpt>
      <trkpt lat="43.52948" lon="6.08993">
        <ele>469.3</ele>
        <time>2019-12-15T10:06:53Z</time>
      </trkpt>
      <trkpt lat="43.52954" lon="6.08983">
        <ele>469.9</ele>
        <time>2019-12-15T10:07:03Z</time>
      </trkpt>
      <trkpt lat="43.52956" lon="6.08971">
        <ele>469.6</ele>
        <time>2019-12-15T10:07:14Z</time>
      </trkpt>
      <trkpt lat="43.52954" lon="6.08958">
        <ele>471.2</ele>
        <time>2019-12-15T10:07:26Z</time>
      </trkpt>
      <trkpt lat="43.52953" lon="6.08945">
        <ele>471</ele>
        <time>2019-12-15T10:07:36Z</time>
      </trkpt>
      <trkpt lat="43.52952" lon="6.08919">
        <ele>473.1</ele>
        <time>2019-12-15T10:07:57Z</time>
      </trkpt>
      <trkpt lat="43.52953" lon="6.08906">
        <ele>473.4</ele>
        <time>2019-12-15T10:08:06Z</time>
      </trkpt>
      <trkpt lat="43.52953" lon="6.08893">
        <ele>473.4</ele>
        <time>2019-12-15T10:08:15Z</time>
      </trkpt>
      <trkpt lat="43.52951" lon="6.08881">
        <ele>473.2</ele>
        <time>2019-12-15T10:08:25Z</time>
      </trkpt>
      <trkpt lat="43.52947" lon="6.0887">
        <ele>473.7</ele>
        <time>2019-12-15T10:08:35Z</time>
      </trkpt>
      <trkpt lat="43.52942" lon="6.08859">
        <ele>475.4</ele>
        <time>2019-12-15T10:08:46Z</time>
      </trkpt>
      <trkpt lat="43.52933" lon="6.08835">
        <ele>477</ele>
        <time>2019-12-15T10:09:07Z</time>
      </trkpt>
      <trkpt lat="43.52929" lon="6.08823">
        <ele>476.5</ele>
        <time>2019-12-15T10:09:17Z</time>
      </trkpt>
      <trkpt lat="43.52926" lon="6.0881">
        <ele>477</ele>
        <time>2019-12-15T10:09:27Z</time>
      </trkpt>
      <trkpt lat="43.52925" lon="6.08798">
        <ele>476.9</ele>
        <time>2019-12-15T10:09:36Z</time>
      </trkpt>
      <trkpt lat="43.52924" lon="6.08785">
        <ele>478</ele>
        <time>2019-12-15T10:09:45Z</time>
      </trkpt>
      <trkpt lat="43.52926" lon="6.08772">
        <ele>477.9</ele>
        <time>2019-12-15T10:09:54Z</time>
      </trkpt>
      <trkpt lat="43.52926" lon="6.08746">
        <ele>478.7</ele>
        <time>2019-12-15T10:10:13Z</time>
      </trkpt>
      <trkpt lat="43.52921" lon="6.08736">
        <ele>478.7</ele>
        <time>2019-12-15T10:10:26Z</time>
      </trkpt>
      <trkpt lat="43.52917" lon="6.08724">
        <ele>480.4</ele>
        <time>2019-12-15T10:10:39Z</time>
      </trkpt>
      <trkpt lat="43.52913" lon="6.08712">
        <ele>480</ele>
        <time>2019-12-15T10:10:51Z</time>
      </trkpt>
      <trkpt lat="43.52911" lon="6.08699">
        <ele>480.8</ele>
        <time>2019-12-15T10:11:01Z</time>
      </trkpt>
      <trkpt lat="43.52913" lon="6.08673">
        <ele>481.4</ele>
        <time>2019-12-15T10:11:20Z</time>
      </trkpt>
      <trkpt lat="43.52916" lon="6.08661">
        <ele>480.9</ele>
        <time>2019-12-15T10:11:28Z</time>
      </trkpt>
      <trkpt lat="43.52919" lon="6.08649">
        <ele>481.7</ele>
        <time>2019-12-15T10:11:37Z</time>
      </trkpt>
      <trkpt lat="43.52922" lon="6.08636">
        <ele>481.6</ele>
        <time>2019-12-15T10:11:46Z</time>
      </trkpt>
      <trkpt lat="43.52926" lon="6.08624">
        <ele>482.6</ele>
        <time>2019-12-15T10:11:56Z</time>
      </trkpt>
      <trkpt lat="43.5293" lon="6.08613">
        <ele>482.6</ele>
        <time>2019-12-15T10:12:05Z</time>
      </trkpt>
      <trkpt lat="43.52939" lon="6.0859">
        <ele>483.3</ele>
        <time>2019-12-15T10:12:24Z</time>
      </trkpt>
      <trkpt lat="43.52946" lon="6.08579">
        <ele>484.2</ele>
        <time>2019-12-15T10:12:35Z</time>
      </trkpt>
      <trkpt lat="43.52951" lon="6.08569">
        <ele>485.6</ele>
        <time>2019-12-15T10:12:45Z</time>
      </trkpt>
      <trkpt lat="43.52953" lon="6.08557">
        <ele>485.2</ele>
        <time>2019-12-15T10:12:56Z</time>
      </trkpt>
      <trkpt lat="43.52946" lon="6.08549">
        <ele>486.2</ele>
        <time>2019-12-15T10:13:10Z</time>
      </trkpt>
      <trkpt lat="43.52929" lon="6.08539">
        <ele>486.2</ele>
        <time>2019-12-15T10:13:32Z</time>
      </trkpt>
      <trkpt lat="43.5292" lon="6.08535">
        <ele>486.6</ele>
        <time>2019-12-15T10:13:41Z</time>
      </trkpt>
      <trkpt lat="43.5291" lon="6.08532">
        <ele>487</ele>
        <time>2019-12-15T10:13:51Z</time>
      </trkpt>
      <trkpt lat="43.52903" lon="6.08524">
        <ele>487</ele>
        <time>2019-12-15T10:14:02Z</time>
      </trkpt>
      <trkpt lat="43.529" lon="6.08511">
        <ele>487.4</ele>
        <time>2019-12-15T10:14:13Z</time>
      </trkpt>
      <trkpt lat="43.52902" lon="6.08486">
        <ele>488.2</ele>
        <time>2019-12-15T10:14:33Z</time>
      </trkpt>
      <trkpt lat="43.52908" lon="6.08475">
        <ele>488.4</ele>
        <time>2019-12-15T10:14:44Z</time>
      </trkpt>
      <trkpt lat="43.52912" lon="6.08463">
        <ele>488.7</ele>
        <time>2019-12-15T10:14:54Z</time>
      </trkpt>
      <trkpt lat="43.52915" lon="6.08451">
        <ele>489.2</ele>
        <time>2019-12-15T10:15:03Z</time>
      </trkpt>
      <trkpt lat="43.52918" lon="6.08439">
        <ele>489.8</ele>
        <time>2019-12-15T10:15:12Z</time>
      </trkpt>
      <trkpt lat="43.52924" lon="6.08429">
        <ele>490</ele>
        <time>2019-12-15T10:15:48Z</time>
      </trkpt>
      <trkpt lat="43.52941" lon="6.08399">
        <ele>492.1</ele>
        <time>2019-12-15T10:19:10Z</time>
      </trkpt>
      <trkpt lat="43.52949" lon="6.08391">
        <ele>491.8</ele>
        <time>2019-12-15T10:19:21Z</time>
      </trkpt>
      <trkpt lat="43.52956" lon="6.08383">
        <ele>491.9</ele>
        <time>2019-12-15T10:19:32Z</time>
      </trkpt>
      <trkpt lat="43.52964" lon="6.08375">
        <ele>493.6</ele>
        <time>2019-12-15T10:19:42Z</time>
      </trkpt>
      <trkpt lat="43.52977" lon="6.08356">
        <ele>493.6</ele>
        <time>2019-12-15T10:20:00Z</time>
      </trkpt>
      <trkpt lat="43.52978" lon="6.08343">
        <ele>492.6</ele>
        <time>2019-12-15T10:20:10Z</time>
      </trkpt>
      <trkpt lat="43.52975" lon="6.0833">
        <ele>493.9</ele>
        <time>2019-12-15T10:20:21Z</time>
      </trkpt>
      <trkpt lat="43.5297" lon="6.08319">
        <ele>494.7</ele>
        <time>2019-12-15T10:20:32Z</time>
      </trkpt>
      <trkpt lat="43.52967" lon="6.08307">
        <ele>494.4</ele>
        <time>2019-12-15T10:20:41Z</time>
      </trkpt>
      <trkpt lat="43.52966" lon="6.08295">
        <ele>494.3</ele>
        <time>2019-12-15T10:20:49Z</time>
      </trkpt>
      <trkpt lat="43.5297" lon="6.08274">
        <ele>495.5</ele>
        <time>2019-12-15T10:24:25Z</time>
      </trkpt>
      <trkpt lat="43.52983" lon="6.08256">
        <ele>496.3</ele>
        <time>2019-12-15T10:24:48Z</time>
      </trkpt>
      <trkpt lat="43.52992" lon="6.0825">
        <ele>496.7</ele>
        <time>2019-12-15T10:24:58Z</time>
      </trkpt>
      <trkpt lat="43.53" lon="6.08246">
        <ele>498.6</ele>
        <time>2019-12-15T10:25:07Z</time>
      </trkpt>
      <trkpt lat="43.53009" lon="6.08241">
        <ele>498.3</ele>
        <time>2019-12-15T10:25:16Z</time>
      </trkpt>
      <trkpt lat="43.53018" lon="6.08236">
        <ele>498.6</ele>
        <time>2019-12-15T10:25:25Z</time>
      </trkpt>
      <trkpt lat="43.53027" lon="6.0823">
        <ele>498.3</ele>
        <time>2019-12-15T10:25:34Z</time>
      </trkpt>
      <trkpt lat="43.53044" lon="6.08219">
        <ele>499.5</ele>
        <time>2019-12-15T10:25:51Z</time>
      </trkpt>
      <trkpt lat="43.53043" lon="6.08206">
        <ele>499</ele>
        <time>2019-12-15T10:26:05Z</time>
      </trkpt>
      <trkpt lat="43.53038" lon="6.08194">
        <ele>499.8</ele>
        <time>2019-12-15T10:26:16Z</time>
      </trkpt>
      <trkpt lat="43.53035" lon="6.08182">
        <ele>500.6</ele>
        <time>2019-12-15T10:26:25Z</time>
      </trkpt>
      <trkpt lat="43.53036" lon="6.08168">
        <ele>501.5</ele>
        <time>2019-12-15T10:26:34Z</time>
      </trkpt>
      <trkpt lat="43.53036" lon="6.08155">
        <ele>500.8</ele>
        <time>2019-12-15T10:26:41Z</time>
      </trkpt>
      <trkpt lat="43.53037" lon="6.08129">
        <ele>501.5</ele>
        <time>2019-12-15T10:26:56Z</time>
      </trkpt>
      <trkpt lat="43.53039" lon="6.08117">
        <ele>502</ele>
        <time>2019-12-15T10:27:04Z</time>
      </trkpt>
      <trkpt lat="43.53041" lon="6.08104">
        <ele>502.8</ele>
        <time>2019-12-15T10:27:12Z</time>
      </trkpt>
      <trkpt lat="43.53045" lon="6.08093">
        <ele>503.3</ele>
        <time>2019-12-15T10:27:20Z</time>
      </trkpt>
      <trkpt lat="43.53049" lon="6.08081">
        <ele>503.6</ele>
        <time>2019-12-15T10:27:28Z</time>
      </trkpt>
      <trkpt lat="43.53056" lon="6.08073">
        <ele>503.1</ele>
        <time>2019-12-15T10:27:38Z</time>
      </trkpt>
      <trkpt lat="43.53065" lon="6.08066">
        <ele>503.9</ele>
        <time>2019-12-15T10:27:48Z</time>
      </trkpt>
      <trkpt lat="43.53083" lon="6.08055">
        <ele>504.9</ele>
        <time>2019-12-15T10:28:08Z</time>
      </trkpt>
      <trkpt lat="43.5309" lon="6.08048">
        <ele>504.2</ele>
        <time>2019-12-15T10:28:17Z</time>
      </trkpt>
      <trkpt lat="43.53098" lon="6.0804">
        <ele>505.6</ele>
        <time>2019-12-15T10:28:26Z</time>
      </trkpt>
      <trkpt lat="43.53107" lon="6.08034">
        <ele>507.1</ele>
        <time>2019-12-15T10:28:36Z</time>
      </trkpt>
      <trkpt lat="43.53116" lon="6.0803">
        <ele>506.3</ele>
        <time>2019-12-15T10:28:45Z</time>
      </trkpt>
      <trkpt lat="43.53122" lon="6.08021">
        <ele>507.6</ele>
        <time>2019-12-15T10:28:54Z</time>
      </trkpt>
      <trkpt lat="43.53116" lon="6.07999">
        <ele>507.6</ele>
        <time>2019-12-15T10:29:19Z</time>
      </trkpt>
      <trkpt lat="43.53109" lon="6.07991">
        <ele>508</ele>
        <time>2019-12-15T10:29:29Z</time>
      </trkpt>
      <trkpt lat="43.53104" lon="6.07979">
        <ele>507.9</ele>
        <time>2019-12-15T10:29:38Z</time>
      </trkpt>
      <trkpt lat="43.53106" lon="6.07966">
        <ele>508.9</ele>
        <time>2019-12-15T10:29:47Z</time>
      </trkpt>
      <trkpt lat="43.53111" lon="6.07956">
        <ele>509.2</ele>
        <time>2019-12-15T10:29:56Z</time>
      </trkpt>
      <trkpt lat="43.53121" lon="6.07933">
        <ele>510.7</ele>
        <time>2019-12-15T10:30:14Z</time>
      </trkpt>
      <trkpt lat="43.53127" lon="6.07922">
        <ele>510.1</ele>
        <time>2019-12-15T10:30:23Z</time>
      </trkpt>
      <trkpt lat="43.53132" lon="6.07912">
        <ele>511.6</ele>
        <time>2019-12-15T10:30:31Z</time>
      </trkpt>
      <trkpt lat="43.53139" lon="6.07902">
        <ele>511.5</ele>
        <time>2019-12-15T10:30:41Z</time>
      </trkpt>
      <trkpt lat="43.53146" lon="6.07893">
        <ele>511.4</ele>
        <time>2019-12-15T10:30:50Z</time>
      </trkpt>
      <trkpt lat="43.53149" lon="6.0788">
        <ele>511.8</ele>
        <time>2019-12-15T10:30:59Z</time>
      </trkpt>
      <trkpt lat="43.53153" lon="6.07855">
        <ele>512.7</ele>
        <time>2019-12-15T10:31:17Z</time>
      </trkpt>
      <trkpt lat="43.53151" lon="6.07842">
        <ele>513.3</ele>
        <time>2019-12-15T10:31:27Z</time>
      </trkpt>
      <trkpt lat="43.53151" lon="6.07828">
        <ele>513.9</ele>
        <time>2019-12-15T10:31:36Z</time>
      </trkpt>
      <trkpt lat="43.53153" lon="6.07815">
        <ele>514.5</ele>
        <time>2019-12-15T10:31:44Z</time>
      </trkpt>
      <trkpt lat="43.53157" lon="6.07803">
        <ele>515.4</ele>
        <time>2019-12-15T10:31:52Z</time>
      </trkpt>
      <trkpt lat="43.5316" lon="6.07791">
        <ele>514.6</ele>
        <time>2019-12-15T10:32:00Z</time>
      </trkpt>
      <trkpt lat="43.53173" lon="6.07771">
        <ele>516.3</ele>
        <time>2019-12-15T10:32:18Z</time>
      </trkpt>
      <trkpt lat="43.53181" lon="6.07763">
        <ele>516.5</ele>
        <time>2019-12-15T10:32:27Z</time>
      </trkpt>
      <trkpt lat="43.53189" lon="6.07755">
        <ele>515.9</ele>
        <time>2019-12-15T10:32:36Z</time>
      </trkpt>
      <trkpt lat="43.53196" lon="6.07745">
        <ele>516.4</ele>
        <time>2019-12-15T10:32:45Z</time>
      </trkpt>
      <trkpt lat="43.53203" lon="6.07738">
        <ele>516.8</ele>
        <time>2019-12-15T10:32:54Z</time>
      </trkpt>
      <trkpt lat="43.53212" lon="6.07733">
        <ele>517.9</ele>
        <time>2019-12-15T10:33:02Z</time>
      </trkpt>
      <trkpt lat="43.5323" lon="6.07724">
        <ele>518.5</ele>
        <time>2019-12-15T10:33:19Z</time>
      </trkpt>
      <trkpt lat="43.53239" lon="6.07715">
        <ele>519.5</ele>
        <time>2019-12-15T10:33:27Z</time>
      </trkpt>
      <trkpt lat="43.53242" lon="6.07704">
        <ele>519.5</ele>
        <time>2019-12-15T10:33:35Z</time>
      </trkpt>
      <trkpt lat="43.53243" lon="6.07691">
        <ele>519.6</ele>
        <time>2019-12-15T10:33:45Z</time>
      </trkpt>
      <trkpt lat="43.53246" lon="6.07679">
        <ele>520.2</ele>
        <time>2019-12-15T10:33:53Z</time>
      </trkpt>
      <trkpt lat="43.53251" lon="6.07668">
        <ele>520</ele>
        <time>2019-12-15T10:34:02Z</time>
      </trkpt>
      <trkpt lat="43.53257" lon="6.07657">
        <ele>521.1</ele>
        <time>2019-12-15T10:34:12Z</time>
      </trkpt>
      <trkpt lat="43.53271" lon="6.0764">
        <ele>521.7</ele>
        <time>2019-12-15T10:34:31Z</time>
      </trkpt>
      <trkpt lat="43.53277" lon="6.07631">
        <ele>522.3</ele>
        <time>2019-12-15T10:34:40Z</time>
      </trkpt>
      <trkpt lat="43.53279" lon="6.07617">
        <ele>522.5</ele>
        <time>2019-12-15T10:34:51Z</time>
      </trkpt>
      <trkpt lat="43.5328" lon="6.07604">
        <ele>522.8</ele>
        <time>2019-12-15T10:35:00Z</time>
      </trkpt>
      <trkpt lat="43.53285" lon="6.07593">
        <ele>523.1</ele>
        <time>2019-12-15T10:35:11Z</time>
      </trkpt>
      <trkpt lat="43.53293" lon="6.07586">
        <ele>524.7</ele>
        <time>2019-12-15T10:35:21Z</time>
      </trkpt>
      <trkpt lat="43.53307" lon="6.07568">
        <ele>525.1</ele>
        <time>2019-12-15T10:35:39Z</time>
      </trkpt>
      <trkpt lat="43.53309" lon="6.07555">
        <ele>525.8</ele>
        <time>2019-12-15T10:35:48Z</time>
      </trkpt>
      <trkpt lat="43.53309" lon="6.07542">
        <ele>526.3</ele>
        <time>2019-12-15T10:35:57Z</time>
      </trkpt>
      <trkpt lat="43.5331" lon="6.07529">
        <ele>526.5</ele>
        <time>2019-12-15T10:36:05Z</time>
      </trkpt>
      <trkpt lat="43.53311" lon="6.07516">
        <ele>526.3</ele>
        <time>2019-12-15T10:36:13Z</time>
      </trkpt>
      <trkpt lat="43.53311" lon="6.07503">
        <ele>526.9</ele>
        <time>2019-12-15T10:36:20Z</time>
      </trkpt>
      <trkpt lat="43.5331" lon="6.07489">
        <ele>526.7</ele>
        <time>2019-12-15T10:36:28Z</time>
      </trkpt>
      <trkpt lat="43.53315" lon="6.07463">
        <ele>527.2</ele>
        <time>2019-12-15T10:36:43Z</time>
      </trkpt>
      <trkpt lat="43.53318" lon="6.07451">
        <ele>528.5</ele>
        <time>2019-12-15T10:36:51Z</time>
      </trkpt>
      <trkpt lat="43.53322" lon="6.07439">
        <ele>528.3</ele>
        <time>2019-12-15T10:36:59Z</time>
      </trkpt>
      <trkpt lat="43.53326" lon="6.07428">
        <ele>528.8</ele>
        <time>2019-12-15T10:37:08Z</time>
      </trkpt>
      <trkpt lat="43.53332" lon="6.07418">
        <ele>529.7</ele>
        <time>2019-12-15T10:37:18Z</time>
      </trkpt>
      <trkpt lat="43.5334" lon="6.0741">
        <ele>529.8</ele>
        <time>2019-12-15T10:37:25Z</time>
      </trkpt>
      <trkpt lat="43.53346" lon="6.074">
        <ele>530.3</ele>
        <time>2019-12-15T10:37:33Z</time>
      </trkpt>
      <trkpt lat="43.53358" lon="6.07378">
        <ele>531.2</ele>
        <time>2019-12-15T10:37:49Z</time>
      </trkpt>
      <trkpt lat="43.53365" lon="6.0737">
        <ele>531.5</ele>
        <time>2019-12-15T10:37:58Z</time>
      </trkpt>
      <trkpt lat="43.53372" lon="6.07361">
        <ele>532.5</ele>
        <time>2019-12-15T10:38:10Z</time>
      </trkpt>
      <trkpt lat="43.5338" lon="6.07353">
        <ele>533.3</ele>
        <time>2019-12-15T10:38:20Z</time>
      </trkpt>
      <trkpt lat="43.53387" lon="6.07346">
        <ele>535</ele>
        <time>2019-12-15T10:38:29Z</time>
      </trkpt>
      <trkpt lat="43.53395" lon="6.0734">
        <ele>534.4</ele>
        <time>2019-12-15T10:38:38Z</time>
      </trkpt>
      <trkpt lat="43.53415" lon="6.07332">
        <ele>536.3</ele>
        <time>2019-12-15T10:38:54Z</time>
      </trkpt>
      <trkpt lat="43.53421" lon="6.07324">
        <ele>537.2</ele>
        <time>2019-12-15T10:39:02Z</time>
      </trkpt>
      <trkpt lat="43.53428" lon="6.07314">
        <ele>537.1</ele>
        <time>2019-12-15T10:39:10Z</time>
      </trkpt>
      <trkpt lat="43.53436" lon="6.07307">
        <ele>536.8</ele>
        <time>2019-12-15T10:39:21Z</time>
      </trkpt>
      <trkpt lat="43.53444" lon="6.07303">
        <ele>538.8</ele>
        <time>2019-12-15T10:39:30Z</time>
      </trkpt>
      <trkpt lat="43.53453" lon="6.073">
        <ele>538.3</ele>
        <time>2019-12-15T10:39:39Z</time>
      </trkpt>
      <trkpt lat="43.5347" lon="6.07288">
        <ele>540</ele>
        <time>2019-12-15T10:39:57Z</time>
      </trkpt>
      <trkpt lat="43.53477" lon="6.07279">
        <ele>540.6</ele>
        <time>2019-12-15T10:40:05Z</time>
      </trkpt>
      <trkpt lat="43.53486" lon="6.07274">
        <ele>540.6</ele>
        <time>2019-12-15T10:40:14Z</time>
      </trkpt>
      <trkpt lat="43.53495" lon="6.07272">
        <ele>542.3</ele>
        <time>2019-12-15T10:40:22Z</time>
      </trkpt>
      <trkpt lat="43.53504" lon="6.07268">
        <ele>542.8</ele>
        <time>2019-12-15T10:40:30Z</time>
      </trkpt>
      <trkpt lat="43.53511" lon="6.07259">
        <ele>543</ele>
        <time>2019-12-15T10:40:40Z</time>
      </trkpt>
      <trkpt lat="43.53522" lon="6.07238">
        <ele>544</ele>
        <time>2019-12-15T10:41:01Z</time>
      </trkpt>
      <trkpt lat="43.53528" lon="6.07229">
        <ele>544.6</ele>
        <time>2019-12-15T10:41:11Z</time>
      </trkpt>
      <trkpt lat="43.53535" lon="6.0722">
        <ele>544.8</ele>
        <time>2019-12-15T10:41:22Z</time>
      </trkpt>
      <trkpt lat="43.53541" lon="6.0721">
        <ele>545.6</ele>
        <time>2019-12-15T10:41:32Z</time>
      </trkpt>
      <trkpt lat="43.53548" lon="6.07202">
        <ele>545.7</ele>
        <time>2019-12-15T10:41:40Z</time>
      </trkpt>
      <trkpt lat="43.53555" lon="6.07193">
        <ele>546.2</ele>
        <time>2019-12-15T10:41:51Z</time>
      </trkpt>
      <trkpt lat="43.53569" lon="6.07176">
        <ele>547.2</ele>
        <time>2019-12-15T10:42:09Z</time>
      </trkpt>
      <trkpt lat="43.53577" lon="6.0717">
        <ele>548.2</ele>
        <time>2019-12-15T10:42:17Z</time>
      </trkpt>
      <trkpt lat="43.53586" lon="6.07163">
        <ele>548.7</ele>
        <time>2019-12-15T10:42:27Z</time>
      </trkpt>
      <trkpt lat="43.53594" lon="6.07158">
        <ele>549.6</ele>
        <time>2019-12-15T10:42:37Z</time>
      </trkpt>
      <trkpt lat="43.53603" lon="6.07153">
        <ele>549.8</ele>
        <time>2019-12-15T10:42:46Z</time>
      </trkpt>
      <trkpt lat="43.53612" lon="6.0715">
        <ele>550</ele>
        <time>2019-12-15T10:42:56Z</time>
      </trkpt>
      <trkpt lat="43.53632" lon="6.07146">
        <ele>551.5</ele>
        <time>2019-12-15T10:43:14Z</time>
      </trkpt>
      <trkpt lat="43.53641" lon="6.07145">
        <ele>553.2</ele>
        <time>2019-12-15T10:43:22Z</time>
      </trkpt>
      <trkpt lat="43.5365" lon="6.07141">
        <ele>551.7</ele>
        <time>2019-12-15T10:43:31Z</time>
      </trkpt>
      <trkpt lat="43.5366" lon="6.0714">
        <ele>552.5</ele>
        <time>2019-12-15T10:43:42Z</time>
      </trkpt>
      <trkpt lat="43.53669" lon="6.07138">
        <ele>553.2</ele>
        <time>2019-12-15T10:43:52Z</time>
      </trkpt>
      <trkpt lat="43.53676" lon="6.0713">
        <ele>554.6</ele>
        <time>2019-12-15T10:44:04Z</time>
      </trkpt>
      <trkpt lat="43.53685" lon="6.07106">
        <ele>555.5</ele>
        <time>2019-12-15T10:44:26Z</time>
      </trkpt>
      <trkpt lat="43.53689" lon="6.07094">
        <ele>555.1</ele>
        <time>2019-12-15T10:44:36Z</time>
      </trkpt>
      <trkpt lat="43.53695" lon="6.07084">
        <ele>556.1</ele>
        <time>2019-12-15T10:44:46Z</time>
      </trkpt>
      <trkpt lat="43.53704" lon="6.07078">
        <ele>556.7</ele>
        <time>2019-12-15T10:44:56Z</time>
      </trkpt>
      <trkpt lat="43.53713" lon="6.07074">
        <ele>557.9</ele>
        <time>2019-12-15T10:45:07Z</time>
      </trkpt>
      <trkpt lat="43.53731" lon="6.07073">
        <ele>558.5</ele>
        <time>2019-12-15T10:45:26Z</time>
      </trkpt>
      <trkpt lat="43.5374" lon="6.07076">
        <ele>558.3</ele>
        <time>2019-12-15T10:45:37Z</time>
      </trkpt>
      <trkpt lat="43.5375" lon="6.07074">
        <ele>560.1</ele>
        <time>2019-12-15T10:45:49Z</time>
      </trkpt>
      <trkpt lat="43.53759" lon="6.07071">
        <ele>560.7</ele>
        <time>2019-12-15T10:45:59Z</time>
      </trkpt>
      <trkpt lat="43.53768" lon="6.07069">
        <ele>560.5</ele>
        <time>2019-12-15T10:46:08Z</time>
      </trkpt>
      <trkpt lat="43.53787" lon="6.07072">
        <ele>562.1</ele>
        <time>2019-12-15T10:46:27Z</time>
      </trkpt>
      <trkpt lat="43.53796" lon="6.0707">
        <ele>562.2</ele>
        <time>2019-12-15T10:46:37Z</time>
      </trkpt>
      <trkpt lat="43.53805" lon="6.07065">
        <ele>562.8</ele>
        <time>2019-12-15T10:46:47Z</time>
      </trkpt>
      <trkpt lat="43.53814" lon="6.0706">
        <ele>564</ele>
        <time>2019-12-15T10:46:58Z</time>
      </trkpt>
      <trkpt lat="43.53823" lon="6.07057">
        <ele>565.6</ele>
        <time>2019-12-15T10:47:08Z</time>
      </trkpt>
      <trkpt lat="43.53832" lon="6.07057">
        <ele>565.4</ele>
        <time>2019-12-15T10:47:18Z</time>
      </trkpt>
      <trkpt lat="43.53851" lon="6.07054">
        <ele>566.5</ele>
        <time>2019-12-15T10:47:38Z</time>
      </trkpt>
      <trkpt lat="43.5386" lon="6.07054">
        <ele>567.5</ele>
        <time>2019-12-15T10:47:47Z</time>
      </trkpt>
      <trkpt lat="43.53869" lon="6.07055">
        <ele>567.6</ele>
        <time>2019-12-15T10:47:57Z</time>
      </trkpt>
      <trkpt lat="43.53879" lon="6.07058">
        <ele>567.5</ele>
        <time>2019-12-15T10:48:07Z</time>
      </trkpt>
      <trkpt lat="43.53888" lon="6.07061">
        <ele>568.1</ele>
        <time>2019-12-15T10:48:17Z</time>
      </trkpt>
      <trkpt lat="43.53897" lon="6.07066">
        <ele>569.7</ele>
        <time>2019-12-15T10:48:29Z</time>
      </trkpt>
      <trkpt lat="43.53915" lon="6.07076">
        <ele>568.6</ele>
        <time>2019-12-15T10:48:47Z</time>
      </trkpt>
      <trkpt lat="43.53922" lon="6.07085">
        <ele>569.1</ele>
        <time>2019-12-15T10:48:55Z</time>
      </trkpt>
      <trkpt lat="43.53929" lon="6.07093">
        <ele>567.9</ele>
        <time>2019-12-15T10:49:03Z</time>
      </trkpt>
      <trkpt lat="43.53938" lon="6.07097">
        <ele>568.6</ele>
        <time>2019-12-15T10:49:13Z</time>
      </trkpt>
      <trkpt lat="43.53947" lon="6.07096">
        <ele>569.3</ele>
        <time>2019-12-15T10:49:23Z</time>
      </trkpt>
      <trkpt lat="43.53957" lon="6.07094">
        <ele>569.1</ele>
        <time>2019-12-15T10:49:33Z</time>
      </trkpt>
      <trkpt lat="43.53976" lon="6.0709">
        <ele>570.5</ele>
        <time>2019-12-15T10:49:51Z</time>
      </trkpt>
      <trkpt lat="43.53985" lon="6.07088">
        <ele>571</ele>
        <time>2019-12-15T10:49:59Z</time>
      </trkpt>
      <trkpt lat="43.53995" lon="6.07089">
        <ele>570.7</ele>
        <time>2019-12-15T10:50:09Z</time>
      </trkpt>
      <trkpt lat="43.54004" lon="6.07089">
        <ele>570.8</ele>
        <time>2019-12-15T10:50:20Z</time>
      </trkpt>
      <trkpt lat="43.54014" lon="6.07092">
        <ele>571.3</ele>
        <time>2019-12-15T10:50:29Z</time>
      </trkpt>
      <trkpt lat="43.54023" lon="6.07096">
        <ele>572.5</ele>
        <time>2019-12-15T10:50:37Z</time>
      </trkpt>
      <trkpt lat="43.54042" lon="6.07103">
        <ele>571.4</ele>
        <time>2019-12-15T10:50:55Z</time>
      </trkpt>
      <trkpt lat="43.5405" lon="6.07108">
        <ele>572.2</ele>
        <time>2019-12-15T10:51:03Z</time>
      </trkpt>
      <trkpt lat="43.5406" lon="6.07112">
        <ele>571.7</ele>
        <time>2019-12-15T10:51:11Z</time>
      </trkpt>
      <trkpt lat="43.54069" lon="6.07117">
        <ele>571.4</ele>
        <time>2019-12-15T10:51:19Z</time>
      </trkpt>
      <trkpt lat="43.54078" lon="6.0712">
        <ele>572.6</ele>
        <time>2019-12-15T10:51:30Z</time>
      </trkpt>
      <trkpt lat="43.54087" lon="6.07123">
        <ele>573.8</ele>
        <time>2019-12-15T10:51:39Z</time>
      </trkpt>
      <trkpt lat="43.54104" lon="6.07131">
        <ele>572.5</ele>
        <time>2019-12-15T10:51:57Z</time>
      </trkpt>
      <trkpt lat="43.54114" lon="6.07132">
        <ele>573.2</ele>
        <time>2019-12-15T10:52:06Z</time>
      </trkpt>
      <trkpt lat="43.54123" lon="6.07131">
        <ele>572.9</ele>
        <time>2019-12-15T10:52:14Z</time>
      </trkpt>
      <trkpt lat="43.54133" lon="6.07129">
        <ele>573</ele>
        <time>2019-12-15T10:52:23Z</time>
      </trkpt>
      <trkpt lat="43.54142" lon="6.0713">
        <ele>574.5</ele>
        <time>2019-12-15T10:52:34Z</time>
      </trkpt>
      <trkpt lat="43.54151" lon="6.07134">
        <ele>574.3</ele>
        <time>2019-12-15T10:52:44Z</time>
      </trkpt>
      <trkpt lat="43.54168" lon="6.07142">
        <ele>574.8</ele>
        <time>2019-12-15T10:53:08Z</time>
      </trkpt>
      <trkpt lat="43.54177" lon="6.07145">
        <ele>573.8</ele>
        <time>2019-12-15T10:53:24Z</time>
      </trkpt>
      <trkpt lat="43.54186" lon="6.07148">
        <ele>573.4</ele>
        <time>2019-12-15T10:53:41Z</time>
      </trkpt>
      <trkpt lat="43.54196" lon="6.07149">
        <ele>573.7</ele>
        <time>2019-12-15T10:53:54Z</time>
      </trkpt>
      <trkpt lat="43.54214" lon="6.07146">
        <ele>572.7</ele>
        <time>2019-12-15T10:55:18Z</time>
      </trkpt>
      <trkpt lat="43.54226" lon="6.0716">
        <ele>574.4</ele>
        <time>2019-12-15T10:57:25Z</time>
      </trkpt>
      <trkpt lat="43.54241" lon="6.07177">
        <ele>574.1</ele>
        <time>2019-12-15T10:57:46Z</time>
      </trkpt>
      <trkpt lat="43.54249" lon="6.07185">
        <ele>572.9</ele>
        <time>2019-12-15T10:57:55Z</time>
      </trkpt>
      <trkpt lat="43.54254" lon="6.07197">
        <ele>573</ele>
        <time>2019-12-15T10:58:05Z</time>
      </trkpt>
      <trkpt lat="43.5426" lon="6.07207">
        <ele>572.7</ele>
        <time>2019-12-15T10:58:14Z</time>
      </trkpt>
      <trkpt lat="43.54267" lon="6.07216">
        <ele>571.4</ele>
        <time>2019-12-15T10:58:24Z</time>
      </trkpt>
      <trkpt lat="43.54272" lon="6.07226">
        <ele>571.7</ele>
        <time>2019-12-15T10:58:34Z</time>
      </trkpt>
      <trkpt lat="43.54281" lon="6.07249">
        <ele>570.7</ele>
        <time>2019-12-15T10:58:54Z</time>
      </trkpt>
      <trkpt lat="43.54285" lon="6.07261">
        <ele>570.1</ele>
        <time>2019-12-15T10:59:03Z</time>
      </trkpt>
      <trkpt lat="43.54286" lon="6.07273">
        <ele>569.8</ele>
        <time>2019-12-15T10:59:12Z</time>
      </trkpt>
      <trkpt lat="43.54285" lon="6.07286">
        <ele>568.1</ele>
        <time>2019-12-15T10:59:21Z</time>
      </trkpt>
      <trkpt lat="43.54282" lon="6.073">
        <ele>568.8</ele>
        <time>2019-12-15T10:59:30Z</time>
      </trkpt>
      <trkpt lat="43.54279" lon="6.07312">
        <ele>568</ele>
        <time>2019-12-15T10:59:40Z</time>
      </trkpt>
      <trkpt lat="43.54283" lon="6.07336">
        <ele>568.5</ele>
        <time>2019-12-15T11:00:07Z</time>
      </trkpt>
      <trkpt lat="43.54288" lon="6.07346">
        <ele>568.6</ele>
        <time>2019-12-15T11:00:18Z</time>
      </trkpt>
      <trkpt lat="43.54292" lon="6.07358">
        <ele>570</ele>
        <time>2019-12-15T11:00:27Z</time>
      </trkpt>
      <trkpt lat="43.54298" lon="6.07368">
        <ele>568.9</ele>
        <time>2019-12-15T11:00:36Z</time>
      </trkpt>
      <trkpt lat="43.54301" lon="6.0738">
        <ele>569.3</ele>
        <time>2019-12-15T11:00:46Z</time>
      </trkpt>
      <trkpt lat="43.54311" lon="6.07402">
        <ele>570.1</ele>
        <time>2019-12-15T11:01:02Z</time>
      </trkpt>
      <trkpt lat="43.54318" lon="6.07411">
        <ele>569.9</ele>
        <time>2019-12-15T11:01:10Z</time>
      </trkpt>
      <trkpt lat="43.54325" lon="6.07419">
        <ele>570.1</ele>
        <time>2019-12-15T11:01:18Z</time>
      </trkpt>
      <trkpt lat="43.54333" lon="6.07428">
        <ele>571.2</ele>
        <time>2019-12-15T11:01:28Z</time>
      </trkpt>
      <trkpt lat="43.54341" lon="6.07436">
        <ele>572.4</ele>
        <time>2019-12-15T11:01:39Z</time>
      </trkpt>
      <trkpt lat="43.54349" lon="6.07443">
        <ele>572.4</ele>
        <time>2019-12-15T11:01:50Z</time>
      </trkpt>
      <trkpt lat="43.54363" lon="6.07459">
        <ele>572.1</ele>
        <time>2019-12-15T11:02:11Z</time>
      </trkpt>
      <trkpt lat="43.54368" lon="6.07469">
        <ele>572</ele>
        <time>2019-12-15T11:02:20Z</time>
      </trkpt>
      <trkpt lat="43.54373" lon="6.0748">
        <ele>571.6</ele>
        <time>2019-12-15T11:02:30Z</time>
      </trkpt>
      <trkpt lat="43.54377" lon="6.07492">
        <ele>572.4</ele>
        <time>2019-12-15T11:02:40Z</time>
      </trkpt>
      <trkpt lat="43.5438" lon="6.07504">
        <ele>572.8</ele>
        <time>2019-12-15T11:02:49Z</time>
      </trkpt>
      <trkpt lat="43.54383" lon="6.07516">
        <ele>571.6</ele>
        <time>2019-12-15T11:02:57Z</time>
      </trkpt>
      <trkpt lat="43.54389" lon="6.07542">
        <ele>570.7</ele>
        <time>2019-12-15T11:03:15Z</time>
      </trkpt>
      <trkpt lat="43.54388" lon="6.07555">
        <ele>569.4</ele>
        <time>2019-12-15T11:03:25Z</time>
      </trkpt>
      <trkpt lat="43.54387" lon="6.07568">
        <ele>568.4</ele>
        <time>2019-12-15T11:03:35Z</time>
      </trkpt>
      <trkpt lat="43.54386" lon="6.07581">
        <ele>567.1</ele>
        <time>2019-12-15T11:03:46Z</time>
      </trkpt>
      <trkpt lat="43.54384" lon="6.07593">
        <ele>567.4</ele>
        <time>2019-12-15T11:03:58Z</time>
      </trkpt>
      <trkpt lat="43.5438" lon="6.07605">
        <ele>566.6</ele>
        <time>2019-12-15T11:04:07Z</time>
      </trkpt>
      <trkpt lat="43.54366" lon="6.07624">
        <ele>565.7</ele>
        <time>2019-12-15T11:04:26Z</time>
      </trkpt>
      <trkpt lat="43.54359" lon="6.07633">
        <ele>564.5</ele>
        <time>2019-12-15T11:04:36Z</time>
      </trkpt>
      <trkpt lat="43.54354" lon="6.07644">
        <ele>563.7</ele>
        <time>2019-12-15T11:04:45Z</time>
      </trkpt>
      <trkpt lat="43.54352" lon="6.07657">
        <ele>563.1</ele>
        <time>2019-12-15T11:04:54Z</time>
      </trkpt>
      <trkpt lat="43.54352" lon="6.07671">
        <ele>561.5</ele>
        <time>2019-12-15T11:05:03Z</time>
      </trkpt>
      <trkpt lat="43.54356" lon="6.07683">
        <ele>562.3</ele>
        <time>2019-12-15T11:05:12Z</time>
      </trkpt>
      <trkpt lat="43.54363" lon="6.07707">
        <ele>560.8</ele>
        <time>2019-12-15T11:05:33Z</time>
      </trkpt>
      <trkpt lat="43.54367" lon="6.07718">
        <ele>559.8</ele>
        <time>2019-12-15T11:05:42Z</time>
      </trkpt>
      <trkpt lat="43.54371" lon="6.0773">
        <ele>558.8</ele>
        <time>2019-12-15T11:05:51Z</time>
      </trkpt>
      <trkpt lat="43.54374" lon="6.07743">
        <ele>557.4</ele>
        <time>2019-12-15T11:06:00Z</time>
      </trkpt>
      <trkpt lat="43.54379" lon="6.07754">
        <ele>556.9</ele>
        <time>2019-12-15T11:06:08Z</time>
      </trkpt>
      <trkpt lat="43.54383" lon="6.07766">
        <ele>556.3</ele>
        <time>2019-12-15T11:06:17Z</time>
      </trkpt>
      <trkpt lat="43.54391" lon="6.07789">
        <ele>555.5</ele>
        <time>2019-12-15T11:06:35Z</time>
      </trkpt>
      <trkpt lat="43.54396" lon="6.07801">
        <ele>553.3</ele>
        <time>2019-12-15T11:06:44Z</time>
      </trkpt>
      <trkpt lat="43.54399" lon="6.07813">
        <ele>554.1</ele>
        <time>2019-12-15T11:06:52Z</time>
      </trkpt>
      <trkpt lat="43.54403" lon="6.07825">
        <ele>553.1</ele>
        <time>2019-12-15T11:07:00Z</time>
      </trkpt>
      <trkpt lat="43.54406" lon="6.07837">
        <ele>552.5</ele>
        <time>2019-12-15T11:07:08Z</time>
      </trkpt>
      <trkpt lat="43.5441" lon="6.07849">
        <ele>551.8</ele>
        <time>2019-12-15T11:07:17Z</time>
      </trkpt>
      <trkpt lat="43.54415" lon="6.07861">
        <ele>551.8</ele>
        <time>2019-12-15T11:07:25Z</time>
      </trkpt>
      <trkpt lat="43.54426" lon="6.07881">
        <ele>550.4</ele>
        <time>2019-12-15T11:07:40Z</time>
      </trkpt>
      <trkpt lat="43.54429" lon="6.07894">
        <ele>549.4</ele>
        <time>2019-12-15T11:07:48Z</time>
      </trkpt>
      <trkpt lat="43.5443" lon="6.07907">
        <ele>549.1</ele>
        <time>2019-12-15T11:07:57Z</time>
      </trkpt>
      <trkpt lat="43.54429" lon="6.0792">
        <ele>547.6</ele>
        <time>2019-12-15T11:08:06Z</time>
      </trkpt>
      <trkpt lat="43.54426" lon="6.07933">
        <ele>547.7</ele>
        <time>2019-12-15T11:08:14Z</time>
      </trkpt>
      <trkpt lat="43.54423" lon="6.07945">
        <ele>545.9</ele>
        <time>2019-12-15T11:08:22Z</time>
      </trkpt>
      <trkpt lat="43.54419" lon="6.07957">
        <ele>546</ele>
        <time>2019-12-15T11:08:30Z</time>
      </trkpt>
      <trkpt lat="43.54402" lon="6.07972">
        <ele>544.7</ele>
        <time>2019-12-15T11:08:47Z</time>
      </trkpt>
      <trkpt lat="43.54398" lon="6.07983">
        <ele>544.4</ele>
        <time>2019-12-15T11:08:56Z</time>
      </trkpt>
      <trkpt lat="43.54395" lon="6.07996">
        <ele>543.5</ele>
        <time>2019-12-15T11:09:05Z</time>
      </trkpt>
      <trkpt lat="43.54392" lon="6.08009">
        <ele>542.2</ele>
        <time>2019-12-15T11:09:14Z</time>
      </trkpt>
      <trkpt lat="43.54387" lon="6.08021">
        <ele>541.8</ele>
        <time>2019-12-15T11:09:23Z</time>
      </trkpt>
      <trkpt lat="43.54382" lon="6.08032">
        <ele>541</ele>
        <time>2019-12-15T11:09:31Z</time>
      </trkpt>
      <trkpt lat="43.5438" lon="6.08056">
        <ele>540.2</ele>
        <time>2019-12-15T11:09:48Z</time>
      </trkpt>
      <trkpt lat="43.54384" lon="6.08067">
        <ele>538.7</ele>
        <time>2019-12-15T11:09:58Z</time>
      </trkpt>
      <trkpt lat="43.5439" lon="6.08077">
        <ele>539.1</ele>
        <time>2019-12-15T11:10:08Z</time>
      </trkpt>
      <trkpt lat="43.54395" lon="6.08088">
        <ele>537.6</ele>
        <time>2019-12-15T11:10:17Z</time>
      </trkpt>
      <trkpt lat="43.54399" lon="6.08099">
        <ele>536.3</ele>
        <time>2019-12-15T11:10:26Z</time>
      </trkpt>
      <trkpt lat="43.54406" lon="6.08109">
        <ele>536.3</ele>
        <time>2019-12-15T11:10:35Z</time>
      </trkpt>
      <trkpt lat="43.54422" lon="6.08124">
        <ele>535.3</ele>
        <time>2019-12-15T11:10:53Z</time>
      </trkpt>
      <trkpt lat="43.5443" lon="6.0813">
        <ele>534.2</ele>
        <time>2019-12-15T11:11:01Z</time>
      </trkpt>
      <trkpt lat="43.54437" lon="6.08138">
        <ele>533.4</ele>
        <time>2019-12-15T11:11:09Z</time>
      </trkpt>
      <trkpt lat="43.54445" lon="6.08146">
        <ele>532.6</ele>
        <time>2019-12-15T11:11:18Z</time>
      </trkpt>
      <trkpt lat="43.54451" lon="6.08155">
        <ele>532.9</ele>
        <time>2019-12-15T11:11:26Z</time>
      </trkpt>
      <trkpt lat="43.54457" lon="6.08167">
        <ele>531.6</ele>
        <time>2019-12-15T11:11:34Z</time>
      </trkpt>
      <trkpt lat="43.54461" lon="6.08178">
        <ele>530.3</ele>
        <time>2019-12-15T11:11:42Z</time>
      </trkpt>
      <trkpt lat="43.54466" lon="6.08204">
        <ele>529.8</ele>
        <time>2019-12-15T11:11:58Z</time>
      </trkpt>
      <trkpt lat="43.54472" lon="6.08215">
        <ele>530.4</ele>
        <time>2019-12-15T11:12:07Z</time>
      </trkpt>
      <trkpt lat="43.5448" lon="6.0822">
        <ele>528.1</ele>
        <time>2019-12-15T11:12:20Z</time>
      </trkpt>
      <trkpt lat="43.54489" lon="6.08225">
        <ele>528.5</ele>
        <time>2019-12-15T11:12:29Z</time>
      </trkpt>
      <trkpt lat="43.54497" lon="6.08231">
        <ele>528</ele>
        <time>2019-12-15T11:12:38Z</time>
      </trkpt>
      <trkpt lat="43.54506" lon="6.08236">
        <ele>528.3</ele>
        <time>2019-12-15T11:12:46Z</time>
      </trkpt>
      <trkpt lat="43.54523" lon="6.08245">
        <ele>528.2</ele>
        <time>2019-12-15T11:13:02Z</time>
      </trkpt>
      <trkpt lat="43.54532" lon="6.08249">
        <ele>526.7</ele>
        <time>2019-12-15T11:13:10Z</time>
      </trkpt>
      <trkpt lat="43.54541" lon="6.08253">
        <ele>525.2</ele>
        <time>2019-12-15T11:13:18Z</time>
      </trkpt>
      <trkpt lat="43.5455" lon="6.08258">
        <ele>525.2</ele>
        <time>2019-12-15T11:13:27Z</time>
      </trkpt>
      <trkpt lat="43.5456" lon="6.08262">
        <ele>524.8</ele>
        <time>2019-12-15T11:13:36Z</time>
      </trkpt>
      <trkpt lat="43.54569" lon="6.08268">
        <ele>524.6</ele>
        <time>2019-12-15T11:13:45Z</time>
      </trkpt>
      <trkpt lat="43.54578" lon="6.08273">
        <ele>524</ele>
        <time>2019-12-15T11:13:53Z</time>
      </trkpt>
      <trkpt lat="43.54592" lon="6.08288">
        <ele>522.7</ele>
        <time>2019-12-15T11:14:09Z</time>
      </trkpt>
      <trkpt lat="43.54599" lon="6.08298">
        <ele>522.4</ele>
        <time>2019-12-15T11:14:17Z</time>
      </trkpt>
      <trkpt lat="43.54605" lon="6.08307">
        <ele>521.6</ele>
        <time>2019-12-15T11:14:25Z</time>
      </trkpt>
      <trkpt lat="43.5461" lon="6.08319">
        <ele>521.5</ele>
        <time>2019-12-15T11:14:33Z</time>
      </trkpt>
      <trkpt lat="43.54615" lon="6.0833">
        <ele>520.7</ele>
        <time>2019-12-15T11:14:41Z</time>
      </trkpt>
      <trkpt lat="43.54618" lon="6.08342">
        <ele>520.4</ele>
        <time>2019-12-15T11:14:48Z</time>
      </trkpt>
      <trkpt lat="43.54623" lon="6.08353">
        <ele>519.4</ele>
        <time>2019-12-15T11:14:55Z</time>
      </trkpt>
      <trkpt lat="43.54629" lon="6.08378">
        <ele>518.6</ele>
        <time>2019-12-15T11:15:12Z</time>
      </trkpt>
      <trkpt lat="43.5463" lon="6.0839">
        <ele>519.1</ele>
        <time>2019-12-15T11:15:20Z</time>
      </trkpt>
      <trkpt lat="43.54632" lon="6.08403">
        <ele>517.8</ele>
        <time>2019-12-15T11:15:28Z</time>
      </trkpt>
      <trkpt lat="43.54636" lon="6.08416">
        <ele>517.6</ele>
        <time>2019-12-15T11:15:37Z</time>
      </trkpt>
      <trkpt lat="43.54639" lon="6.08429">
        <ele>516.5</ele>
        <time>2019-12-15T11:15:46Z</time>
      </trkpt>
      <trkpt lat="43.54641" lon="6.08443">
        <ele>515.9</ele>
        <time>2019-12-15T11:15:55Z</time>
      </trkpt>
      <trkpt lat="43.54642" lon="6.08455">
        <ele>515.5</ele>
        <time>2019-12-15T11:16:03Z</time>
      </trkpt>
      <trkpt lat="43.54645" lon="6.08481">
        <ele>515</ele>
        <time>2019-12-15T11:16:17Z</time>
      </trkpt>
      <trkpt lat="43.54648" lon="6.08493">
        <ele>515</ele>
        <time>2019-12-15T11:16:26Z</time>
      </trkpt>
      <trkpt lat="43.54648" lon="6.08506">
        <ele>514</ele>
        <time>2019-12-15T11:16:35Z</time>
      </trkpt>
      <trkpt lat="43.54649" lon="6.0852">
        <ele>513.5</ele>
        <time>2019-12-15T11:16:44Z</time>
      </trkpt>
      <trkpt lat="43.54651" lon="6.08534">
        <ele>513.7</ele>
        <time>2019-12-15T11:16:53Z</time>
      </trkpt>
      <trkpt lat="43.54653" lon="6.08547">
        <ele>512.2</ele>
        <time>2019-12-15T11:17:02Z</time>
      </trkpt>
      <trkpt lat="43.54656" lon="6.0856">
        <ele>511.4</ele>
        <time>2019-12-15T11:17:11Z</time>
      </trkpt>
      <trkpt lat="43.54659" lon="6.08585">
        <ele>511.2</ele>
        <time>2019-12-15T11:17:28Z</time>
      </trkpt>
      <trkpt lat="43.54659" lon="6.08598">
        <ele>510.6</ele>
        <time>2019-12-15T11:17:37Z</time>
      </trkpt>
      <trkpt lat="43.5466" lon="6.08611">
        <ele>510.7</ele>
        <time>2019-12-15T11:17:46Z</time>
      </trkpt>
      <trkpt lat="43.54659" lon="6.08625">
        <ele>510</ele>
        <time>2019-12-15T11:17:56Z</time>
      </trkpt>
      <trkpt lat="43.54657" lon="6.08637">
        <ele>509.5</ele>
        <time>2019-12-15T11:18:07Z</time>
      </trkpt>
      <trkpt lat="43.54653" lon="6.08649">
        <ele>508.4</ele>
        <time>2019-12-15T11:20:30Z</time>
      </trkpt>
      <trkpt lat="43.54645" lon="6.08672">
        <ele>507.9</ele>
        <time>2019-12-15T11:20:52Z</time>
      </trkpt>
      <trkpt lat="43.5464" lon="6.08684">
        <ele>508.6</ele>
        <time>2019-12-15T11:21:02Z</time>
      </trkpt>
      <trkpt lat="43.54634" lon="6.08694">
        <ele>507.3</ele>
        <time>2019-12-15T11:21:10Z</time>
      </trkpt>
      <trkpt lat="43.5463" lon="6.08706">
        <ele>508</ele>
        <time>2019-12-15T11:21:17Z</time>
      </trkpt>
      <trkpt lat="43.54628" lon="6.08719">
        <ele>506.6</ele>
        <time>2019-12-15T11:21:24Z</time>
      </trkpt>
      <trkpt lat="43.54628" lon="6.08732">
        <ele>507.5</ele>
        <time>2019-12-15T11:21:32Z</time>
      </trkpt>
      <trkpt lat="43.54629" lon="6.08758">
        <ele>505.5</ele>
        <time>2019-12-15T11:21:48Z</time>
      </trkpt>
      <trkpt lat="43.5463" lon="6.08771">
        <ele>505.5</ele>
        <time>2019-12-15T11:21:58Z</time>
      </trkpt>
      <trkpt lat="43.54633" lon="6.08784">
        <ele>504.1</ele>
        <time>2019-12-15T11:22:07Z</time>
      </trkpt>
      <trkpt lat="43.54636" lon="6.08796">
        <ele>504.4</ele>
        <time>2019-12-15T11:22:15Z</time>
      </trkpt>
      <trkpt lat="43.54639" lon="6.08809">
        <ele>503.2</ele>
        <time>2019-12-15T11:22:24Z</time>
      </trkpt>
      <trkpt lat="43.54641" lon="6.08821">
        <ele>501.9</ele>
        <time>2019-12-15T11:22:33Z</time>
      </trkpt>
      <trkpt lat="43.54648" lon="6.08846">
        <ele>500.2</ele>
        <time>2019-12-15T11:22:49Z</time>
      </trkpt>
      <trkpt lat="43.54652" lon="6.08858">
        <ele>499</ele>
        <time>2019-12-15T11:22:57Z</time>
      </trkpt>
      <trkpt lat="43.54656" lon="6.0887">
        <ele>499.8</ele>
        <time>2019-12-15T11:23:04Z</time>
      </trkpt>
      <trkpt lat="43.54659" lon="6.08882">
        <ele>497.9</ele>
        <time>2019-12-15T11:23:12Z</time>
      </trkpt>
      <trkpt lat="43.54658" lon="6.08895">
        <ele>495.9</ele>
        <time>2019-12-15T11:23:22Z</time>
      </trkpt>
      <trkpt lat="43.54661" lon="6.08907">
        <ele>493.7</ele>
        <time>2019-12-15T11:23:32Z</time>
      </trkpt>
      <trkpt lat="43.54667" lon="6.08917">
        <ele>492.3</ele>
        <time>2019-12-15T11:23:41Z</time>
      </trkpt>
      <trkpt lat="43.54679" lon="6.08938">
        <ele>489.8</ele>
        <time>2019-12-15T11:24:00Z</time>
      </trkpt>
      <trkpt lat="43.54684" lon="6.08948">
        <ele>488.3</ele>
        <time>2019-12-15T11:24:08Z</time>
      </trkpt>
      <trkpt lat="43.5469" lon="6.08957">
        <ele>485.8</ele>
        <time>2019-12-15T11:24:17Z</time>
      </trkpt>
      <trkpt lat="43.54695" lon="6.08968">
        <ele>485.8</ele>
        <time>2019-12-15T11:24:27Z</time>
      </trkpt>
      <trkpt lat="43.54701" lon="6.08978">
        <ele>485.9</ele>
        <time>2019-12-15T11:24:35Z</time>
      </trkpt>
      <trkpt lat="43.54707" lon="6.0899">
        <ele>485.2</ele>
        <time>2019-12-15T11:24:43Z</time>
      </trkpt>
      <trkpt lat="43.54718" lon="6.0901">
        <ele>486</ele>
        <time>2019-12-15T11:24:59Z</time>
      </trkpt>
      <trkpt lat="43.54723" lon="6.09021">
        <ele>487.4</ele>
        <time>2019-12-15T11:25:08Z</time>
      </trkpt>
      <trkpt lat="43.54727" lon="6.09032">
        <ele>487</ele>
        <time>2019-12-15T11:25:17Z</time>
      </trkpt>
      <trkpt lat="43.54729" lon="6.09046">
        <ele>486.8</ele>
        <time>2019-12-15T11:25:28Z</time>
      </trkpt>
      <trkpt lat="43.54733" lon="6.09057">
        <ele>484.8</ele>
        <time>2019-12-15T11:25:38Z</time>
      </trkpt>
      <trkpt lat="43.54741" lon="6.09066">
        <ele>483.8</ele>
        <time>2019-12-15T11:25:49Z</time>
      </trkpt>
      <trkpt lat="43.54752" lon="6.09087">
        <ele>482.1</ele>
        <time>2019-12-15T11:26:08Z</time>
      </trkpt>
      <trkpt lat="43.54757" lon="6.09098">
        <ele>481.2</ele>
        <time>2019-12-15T11:26:17Z</time>
      </trkpt>
      <trkpt lat="43.5476" lon="6.0911">
        <ele>479.9</ele>
        <time>2019-12-15T11:26:26Z</time>
      </trkpt>
      <trkpt lat="43.54764" lon="6.09122">
        <ele>479.5</ele>
        <time>2019-12-15T11:26:35Z</time>
      </trkpt>
      <trkpt lat="43.54769" lon="6.09134">
        <ele>479.3</ele>
        <time>2019-12-15T11:26:45Z</time>
      </trkpt>
      <trkpt lat="43.54773" lon="6.09145">
        <ele>479.6</ele>
        <time>2019-12-15T11:27:01Z</time>
      </trkpt>
      <trkpt lat="43.5477" lon="6.09168">
        <ele>480.2</ele>
        <time>2019-12-15T11:28:31Z</time>
      </trkpt>
      <trkpt lat="43.54767" lon="6.09194">
        <ele>484.4</ele>
        <time>2019-12-15T11:28:57Z</time>
      </trkpt>
      <trkpt lat="43.54763" lon="6.09206">
        <ele>485.7</ele>
        <time>2019-12-15T11:29:08Z</time>
      </trkpt>
      <trkpt lat="43.54758" lon="6.09217">
        <ele>486.3</ele>
        <time>2019-12-15T11:29:19Z</time>
      </trkpt>
      <trkpt lat="43.54755" lon="6.0923">
        <ele>486.4</ele>
        <time>2019-12-15T11:29:30Z</time>
      </trkpt>
      <trkpt lat="43.54757" lon="6.09242">
        <ele>488.3</ele>
        <time>2019-12-15T11:29:41Z</time>
      </trkpt>
      <trkpt lat="43.54751" lon="6.09267">
        <ele>487.8</ele>
        <time>2019-12-15T11:30:00Z</time>
      </trkpt>
      <trkpt lat="43.54747" lon="6.09278">
        <ele>487</ele>
        <time>2019-12-15T11:30:10Z</time>
      </trkpt>
      <trkpt lat="43.54744" lon="6.09291">
        <ele>487</ele>
        <time>2019-12-15T11:30:21Z</time>
      </trkpt>
      <trkpt lat="43.54741" lon="6.09304">
        <ele>486.4</ele>
        <time>2019-12-15T11:30:31Z</time>
      </trkpt>
      <trkpt lat="43.54737" lon="6.09316">
        <ele>486.6</ele>
        <time>2019-12-15T11:30:39Z</time>
      </trkpt>
      <trkpt lat="43.5473" lon="6.09324">
        <ele>486.5</ele>
        <time>2019-12-15T11:30:48Z</time>
      </trkpt>
      <trkpt lat="43.54721" lon="6.09322">
        <ele>486.2</ele>
        <time>2019-12-15T11:33:10Z</time>
      </trkpt>
      <trkpt lat="43.54724" lon="6.09334">
        <ele>484.7</ele>
        <time>2019-12-15T11:34:01Z</time>
      </trkpt>
      <trkpt lat="43.54726" lon="6.09341">
        <ele>483.4</ele>
        <time>2019-12-15T11:37:59Z</time>
      </trkpt>
      <trkpt lat="43.54726" lon="6.09335">
        <ele>481.3</ele>
        <time>2019-12-15T11:43:12Z</time>
      </trkpt>
      <trkpt lat="43.54718" lon="6.09339">
        <ele>479</ele>
        <time>2019-12-15T12:02:30Z</time>
      </trkpt>
      <trkpt lat="43.54707" lon="6.09332">
        <ele>478</ele>
        <time>2019-12-15T12:03:33Z</time>
      </trkpt>
      <trkpt lat="43.54708" lon="6.09332">
        <ele>477</ele>
        <time>2019-12-15T12:07:25Z</time>
      </trkpt>
      <trkpt lat="43.54711" lon="6.09346">
        <ele>477.1</ele>
        <time>2019-12-15T12:11:15Z</time>
      </trkpt>
      <trkpt lat="43.54715" lon="6.09333">
        <ele>477</ele>
        <time>2019-12-15T12:11:38Z</time>
      </trkpt>
      <trkpt lat="43.54707" lon="6.0934">
        <ele>475.7</ele>
        <time>2019-12-15T12:14:52Z</time>
      </trkpt>
      <trkpt lat="43.54736" lon="6.09329">
        <ele>474.1</ele>
        <time>2019-12-15T12:17:38Z</time>
      </trkpt>
      <trkpt lat="43.54702" lon="6.09351">
        <ele>473</ele>
        <time>2019-12-15T12:19:57Z</time>
      </trkpt>
      <trkpt lat="43.54724" lon="6.09341">
        <ele>473.3</ele>
        <time>2019-12-15T12:22:12Z</time>
      </trkpt>
      <trkpt lat="43.54728" lon="6.09353">
        <ele>473.3</ele>
        <time>2019-12-15T12:23:49Z</time>
      </trkpt>
      <trkpt lat="43.54729" lon="6.09379">
        <ele>471.2</ele>
        <time>2019-12-15T12:24:22Z</time>
      </trkpt>
      <trkpt lat="43.54724" lon="6.0939">
        <ele>471.6</ele>
        <time>2019-12-15T12:24:33Z</time>
      </trkpt>
      <trkpt lat="43.5472" lon="6.09402">
        <ele>472.1</ele>
        <time>2019-12-15T12:24:47Z</time>
      </trkpt>
      <trkpt lat="43.54714" lon="6.09412">
        <ele>471.5</ele>
        <time>2019-12-15T12:25:00Z</time>
      </trkpt>
      <trkpt lat="43.54706" lon="6.09436">
        <ele>470.9</ele>
        <time>2019-12-15T12:25:24Z</time>
      </trkpt>
      <trkpt lat="43.547" lon="6.09447">
        <ele>470.6</ele>
        <time>2019-12-15T12:25:35Z</time>
      </trkpt>
      <trkpt lat="43.54697" lon="6.09459">
        <ele>469.6</ele>
        <time>2019-12-15T12:25:44Z</time>
      </trkpt>
      <trkpt lat="43.54695" lon="6.09471">
        <ele>470</ele>
        <time>2019-12-15T12:25:54Z</time>
      </trkpt>
      <trkpt lat="43.54695" lon="6.09485">
        <ele>468.9</ele>
        <time>2019-12-15T12:26:04Z</time>
      </trkpt>
      <trkpt lat="43.54693" lon="6.09512">
        <ele>466.7</ele>
        <time>2019-12-15T12:26:25Z</time>
      </trkpt>
      <trkpt lat="43.54691" lon="6.09525">
        <ele>467.5</ele>
        <time>2019-12-15T12:26:34Z</time>
      </trkpt>
      <trkpt lat="43.54689" lon="6.09538">
        <ele>466.5</ele>
        <time>2019-12-15T12:26:45Z</time>
      </trkpt>
      <trkpt lat="43.54687" lon="6.0955">
        <ele>466.5</ele>
        <time>2019-12-15T12:27:11Z</time>
      </trkpt>
      <trkpt lat="43.54692" lon="6.09572">
        <ele>464.5</ele>
        <time>2019-12-15T12:27:32Z</time>
      </trkpt>
      <trkpt lat="43.54691" lon="6.09585">
        <ele>464.3</ele>
        <time>2019-12-15T12:27:43Z</time>
      </trkpt>
      <trkpt lat="43.54687" lon="6.09597">
        <ele>464</ele>
        <time>2019-12-15T12:27:54Z</time>
      </trkpt>
      <trkpt lat="43.5468" lon="6.09607">
        <ele>464.3</ele>
        <time>2019-12-15T12:28:04Z</time>
      </trkpt>
      <trkpt lat="43.54674" lon="6.09616">
        <ele>463.3</ele>
        <time>2019-12-15T12:28:13Z</time>
      </trkpt>
      <trkpt lat="43.54668" lon="6.0964">
        <ele>462.2</ele>
        <time>2019-12-15T12:28:31Z</time>
      </trkpt>
      <trkpt lat="43.54666" lon="6.09653">
        <ele>461.1</ele>
        <time>2019-12-15T12:28:40Z</time>
      </trkpt>
      <trkpt lat="43.54662" lon="6.09665">
        <ele>462.1</ele>
        <time>2019-12-15T12:28:48Z</time>
      </trkpt>
      <trkpt lat="43.54656" lon="6.09675">
        <ele>462.1</ele>
        <time>2019-12-15T12:28:54Z</time>
      </trkpt>
      <trkpt lat="43.54651" lon="6.09687">
        <ele>460.6</ele>
        <time>2019-12-15T12:29:01Z</time>
      </trkpt>
      <trkpt lat="43.54647" lon="6.09698">
        <ele>460.3</ele>
        <time>2019-12-15T12:29:09Z</time>
      </trkpt>
      <trkpt lat="43.54643" lon="6.09711">
        <ele>459.8</ele>
        <time>2019-12-15T12:29:18Z</time>
      </trkpt>
      <trkpt lat="43.54632" lon="6.09733">
        <ele>458.2</ele>
        <time>2019-12-15T12:29:36Z</time>
      </trkpt>
      <trkpt lat="43.54626" lon="6.09743">
        <ele>458.4</ele>
        <time>2019-12-15T12:29:53Z</time>
      </trkpt>
      <trkpt lat="43.54621" lon="6.09754">
        <ele>457.8</ele>
        <time>2019-12-15T12:30:10Z</time>
      </trkpt>
      <trkpt lat="43.5462" lon="6.09767">
        <ele>456.8</ele>
        <time>2019-12-15T12:30:21Z</time>
      </trkpt>
      <trkpt lat="43.54625" lon="6.09792">
        <ele>457.2</ele>
        <time>2019-12-15T12:30:53Z</time>
      </trkpt>
      <trkpt lat="43.54627" lon="6.09805">
        <ele>455.8</ele>
        <time>2019-12-15T12:31:03Z</time>
      </trkpt>
      <trkpt lat="43.54631" lon="6.09818">
        <ele>455.2</ele>
        <time>2019-12-15T12:31:15Z</time>
      </trkpt>
      <trkpt lat="43.54628" lon="6.09831">
        <ele>454</ele>
        <time>2019-12-15T12:31:24Z</time>
      </trkpt>
      <trkpt lat="43.5462" lon="6.09855">
        <ele>452.4</ele>
        <time>2019-12-15T12:31:38Z</time>
      </trkpt>
      <trkpt lat="43.5462" lon="6.09868">
        <ele>451.3</ele>
        <time>2019-12-15T12:31:46Z</time>
      </trkpt>
      <trkpt lat="43.54623" lon="6.0988">
        <ele>450.3</ele>
        <time>2019-12-15T12:31:55Z</time>
      </trkpt>
      <trkpt lat="43.54625" lon="6.09893">
        <ele>451.5</ele>
        <time>2019-12-15T12:32:04Z</time>
      </trkpt>
      <trkpt lat="43.54622" lon="6.09907">
        <ele>452</ele>
        <time>2019-12-15T12:32:13Z</time>
      </trkpt>
      <trkpt lat="43.54617" lon="6.09917">
        <ele>450.9</ele>
        <time>2019-12-15T12:32:21Z</time>
      </trkpt>
      <trkpt lat="43.54613" lon="6.09928">
        <ele>450.7</ele>
        <time>2019-12-15T12:32:30Z</time>
      </trkpt>
      <trkpt lat="43.546" lon="6.09949">
        <ele>453.4</ele>
        <time>2019-12-15T12:32:50Z</time>
      </trkpt>
      <trkpt lat="43.54595" lon="6.09959">
        <ele>454.8</ele>
        <time>2019-12-15T12:33:01Z</time>
      </trkpt>
      <trkpt lat="43.5459" lon="6.09971">
        <ele>456.4</ele>
        <time>2019-12-15T12:33:13Z</time>
      </trkpt>
      <trkpt lat="43.54585" lon="6.09983">
        <ele>457.1</ele>
        <time>2019-12-15T12:33:23Z</time>
      </trkpt>
      <trkpt lat="43.5458" lon="6.09994">
        <ele>457.8</ele>
        <time>2019-12-15T12:33:31Z</time>
      </trkpt>
      <trkpt lat="43.54573" lon="6.10019">
        <ele>457.8</ele>
        <time>2019-12-15T12:33:52Z</time>
      </trkpt>
      <trkpt lat="43.54564" lon="6.10025">
        <ele>457.5</ele>
        <time>2019-12-15T12:34:00Z</time>
      </trkpt>
      <trkpt lat="43.54557" lon="6.10034">
        <ele>458.3</ele>
        <time>2019-12-15T12:34:09Z</time>
      </trkpt>
      <trkpt lat="43.5455" lon="6.10043">
        <ele>458.1</ele>
        <time>2019-12-15T12:34:18Z</time>
      </trkpt>
      <trkpt lat="43.54544" lon="6.10052">
        <ele>458.1</ele>
        <time>2019-12-15T12:34:27Z</time>
      </trkpt>
      <trkpt lat="43.54538" lon="6.10062">
        <ele>458.6</ele>
        <time>2019-12-15T12:34:36Z</time>
      </trkpt>
      <trkpt lat="43.54526" lon="6.10083">
        <ele>458.3</ele>
        <time>2019-12-15T12:34:54Z</time>
      </trkpt>
      <trkpt lat="43.54522" lon="6.10094">
        <ele>457</ele>
        <time>2019-12-15T12:35:04Z</time>
      </trkpt>
      <trkpt lat="43.54517" lon="6.10106">
        <ele>456.5</ele>
        <time>2019-12-15T12:35:15Z</time>
      </trkpt>
      <trkpt lat="43.54514" lon="6.10118">
        <ele>455.5</ele>
        <time>2019-12-15T12:35:36Z</time>
      </trkpt>
      <trkpt lat="43.54518" lon="6.1013">
        <ele>455</ele>
        <time>2019-12-15T12:35:49Z</time>
      </trkpt>
      <trkpt lat="43.54523" lon="6.10155">
        <ele>454.6</ele>
        <time>2019-12-15T12:36:16Z</time>
      </trkpt>
      <trkpt lat="43.54523" lon="6.10168">
        <ele>455.2</ele>
        <time>2019-12-15T12:36:26Z</time>
      </trkpt>
      <trkpt lat="43.54525" lon="6.10181">
        <ele>454.6</ele>
        <time>2019-12-15T12:36:36Z</time>
      </trkpt>
      <trkpt lat="43.54528" lon="6.10193">
        <ele>454</ele>
        <time>2019-12-15T12:36:45Z</time>
      </trkpt>
      <trkpt lat="43.54533" lon="6.10204">
        <ele>453.5</ele>
        <time>2019-12-15T12:36:54Z</time>
      </trkpt>
      <trkpt lat="43.54535" lon="6.1023">
        <ele>453.2</ele>
        <time>2019-12-15T12:37:14Z</time>
      </trkpt>
      <trkpt lat="43.54533" lon="6.10243">
        <ele>453.4</ele>
        <time>2019-12-15T12:37:22Z</time>
      </trkpt>
      <trkpt lat="43.54533" lon="6.10256">
        <ele>451.3</ele>
        <time>2019-12-15T12:37:30Z</time>
      </trkpt>
      <trkpt lat="43.54534" lon="6.10269">
        <ele>451.8</ele>
        <time>2019-12-15T12:37:38Z</time>
      </trkpt>
      <trkpt lat="43.54536" lon="6.10284">
        <ele>451</ele>
        <time>2019-12-15T12:37:46Z</time>
      </trkpt>
      <trkpt lat="43.54539" lon="6.10296">
        <ele>450.8</ele>
        <time>2019-12-15T12:37:54Z</time>
      </trkpt>
      <trkpt lat="43.54543" lon="6.10307">
        <ele>451.1</ele>
        <time>2019-12-15T12:38:02Z</time>
      </trkpt>
      <trkpt lat="43.54549" lon="6.10333">
        <ele>449.9</ele>
        <time>2019-12-15T12:38:20Z</time>
      </trkpt>
      <trkpt lat="43.5455" lon="6.10346">
        <ele>448.8</ele>
        <time>2019-12-15T12:38:28Z</time>
      </trkpt>
      <trkpt lat="43.54555" lon="6.10356">
        <ele>449.7</ele>
        <time>2019-12-15T12:38:36Z</time>
      </trkpt>
      <trkpt lat="43.54555" lon="6.10369">
        <ele>447.4</ele>
        <time>2019-12-15T12:38:45Z</time>
      </trkpt>
      <trkpt lat="43.54556" lon="6.10381">
        <ele>447.8</ele>
        <time>2019-12-15T12:38:56Z</time>
      </trkpt>
      <trkpt lat="43.54558" lon="6.10394">
        <ele>448</ele>
        <time>2019-12-15T12:39:08Z</time>
      </trkpt>
      <trkpt lat="43.54565" lon="6.10418">
        <ele>447.3</ele>
        <time>2019-12-15T12:39:34Z</time>
      </trkpt>
      <trkpt lat="43.5457" lon="6.10429">
        <ele>447.5</ele>
        <time>2019-12-15T12:39:44Z</time>
      </trkpt>
      <trkpt lat="43.54577" lon="6.1044">
        <ele>446.2</ele>
        <time>2019-12-15T12:39:54Z</time>
      </trkpt>
      <trkpt lat="43.54583" lon="6.1045">
        <ele>445.1</ele>
        <time>2019-12-15T12:40:03Z</time>
      </trkpt>
      <trkpt lat="43.54589" lon="6.1046">
        <ele>444.2</ele>
        <time>2019-12-15T12:40:11Z</time>
      </trkpt>
      <trkpt lat="43.54603" lon="6.10478">
        <ele>444.5</ele>
        <time>2019-12-15T12:40:29Z</time>
      </trkpt>
      <trkpt lat="43.54602" lon="6.10491">
        <ele>443</ele>
        <time>2019-12-15T12:40:39Z</time>
      </trkpt>
      <trkpt lat="43.54596" lon="6.10502">
        <ele>444.5</ele>
        <time>2019-12-15T12:40:48Z</time>
      </trkpt>
      <trkpt lat="43.5459" lon="6.10511">
        <ele>444.6</ele>
        <time>2019-12-15T12:40:56Z</time>
      </trkpt>
      <trkpt lat="43.54585" lon="6.10522">
        <ele>444</ele>
        <time>2019-12-15T12:41:09Z</time>
      </trkpt>
      <trkpt lat="43.54581" lon="6.10533">
        <ele>441.1</ele>
        <time>2019-12-15T12:41:39Z</time>
      </trkpt>
      <trkpt lat="43.54572" lon="6.10556">
        <ele>437.6</ele>
        <time>2019-12-15T12:42:47Z</time>
      </trkpt>
      <trkpt lat="43.54577" lon="6.10579">
        <ele>435.1</ele>
        <time>2019-12-15T12:43:12Z</time>
      </trkpt>
      <trkpt lat="43.54581" lon="6.10591">
        <ele>433.9</ele>
        <time>2019-12-15T12:43:28Z</time>
      </trkpt>
      <trkpt lat="43.54588" lon="6.10598">
        <ele>433.5</ele>
        <time>2019-12-15T12:43:49Z</time>
      </trkpt>
      <trkpt lat="43.54602" lon="6.10615">
        <ele>432.5</ele>
        <time>2019-12-15T12:44:33Z</time>
      </trkpt>
      <trkpt lat="43.54607" lon="6.10626">
        <ele>430.3</ele>
        <time>2019-12-15T12:44:52Z</time>
      </trkpt>
      <trkpt lat="43.54621" lon="6.10644">
        <ele>429.2</ele>
        <time>2019-12-15T12:45:15Z</time>
      </trkpt>
      <trkpt lat="43.54628" lon="6.10653">
        <ele>428.4</ele>
        <time>2019-12-15T12:45:26Z</time>
      </trkpt>
      <trkpt lat="43.54637" lon="6.10658">
        <ele>428.3</ele>
        <time>2019-12-15T12:45:36Z</time>
      </trkpt>
      <trkpt lat="43.54646" lon="6.10662">
        <ele>427.8</ele>
        <time>2019-12-15T12:45:45Z</time>
      </trkpt>
      <trkpt lat="43.54654" lon="6.10669">
        <ele>428.2</ele>
        <time>2019-12-15T12:45:53Z</time>
      </trkpt>
      <trkpt lat="43.54669" lon="6.10687">
        <ele>427.3</ele>
        <time>2019-12-15T12:46:09Z</time>
      </trkpt>
      <trkpt lat="43.54674" lon="6.10698">
        <ele>426.6</ele>
        <time>2019-12-15T12:46:19Z</time>
      </trkpt>
      <trkpt lat="43.5468" lon="6.10708">
        <ele>426.3</ele>
        <time>2019-12-15T12:46:29Z</time>
      </trkpt>
      <trkpt lat="43.54687" lon="6.10717">
        <ele>425.4</ele>
        <time>2019-12-15T12:46:39Z</time>
      </trkpt>
      <trkpt lat="43.54694" lon="6.10726">
        <ele>426.1</ele>
        <time>2019-12-15T12:46:50Z</time>
      </trkpt>
      <trkpt lat="43.547" lon="6.10736">
        <ele>427.1</ele>
        <time>2019-12-15T12:47:00Z</time>
      </trkpt>
      <trkpt lat="43.54705" lon="6.10762">
        <ele>423.5</ele>
        <time>2019-12-15T12:47:21Z</time>
      </trkpt>
      <trkpt lat="43.54706" lon="6.10774">
        <ele>423.1</ele>
        <time>2019-12-15T12:47:30Z</time>
      </trkpt>
      <trkpt lat="43.54709" lon="6.10787">
        <ele>421</ele>
        <time>2019-12-15T12:47:40Z</time>
      </trkpt>
      <trkpt lat="43.54712" lon="6.108">
        <ele>422</ele>
        <time>2019-12-15T12:47:51Z</time>
      </trkpt>
      <trkpt lat="43.54717" lon="6.10811">
        <ele>421.1</ele>
        <time>2019-12-15T12:48:02Z</time>
      </trkpt>
      <trkpt lat="43.54728" lon="6.1083">
        <ele>420.6</ele>
        <time>2019-12-15T12:48:21Z</time>
      </trkpt>
      <trkpt lat="43.54736" lon="6.10838">
        <ele>420.9</ele>
        <time>2019-12-15T12:48:31Z</time>
      </trkpt>
      <trkpt lat="43.54743" lon="6.10847">
        <ele>421</ele>
        <time>2019-12-15T12:48:39Z</time>
      </trkpt>
      <trkpt lat="43.54748" lon="6.10857">
        <ele>421.2</ele>
        <time>2019-12-15T12:48:48Z</time>
      </trkpt>
      <trkpt lat="43.54754" lon="6.10868">
        <ele>420.6</ele>
        <time>2019-12-15T12:48:59Z</time>
      </trkpt>
      <trkpt lat="43.54761" lon="6.10876">
        <ele>420.7</ele>
        <time>2019-12-15T12:49:08Z</time>
      </trkpt>
      <trkpt lat="43.5477" lon="6.10898">
        <ele>417.9</ele>
        <time>2019-12-15T12:49:27Z</time>
      </trkpt>
      <trkpt lat="43.54775" lon="6.1091">
        <ele>418.2</ele>
        <time>2019-12-15T12:49:37Z</time>
      </trkpt>
      <trkpt lat="43.54783" lon="6.10918">
        <ele>416.9</ele>
        <time>2019-12-15T12:49:47Z</time>
      </trkpt>
      <trkpt lat="43.54788" lon="6.10929">
        <ele>416.4</ele>
        <time>2019-12-15T12:49:57Z</time>
      </trkpt>
      <trkpt lat="43.54793" lon="6.10938">
        <ele>415.4</ele>
        <time>2019-12-15T12:50:06Z</time>
      </trkpt>
      <trkpt lat="43.54797" lon="6.1095">
        <ele>414.8</ele>
        <time>2019-12-15T12:50:15Z</time>
      </trkpt>
      <trkpt lat="43.54807" lon="6.10972">
        <ele>414.9</ele>
        <time>2019-12-15T12:50:32Z</time>
      </trkpt>
      <trkpt lat="43.54809" lon="6.10985">
        <ele>414.4</ele>
        <time>2019-12-15T12:50:43Z</time>
      </trkpt>
      <trkpt lat="43.54807" lon="6.10998">
        <ele>414.2</ele>
        <time>2019-12-15T12:51:00Z</time>
      </trkpt>
      <trkpt lat="43.54805" lon="6.1101">
        <ele>412.7</ele>
        <time>2019-12-15T12:51:19Z</time>
      </trkpt>
      <trkpt lat="43.54795" lon="6.11031">
        <ele>410.8</ele>
        <time>2019-12-15T12:51:45Z</time>
      </trkpt>
      <trkpt lat="43.5479" lon="6.11042">
        <ele>411.1</ele>
        <time>2019-12-15T12:51:56Z</time>
      </trkpt>
      <trkpt lat="43.54786" lon="6.11054">
        <ele>410</ele>
        <time>2019-12-15T12:52:07Z</time>
      </trkpt>
      <trkpt lat="43.54788" lon="6.11067">
        <ele>411.2</ele>
        <time>2019-12-15T12:52:19Z</time>
      </trkpt>
      <trkpt lat="43.54786" lon="6.11079">
        <ele>411.6</ele>
        <time>2019-12-15T12:52:30Z</time>
      </trkpt>
      <trkpt lat="43.54781" lon="6.11104">
        <ele>411.6</ele>
        <time>2019-12-15T12:52:49Z</time>
      </trkpt>
      <trkpt lat="43.54779" lon="6.11117">
        <ele>409.6</ele>
        <time>2019-12-15T12:52:58Z</time>
      </trkpt>
      <trkpt lat="43.54776" lon="6.11128">
        <ele>410.1</ele>
        <time>2019-12-15T12:53:06Z</time>
      </trkpt>
      <trkpt lat="43.54772" lon="6.1114">
        <ele>410.2</ele>
        <time>2019-12-15T12:53:13Z</time>
      </trkpt>
      <trkpt lat="43.54769" lon="6.11153">
        <ele>409.4</ele>
        <time>2019-12-15T12:53:22Z</time>
      </trkpt>
      <trkpt lat="43.5476" lon="6.11158">
        <ele>409.9</ele>
        <time>2019-12-15T12:53:32Z</time>
      </trkpt>
      <trkpt lat="43.54753" lon="6.11181">
        <ele>410.6</ele>
        <time>2019-12-15T12:54:41Z</time>
      </trkpt>
      <trkpt lat="43.54756" lon="6.11207">
        <ele>409.9</ele>
        <time>2019-12-15T12:55:06Z</time>
      </trkpt>
      <trkpt lat="43.54757" lon="6.1122">
        <ele>411.1</ele>
        <time>2019-12-15T12:55:18Z</time>
      </trkpt>
      <trkpt lat="43.54758" lon="6.11234">
        <ele>411.4</ele>
        <time>2019-12-15T12:55:29Z</time>
      </trkpt>
      <trkpt lat="43.54756" lon="6.11246">
        <ele>412.5</ele>
        <time>2019-12-15T12:55:38Z</time>
      </trkpt>
      <trkpt lat="43.54754" lon="6.11259">
        <ele>411.5</ele>
        <time>2019-12-15T12:55:46Z</time>
      </trkpt>
      <trkpt lat="43.54754" lon="6.11286">
        <ele>412.6</ele>
        <time>2019-12-15T12:56:05Z</time>
      </trkpt>
      <trkpt lat="43.54756" lon="6.11298">
        <ele>413.2</ele>
        <time>2019-12-15T12:56:14Z</time>
      </trkpt>
      <trkpt lat="43.54761" lon="6.11309">
        <ele>412.8</ele>
        <time>2019-12-15T12:56:25Z</time>
      </trkpt>
      <trkpt lat="43.54766" lon="6.1132">
        <ele>412.6</ele>
        <time>2019-12-15T12:56:36Z</time>
      </trkpt>
      <trkpt lat="43.54766" lon="6.11334">
        <ele>413</ele>
        <time>2019-12-15T12:56:46Z</time>
      </trkpt>
      <trkpt lat="43.54769" lon="6.11346">
        <ele>412.5</ele>
        <time>2019-12-15T12:56:57Z</time>
      </trkpt>
      <trkpt lat="43.54775" lon="6.11371">
        <ele>414.8</ele>
        <time>2019-12-15T12:57:16Z</time>
      </trkpt>
      <trkpt lat="43.54777" lon="6.11385">
        <ele>414.9</ele>
        <time>2019-12-15T12:57:25Z</time>
      </trkpt>
      <trkpt lat="43.54779" lon="6.11397">
        <ele>413.8</ele>
        <time>2019-12-15T12:57:34Z</time>
      </trkpt>
      <trkpt lat="43.54779" lon="6.1141">
        <ele>414.1</ele>
        <time>2019-12-15T12:57:43Z</time>
      </trkpt>
      <trkpt lat="43.5478" lon="6.11423">
        <ele>415</ele>
        <time>2019-12-15T12:57:54Z</time>
      </trkpt>
      <trkpt lat="43.54781" lon="6.11437">
        <ele>415.2</ele>
        <time>2019-12-15T12:58:03Z</time>
      </trkpt>
      <trkpt lat="43.54783" lon="6.11463">
        <ele>417.1</ele>
        <time>2019-12-15T12:58:21Z</time>
      </trkpt>
      <trkpt lat="43.54785" lon="6.11476">
        <ele>417</ele>
        <time>2019-12-15T12:58:33Z</time>
      </trkpt>
      <trkpt lat="43.54785" lon="6.11488">
        <ele>416.7</ele>
        <time>2019-12-15T12:59:02Z</time>
      </trkpt>
      <trkpt lat="43.54789" lon="6.11499">
        <ele>417.9</ele>
        <time>2019-12-15T12:59:39Z</time>
      </trkpt>
      <trkpt lat="43.54789" lon="6.11525">
        <ele>417.8</ele>
        <time>2019-12-15T13:00:29Z</time>
      </trkpt>
      <trkpt lat="43.54787" lon="6.11537">
        <ele>416.1</ele>
        <time>2019-12-15T13:00:40Z</time>
      </trkpt>
      <trkpt lat="43.54783" lon="6.11563">
        <ele>415.9</ele>
        <time>2019-12-15T13:01:00Z</time>
      </trkpt>
      <trkpt lat="43.54781" lon="6.11575">
        <ele>415.9</ele>
        <time>2019-12-15T13:01:10Z</time>
      </trkpt>
      <trkpt lat="43.54778" lon="6.11588">
        <ele>415.4</ele>
        <time>2019-12-15T13:01:20Z</time>
      </trkpt>
      <trkpt lat="43.54776" lon="6.11601">
        <ele>415.7</ele>
        <time>2019-12-15T13:01:31Z</time>
      </trkpt>
      <trkpt lat="43.54771" lon="6.11612">
        <ele>415</ele>
        <time>2019-12-15T13:01:44Z</time>
      </trkpt>
      <trkpt lat="43.54766" lon="6.11636">
        <ele>415.6</ele>
        <time>2019-12-15T13:02:12Z</time>
      </trkpt>
      <trkpt lat="43.54766" lon="6.1165">
        <ele>415.8</ele>
        <time>2019-12-15T13:02:23Z</time>
      </trkpt>
      <trkpt lat="43.54763" lon="6.11663">
        <ele>414.6</ele>
        <time>2019-12-15T13:02:33Z</time>
      </trkpt>
      <trkpt lat="43.5476" lon="6.11675">
        <ele>415</ele>
        <time>2019-12-15T13:02:42Z</time>
      </trkpt>
      <trkpt lat="43.54757" lon="6.11687">
        <ele>415.2</ele>
        <time>2019-12-15T13:02:52Z</time>
      </trkpt>
      <trkpt lat="43.54754" lon="6.11713">
        <ele>414.3</ele>
        <time>2019-12-15T13:03:13Z</time>
      </trkpt>
      <trkpt lat="43.54752" lon="6.11725">
        <ele>413.7</ele>
        <time>2019-12-15T13:03:22Z</time>
      </trkpt>
      <trkpt lat="43.54751" lon="6.11737">
        <ele>415.2</ele>
        <time>2019-12-15T13:03:31Z</time>
      </trkpt>
      <trkpt lat="43.54751" lon="6.11751">
        <ele>414.4</ele>
        <time>2019-12-15T13:03:40Z</time>
      </trkpt>
      <trkpt lat="43.54749" lon="6.11764">
        <ele>414.7</ele>
        <time>2019-12-15T13:03:48Z</time>
      </trkpt>
      <trkpt lat="43.54747" lon="6.11777">
        <ele>414.9</ele>
        <time>2019-12-15T13:03:56Z</time>
      </trkpt>
      <trkpt lat="43.54742" lon="6.11803">
        <ele>414.1</ele>
        <time>2019-12-15T13:04:13Z</time>
      </trkpt>
      <trkpt lat="43.54737" lon="6.11814">
        <ele>413.1</ele>
        <time>2019-12-15T13:04:21Z</time>
      </trkpt>
      <trkpt lat="43.54732" lon="6.11825">
        <ele>414</ele>
        <time>2019-12-15T13:04:28Z</time>
      </trkpt>
      <trkpt lat="43.54726" lon="6.11835">
        <ele>413.7</ele>
        <time>2019-12-15T13:04:36Z</time>
      </trkpt>
      <trkpt lat="43.54719" lon="6.11844">
        <ele>414.4</ele>
        <time>2019-12-15T13:04:43Z</time>
      </trkpt>
      <trkpt lat="43.54712" lon="6.11853">
        <ele>413.4</ele>
        <time>2019-12-15T13:04:51Z</time>
      </trkpt>
      <trkpt lat="43.54705" lon="6.11861">
        <ele>412.6</ele>
        <time>2019-12-15T13:04:59Z</time>
      </trkpt>
      <trkpt lat="43.54691" lon="6.11879">
        <ele>412.5</ele>
        <time>2019-12-15T13:05:17Z</time>
      </trkpt>
      <trkpt lat="43.54684" lon="6.11887">
        <ele>412.5</ele>
        <time>2019-12-15T13:05:26Z</time>
      </trkpt>
      <trkpt lat="43.54676" lon="6.11895">
        <ele>412.1</ele>
        <time>2019-12-15T13:05:35Z</time>
      </trkpt>
      <trkpt lat="43.54669" lon="6.11903">
        <ele>412.4</ele>
        <time>2019-12-15T13:05:43Z</time>
      </trkpt>
      <trkpt lat="43.54662" lon="6.11911">
        <ele>411.5</ele>
        <time>2019-12-15T13:05:51Z</time>
      </trkpt>
      <trkpt lat="43.54655" lon="6.11919">
        <ele>412.8</ele>
        <time>2019-12-15T13:05:59Z</time>
      </trkpt>
      <trkpt lat="43.54647" lon="6.11927">
        <ele>412.7</ele>
        <time>2019-12-15T13:06:08Z</time>
      </trkpt>
      <trkpt lat="43.54632" lon="6.11944">
        <ele>412.7</ele>
        <time>2019-12-15T13:06:24Z</time>
      </trkpt>
      <trkpt lat="43.54624" lon="6.11952">
        <ele>413</ele>
        <time>2019-12-15T13:06:32Z</time>
      </trkpt>
      <trkpt lat="43.54617" lon="6.11961">
        <ele>412.7</ele>
        <time>2019-12-15T13:06:41Z</time>
      </trkpt>
      <trkpt lat="43.5461" lon="6.11969">
        <ele>411.4</ele>
        <time>2019-12-15T13:06:49Z</time>
      </trkpt>
      <trkpt lat="43.54601" lon="6.11974">
        <ele>411.7</ele>
        <time>2019-12-15T13:06:57Z</time>
      </trkpt>
      <trkpt lat="43.54591" lon="6.11978">
        <ele>411.4</ele>
        <time>2019-12-15T13:07:08Z</time>
      </trkpt>
      <trkpt lat="43.54581" lon="6.11979">
        <ele>411.2</ele>
        <time>2019-12-15T13:07:18Z</time>
      </trkpt>
      <trkpt lat="43.54564" lon="6.11972">
        <ele>410.8</ele>
        <time>2019-12-15T13:07:35Z</time>
      </trkpt>
      <trkpt lat="43.54554" lon="6.11968">
        <ele>408.9</ele>
        <time>2019-12-15T13:07:44Z</time>
      </trkpt>
      <trkpt lat="43.54546" lon="6.11964">
        <ele>409.8</ele>
        <time>2019-12-15T13:07:53Z</time>
      </trkpt>
      <trkpt lat="43.54537" lon="6.11959">
        <ele>407.8</ele>
        <time>2019-12-15T13:08:03Z</time>
      </trkpt>
      <trkpt lat="43.54529" lon="6.11952">
        <ele>406.3</ele>
        <time>2019-12-15T13:08:11Z</time>
      </trkpt>
      <trkpt lat="43.54521" lon="6.11944">
        <ele>405.7</ele>
        <time>2019-12-15T13:08:20Z</time>
      </trkpt>
      <trkpt lat="43.54501" lon="6.11937">
        <ele>404.8</ele>
        <time>2019-12-15T13:08:36Z</time>
      </trkpt>
      <trkpt lat="43.54492" lon="6.11936">
        <ele>405.1</ele>
        <time>2019-12-15T13:08:46Z</time>
      </trkpt>
      <trkpt lat="43.54482" lon="6.11938">
        <ele>404.2</ele>
        <time>2019-12-15T13:08:54Z</time>
      </trkpt>
      <trkpt lat="43.54473" lon="6.11941">
        <ele>403.4</ele>
        <time>2019-12-15T13:09:01Z</time>
      </trkpt>
      <trkpt lat="43.54464" lon="6.11946">
        <ele>403.7</ele>
        <time>2019-12-15T13:09:10Z</time>
      </trkpt>
      <trkpt lat="43.54456" lon="6.11953">
        <ele>404</ele>
        <time>2019-12-15T13:09:26Z</time>
      </trkpt>
      <trkpt lat="43.54442" lon="6.11969">
        <ele>403.4</ele>
        <time>2019-12-15T13:09:57Z</time>
      </trkpt>
      <trkpt lat="43.54433" lon="6.11973">
        <ele>403.3</ele>
        <time>2019-12-15T13:10:19Z</time>
      </trkpt>
      <trkpt lat="43.54425" lon="6.11978">
        <ele>404.3</ele>
        <time>2019-12-15T13:10:46Z</time>
      </trkpt>
      <trkpt lat="43.54412" lon="6.11996">
        <ele>402.3</ele>
        <time>2019-12-15T13:11:22Z</time>
      </trkpt>
      <trkpt lat="43.54405" lon="6.12005">
        <ele>402.5</ele>
        <time>2019-12-15T13:11:31Z</time>
      </trkpt>
      <trkpt lat="43.54398" lon="6.12013">
        <ele>401.4</ele>
        <time>2019-12-15T13:11:39Z</time>
      </trkpt>
      <trkpt lat="43.54389" lon="6.1202">
        <ele>400.5</ele>
        <time>2019-12-15T13:11:47Z</time>
      </trkpt>
      <trkpt lat="43.54373" lon="6.12034">
        <ele>400.8</ele>
        <time>2019-12-15T13:12:01Z</time>
      </trkpt>
      <trkpt lat="43.54364" lon="6.1204">
        <ele>400.1</ele>
        <time>2019-12-15T13:12:11Z</time>
      </trkpt>
      <trkpt lat="43.54356" lon="6.12045">
        <ele>400.5</ele>
        <time>2019-12-15T13:12:20Z</time>
      </trkpt>
      <trkpt lat="43.54348" lon="6.12054">
        <ele>399.2</ele>
        <time>2019-12-15T13:12:29Z</time>
      </trkpt>
      <trkpt lat="43.54341" lon="6.12063">
        <ele>398.9</ele>
        <time>2019-12-15T13:12:38Z</time>
      </trkpt>
      <trkpt lat="43.54337" lon="6.12074">
        <ele>398.9</ele>
        <time>2019-12-15T13:13:06Z</time>
      </trkpt>
      <trkpt lat="43.54321" lon="6.12089">
        <ele>398.7</ele>
        <time>2019-12-15T13:13:23Z</time>
      </trkpt>
      <trkpt lat="43.54314" lon="6.12098">
        <ele>398.4</ele>
        <time>2019-12-15T13:13:32Z</time>
      </trkpt>
      <trkpt lat="43.54307" lon="6.12106">
        <ele>398.3</ele>
        <time>2019-12-15T13:13:40Z</time>
      </trkpt>
      <trkpt lat="43.543" lon="6.12114">
        <ele>397.9</ele>
        <time>2019-12-15T13:13:47Z</time>
      </trkpt>
      <trkpt lat="43.54293" lon="6.12124">
        <ele>397</ele>
        <time>2019-12-15T13:13:54Z</time>
      </trkpt>
      <trkpt lat="43.54287" lon="6.12133">
        <ele>397.9</ele>
        <time>2019-12-15T13:14:01Z</time>
      </trkpt>
      <trkpt lat="43.54281" lon="6.12145">
        <ele>398.6</ele>
        <time>2019-12-15T13:14:10Z</time>
      </trkpt>
      <trkpt lat="43.54267" lon="6.12163">
        <ele>398.5</ele>
        <time>2019-12-15T13:14:28Z</time>
      </trkpt>
      <trkpt lat="43.54264" lon="6.12175">
        <ele>399.4</ele>
        <time>2019-12-15T13:14:49Z</time>
      </trkpt>
      <trkpt lat="43.54258" lon="6.12184">
        <ele>398.7</ele>
        <time>2019-12-15T13:15:08Z</time>
      </trkpt>
      <trkpt lat="43.54251" lon="6.12193">
        <ele>399.3</ele>
        <time>2019-12-15T13:15:17Z</time>
      </trkpt>
      <trkpt lat="43.54237" lon="6.12209">
        <ele>398</ele>
        <time>2019-12-15T13:15:34Z</time>
      </trkpt>
      <trkpt lat="43.5423" lon="6.12219">
        <ele>397.7</ele>
        <time>2019-12-15T13:15:43Z</time>
      </trkpt>
      <trkpt lat="43.54223" lon="6.12228">
        <ele>397.5</ele>
        <time>2019-12-15T13:15:49Z</time>
      </trkpt>
      <trkpt lat="43.54216" lon="6.12235">
        <ele>396.8</ele>
        <time>2019-12-15T13:15:56Z</time>
      </trkpt>
      <trkpt lat="43.54211" lon="6.12246">
        <ele>396.8</ele>
        <time>2019-12-15T13:16:05Z</time>
      </trkpt>
      <trkpt lat="43.54203" lon="6.12254">
        <ele>396.2</ele>
        <time>2019-12-15T13:16:12Z</time>
      </trkpt>
      <trkpt lat="43.54196" lon="6.12264">
        <ele>395.4</ele>
        <time>2019-12-15T13:16:19Z</time>
      </trkpt>
      <trkpt lat="43.54182" lon="6.12281">
        <ele>395.6</ele>
        <time>2019-12-15T13:16:34Z</time>
      </trkpt>
      <trkpt lat="43.54173" lon="6.12288">
        <ele>395.4</ele>
        <time>2019-12-15T13:16:42Z</time>
      </trkpt>
      <trkpt lat="43.54166" lon="6.12298">
        <ele>395.2</ele>
        <time>2019-12-15T13:16:51Z</time>
      </trkpt>
      <trkpt lat="43.54158" lon="6.12306">
        <ele>394.7</ele>
        <time>2019-12-15T13:16:59Z</time>
      </trkpt>
      <trkpt lat="43.5415" lon="6.12314">
        <ele>395.5</ele>
        <time>2019-12-15T13:17:07Z</time>
      </trkpt>
      <trkpt lat="43.54144" lon="6.12323">
        <ele>394.4</ele>
        <time>2019-12-15T13:17:13Z</time>
      </trkpt>
      <trkpt lat="43.54137" lon="6.12331">
        <ele>393.7</ele>
        <time>2019-12-15T13:17:20Z</time>
      </trkpt>
      <trkpt lat="43.54123" lon="6.12347">
        <ele>393.9</ele>
        <time>2019-12-15T13:17:34Z</time>
      </trkpt>
      <trkpt lat="43.54115" lon="6.12356">
        <ele>393.7</ele>
        <time>2019-12-15T13:17:41Z</time>
      </trkpt>
      <trkpt lat="43.54107" lon="6.12363">
        <ele>394.6</ele>
        <time>2019-12-15T13:17:48Z</time>
      </trkpt>
      <trkpt lat="43.54099" lon="6.12371">
        <ele>393.1</ele>
        <time>2019-12-15T13:17:56Z</time>
      </trkpt>
      <trkpt lat="43.54091" lon="6.12378">
        <ele>393.9</ele>
        <time>2019-12-15T13:18:02Z</time>
      </trkpt>
      <trkpt lat="43.54084" lon="6.12388">
        <ele>393.6</ele>
        <time>2019-12-15T13:18:10Z</time>
      </trkpt>
      <trkpt lat="43.54076" lon="6.12396">
        <ele>393.7</ele>
        <time>2019-12-15T13:18:18Z</time>
      </trkpt>
      <trkpt lat="43.54069" lon="6.12406">
        <ele>393.8</ele>
        <time>2019-12-15T13:18:27Z</time>
      </trkpt>
      <trkpt lat="43.54054" lon="6.1242">
        <ele>393.4</ele>
        <time>2019-12-15T13:18:43Z</time>
      </trkpt>
      <trkpt lat="43.54046" lon="6.12428">
        <ele>393.8</ele>
        <time>2019-12-15T13:18:52Z</time>
      </trkpt>
      <trkpt lat="43.54038" lon="6.12434">
        <ele>393.2</ele>
        <time>2019-12-15T13:19:01Z</time>
      </trkpt>
      <trkpt lat="43.54029" lon="6.12442">
        <ele>393.6</ele>
        <time>2019-12-15T13:19:10Z</time>
      </trkpt>
      <trkpt lat="43.54021" lon="6.12449">
        <ele>392.8</ele>
        <time>2019-12-15T13:19:19Z</time>
      </trkpt>
      <trkpt lat="43.54013" lon="6.12455">
        <ele>393.5</ele>
        <time>2019-12-15T13:19:29Z</time>
      </trkpt>
      <trkpt lat="43.53997" lon="6.1247">
        <ele>392.5</ele>
        <time>2019-12-15T13:19:44Z</time>
      </trkpt>
      <trkpt lat="43.53988" lon="6.12476">
        <ele>392</ele>
        <time>2019-12-15T13:19:53Z</time>
      </trkpt>
      <trkpt lat="43.53979" lon="6.12482">
        <ele>392.3</ele>
        <time>2019-12-15T13:20:02Z</time>
      </trkpt>
      <trkpt lat="43.5397" lon="6.12486">
        <ele>391.8</ele>
        <time>2019-12-15T13:20:14Z</time>
      </trkpt>
      <trkpt lat="43.53963" lon="6.12495">
        <ele>390.7</ele>
        <time>2019-12-15T13:20:33Z</time>
      </trkpt>
      <trkpt lat="43.53945" lon="6.12504">
        <ele>391.3</ele>
        <time>2019-12-15T13:20:58Z</time>
      </trkpt>
      <trkpt lat="43.53936" lon="6.1251">
        <ele>390.3</ele>
        <time>2019-12-15T13:21:09Z</time>
      </trkpt>
      <trkpt lat="43.53927" lon="6.12516">
        <ele>390.2</ele>
        <time>2019-12-15T13:21:17Z</time>
      </trkpt>
      <trkpt lat="43.53918" lon="6.12519">
        <ele>390</ele>
        <time>2019-12-15T13:21:25Z</time>
      </trkpt>
      <trkpt lat="43.53908" lon="6.12522">
        <ele>390</ele>
        <time>2019-12-15T13:21:33Z</time>
      </trkpt>
      <trkpt lat="43.539" lon="6.12526">
        <ele>390.4</ele>
        <time>2019-12-15T13:21:40Z</time>
      </trkpt>
      <trkpt lat="43.53881" lon="6.1253">
        <ele>390.1</ele>
        <time>2019-12-15T13:21:59Z</time>
      </trkpt>
      <trkpt lat="43.53871" lon="6.12533">
        <ele>389.8</ele>
        <time>2019-12-15T13:22:07Z</time>
      </trkpt>
      <trkpt lat="43.53862" lon="6.12535">
        <ele>388.9</ele>
        <time>2019-12-15T13:22:17Z</time>
      </trkpt>
      <trkpt lat="43.53852" lon="6.12537">
        <ele>389</ele>
        <time>2019-12-15T13:22:26Z</time>
      </trkpt>
      <trkpt lat="43.53843" lon="6.12542">
        <ele>388.9</ele>
        <time>2019-12-15T13:22:36Z</time>
      </trkpt>
      <trkpt lat="43.53833" lon="6.12545">
        <ele>388.5</ele>
        <time>2019-12-15T13:22:45Z</time>
      </trkpt>
      <trkpt lat="43.53814" lon="6.12551">
        <ele>389.3</ele>
        <time>2019-12-15T13:23:03Z</time>
      </trkpt>
      <trkpt lat="43.53806" lon="6.12557">
        <ele>388.8</ele>
        <time>2019-12-15T13:23:12Z</time>
      </trkpt>
      <trkpt lat="43.53797" lon="6.12561">
        <ele>387.6</ele>
        <time>2019-12-15T13:23:20Z</time>
      </trkpt>
      <trkpt lat="43.53788" lon="6.12565">
        <ele>388.2</ele>
        <time>2019-12-15T13:23:28Z</time>
      </trkpt>
      <trkpt lat="43.53779" lon="6.12568">
        <ele>388.5</ele>
        <time>2019-12-15T13:23:35Z</time>
      </trkpt>
      <trkpt lat="43.5377" lon="6.12572">
        <ele>388</ele>
        <time>2019-12-15T13:23:43Z</time>
      </trkpt>
      <trkpt lat="43.53761" lon="6.12574">
        <ele>386.6</ele>
        <time>2019-12-15T13:23:51Z</time>
      </trkpt>
      <trkpt lat="43.53742" lon="6.12579">
        <ele>386.1</ele>
        <time>2019-12-15T13:24:08Z</time>
      </trkpt>
      <trkpt lat="43.53732" lon="6.12582">
        <ele>385</ele>
        <time>2019-12-15T13:24:18Z</time>
      </trkpt>
      <trkpt lat="43.53723" lon="6.12586">
        <ele>384.1</ele>
        <time>2019-12-15T13:24:26Z</time>
      </trkpt>
      <trkpt lat="43.53714" lon="6.12589">
        <ele>383.8</ele>
        <time>2019-12-15T13:24:35Z</time>
      </trkpt>
      <trkpt lat="43.53705" lon="6.12592">
        <ele>384</ele>
        <time>2019-12-15T13:24:44Z</time>
      </trkpt>
      <trkpt lat="43.53696" lon="6.12596">
        <ele>384.9</ele>
        <time>2019-12-15T13:24:52Z</time>
      </trkpt>
      <trkpt lat="43.53678" lon="6.12603">
        <ele>383.5</ele>
        <time>2019-12-15T13:25:09Z</time>
      </trkpt>
      <trkpt lat="43.53669" lon="6.12605">
        <ele>383.8</ele>
        <time>2019-12-15T13:25:16Z</time>
      </trkpt>
      <trkpt lat="43.53659" lon="6.12607">
        <ele>384.6</ele>
        <time>2019-12-15T13:25:23Z</time>
      </trkpt>
      <trkpt lat="43.5365" lon="6.12609">
        <ele>384.6</ele>
        <time>2019-12-15T13:25:31Z</time>
      </trkpt>
      <trkpt lat="43.53641" lon="6.12614">
        <ele>383.7</ele>
        <time>2019-12-15T13:25:39Z</time>
      </trkpt>
      <trkpt lat="43.53631" lon="6.12618">
        <ele>383.7</ele>
        <time>2019-12-15T13:25:48Z</time>
      </trkpt>
      <trkpt lat="43.53623" lon="6.12625">
        <ele>383.7</ele>
        <time>2019-12-15T13:25:57Z</time>
      </trkpt>
      <trkpt lat="43.53605" lon="6.12637">
        <ele>382.1</ele>
        <time>2019-12-15T13:26:18Z</time>
      </trkpt>
      <trkpt lat="43.53596" lon="6.12641">
        <ele>382</ele>
        <time>2019-12-15T13:26:26Z</time>
      </trkpt>
      <trkpt lat="43.53587" lon="6.12646">
        <ele>382.1</ele>
        <time>2019-12-15T13:26:34Z</time>
      </trkpt>
      <trkpt lat="43.53579" lon="6.1264">
        <ele>380.9</ele>
        <time>2019-12-15T13:27:10Z</time>
      </trkpt>
      <trkpt lat="43.53561" lon="6.12641">
        <ele>379.1</ele>
        <time>2019-12-15T13:27:52Z</time>
      </trkpt>
      <trkpt lat="43.53552" lon="6.12638">
        <ele>379.9</ele>
        <time>2019-12-15T13:28:03Z</time>
      </trkpt>
      <trkpt lat="43.53543" lon="6.12635">
        <ele>378.7</ele>
        <time>2019-12-15T13:28:15Z</time>
      </trkpt>
      <trkpt lat="43.53526" lon="6.12625">
        <ele>377</ele>
        <time>2019-12-15T13:28:34Z</time>
      </trkpt>
      <trkpt lat="43.53517" lon="6.12621">
        <ele>377.7</ele>
        <time>2019-12-15T13:28:45Z</time>
      </trkpt>
      <trkpt lat="43.53508" lon="6.12617">
        <ele>377.4</ele>
        <time>2019-12-15T13:28:55Z</time>
      </trkpt>
      <trkpt lat="43.53499" lon="6.12613">
        <ele>378.4</ele>
        <time>2019-12-15T13:29:04Z</time>
      </trkpt>
      <trkpt lat="43.5349" lon="6.1261">
        <ele>377.5</ele>
        <time>2019-12-15T13:29:15Z</time>
      </trkpt>
      <trkpt lat="43.53482" lon="6.12604">
        <ele>376.9</ele>
        <time>2019-12-15T13:29:26Z</time>
      </trkpt>
      <trkpt lat="43.53464" lon="6.12593">
        <ele>377.3</ele>
        <time>2019-12-15T13:29:42Z</time>
      </trkpt>
      <trkpt lat="43.53455" lon="6.12589">
        <ele>376.5</ele>
        <time>2019-12-15T13:29:50Z</time>
      </trkpt>
      <trkpt lat="43.53446" lon="6.12584">
        <ele>377.2</ele>
        <time>2019-12-15T13:30:00Z</time>
      </trkpt>
      <trkpt lat="43.53437" lon="6.12577">
        <ele>375.9</ele>
        <time>2019-12-15T13:30:08Z</time>
      </trkpt>
      <trkpt lat="43.53429" lon="6.1257">
        <ele>376.6</ele>
        <time>2019-12-15T13:30:16Z</time>
      </trkpt>
      <trkpt lat="43.53422" lon="6.12561">
        <ele>376.6</ele>
        <time>2019-12-15T13:30:28Z</time>
      </trkpt>
      <trkpt lat="43.53412" lon="6.12538">
        <ele>376.4</ele>
        <time>2019-12-15T13:30:46Z</time>
      </trkpt>
      <trkpt lat="43.53405" lon="6.12528">
        <ele>377.1</ele>
        <time>2019-12-15T13:30:54Z</time>
      </trkpt>
      <trkpt lat="43.53403" lon="6.12515">
        <ele>376.8</ele>
        <time>2019-12-15T13:31:05Z</time>
      </trkpt>
      <trkpt lat="43.53403" lon="6.12502">
        <ele>376</ele>
        <time>2019-12-15T13:33:25Z</time>
      </trkpt>
      <trkpt lat="43.53403" lon="6.12526">
        <ele>377.3</ele>
        <time>2019-12-15T13:35:01Z</time>
      </trkpt>
      <trkpt lat="43.53402" lon="6.12523">
        <ele>376.5</ele>
        <time>2019-12-15T13:35:58Z</time>
      </trkpt>
      <trkpt lat="43.53407" lon="6.12511">
        <ele>377.6</ele>
        <time>2019-12-15T13:36:16Z</time>
      </trkpt>
      <trkpt lat="43.53409" lon="6.12513">
        <ele>376.8</ele>
        <time>2019-12-15T13:37:25Z</time>
      </trkpt>
      <trkpt lat="43.53411" lon="6.12534">
        <ele>376.7</ele>
        <time>2019-12-15T13:38:07Z</time>
      </trkpt>
      <trkpt lat="43.53416" lon="6.12545">
        <ele>376.5</ele>
        <time>2019-12-15T13:38:17Z</time>
      </trkpt>
      <trkpt lat="43.53421" lon="6.12555">
        <ele>377</ele>
        <time>2019-12-15T13:38:27Z</time>
      </trkpt>
      <trkpt lat="43.53433" lon="6.12575">
        <ele>375.9</ele>
        <time>2019-12-15T13:38:47Z</time>
      </trkpt>
      <trkpt lat="43.5344" lon="6.12583">
        <ele>375.7</ele>
        <time>2019-12-15T13:38:57Z</time>
      </trkpt>
      <trkpt lat="43.53448" lon="6.1259">
        <ele>375.4</ele>
        <time>2019-12-15T13:39:06Z</time>
      </trkpt>
      <trkpt lat="43.53455" lon="6.12599">
        <ele>375.6</ele>
        <time>2019-12-15T13:39:15Z</time>
      </trkpt>
      <trkpt lat="43.5346" lon="6.1261">
        <ele>375.2</ele>
        <time>2019-12-15T13:39:33Z</time>
      </trkpt>
      <trkpt lat="43.53467" lon="6.12634">
        <ele>375.1</ele>
        <time>2019-12-15T13:39:55Z</time>
      </trkpt>
      <trkpt lat="43.53468" lon="6.12647">
        <ele>374.5</ele>
        <time>2019-12-15T13:40:08Z</time>
      </trkpt>
      <trkpt lat="43.53473" lon="6.12658">
        <ele>374.8</ele>
        <time>2019-12-15T13:40:18Z</time>
      </trkpt>
      <trkpt lat="43.53475" lon="6.12671">
        <ele>374.4</ele>
        <time>2019-12-15T13:40:28Z</time>
      </trkpt>
      <trkpt lat="43.53469" lon="6.12681">
        <ele>373</ele>
        <time>2019-12-15T13:40:40Z</time>
      </trkpt>
      <trkpt lat="43.53452" lon="6.12695">
        <ele>372.4</ele>
        <time>2019-12-15T13:41:00Z</time>
      </trkpt>
      <trkpt lat="43.53444" lon="6.12702">
        <ele>372.6</ele>
        <time>2019-12-15T13:41:09Z</time>
      </trkpt>
      <trkpt lat="43.53434" lon="6.12707">
        <ele>372.7</ele>
        <time>2019-12-15T13:41:17Z</time>
      </trkpt>
      <trkpt lat="43.53426" lon="6.12711">
        <ele>373</ele>
        <time>2019-12-15T13:41:25Z</time>
      </trkpt>
      <trkpt lat="43.53418" lon="6.12719">
        <ele>372.5</ele>
        <time>2019-12-15T13:41:33Z</time>
      </trkpt>
      <trkpt lat="43.53409" lon="6.12724">
        <ele>373.3</ele>
        <time>2019-12-15T13:41:43Z</time>
      </trkpt>
      <trkpt lat="43.53391" lon="6.12734">
        <ele>372.6</ele>
        <time>2019-12-15T13:42:02Z</time>
      </trkpt>
      <trkpt lat="43.53384" lon="6.12742">
        <ele>371.6</ele>
        <time>2019-12-15T13:42:11Z</time>
      </trkpt>
      <trkpt lat="43.53379" lon="6.12753">
        <ele>371.3</ele>
        <time>2019-12-15T13:42:21Z</time>
      </trkpt>
      <trkpt lat="43.53374" lon="6.12764">
        <ele>370.6</ele>
        <time>2019-12-15T13:42:30Z</time>
      </trkpt>
      <trkpt lat="43.53369" lon="6.12776">
        <ele>370.2</ele>
        <time>2019-12-15T13:42:39Z</time>
      </trkpt>
      <trkpt lat="43.53364" lon="6.12787">
        <ele>370</ele>
        <time>2019-12-15T13:42:48Z</time>
      </trkpt>
      <trkpt lat="43.53352" lon="6.12807">
        <ele>370.2</ele>
        <time>2019-12-15T13:43:05Z</time>
      </trkpt>
      <trkpt lat="43.53346" lon="6.12816">
        <ele>370.7</ele>
        <time>2019-12-15T13:43:13Z</time>
      </trkpt>
      <trkpt lat="43.53339" lon="6.12824">
        <ele>369.1</ele>
        <time>2019-12-15T13:43:20Z</time>
      </trkpt>
      <trkpt lat="43.53331" lon="6.12832">
        <ele>370.4</ele>
        <time>2019-12-15T13:43:29Z</time>
      </trkpt>
      <trkpt lat="43.53323" lon="6.12839">
        <ele>369.5</ele>
        <time>2019-12-15T13:43:37Z</time>
      </trkpt>
      <trkpt lat="43.53315" lon="6.12847">
        <ele>368.2</ele>
        <time>2019-12-15T13:43:46Z</time>
      </trkpt>
      <trkpt lat="43.53307" lon="6.12854">
        <ele>368.5</ele>
        <time>2019-12-15T13:43:54Z</time>
      </trkpt>
      <trkpt lat="43.53293" lon="6.1287">
        <ele>369.2</ele>
        <time>2019-12-15T13:44:11Z</time>
      </trkpt>
      <trkpt lat="43.53285" lon="6.12878">
        <ele>368.4</ele>
        <time>2019-12-15T13:44:20Z</time>
      </trkpt>
      <trkpt lat="43.53278" lon="6.12888">
        <ele>368.7</ele>
        <time>2019-12-15T13:44:29Z</time>
      </trkpt>
      <trkpt lat="43.5327" lon="6.12896">
        <ele>368.3</ele>
        <time>2019-12-15T13:44:38Z</time>
      </trkpt>
      <trkpt lat="43.53262" lon="6.12904">
        <ele>367.9</ele>
        <time>2019-12-15T13:44:46Z</time>
      </trkpt>
      <trkpt lat="43.53254" lon="6.12912">
        <ele>367</ele>
        <time>2019-12-15T13:44:54Z</time>
      </trkpt>
      <trkpt lat="43.53247" lon="6.12921">
        <ele>367.4</ele>
        <time>2019-12-15T13:45:02Z</time>
      </trkpt>
      <trkpt lat="43.53235" lon="6.12942">
        <ele>368.7</ele>
        <time>2019-12-15T13:45:21Z</time>
      </trkpt>
      <trkpt lat="43.53229" lon="6.12953">
        <ele>367.7</ele>
        <time>2019-12-15T13:45:31Z</time>
      </trkpt>
      <trkpt lat="43.53222" lon="6.12962">
        <ele>367.9</ele>
        <time>2019-12-15T13:45:40Z</time>
      </trkpt>
      <trkpt lat="43.53215" lon="6.1297">
        <ele>368</ele>
        <time>2019-12-15T13:45:48Z</time>
      </trkpt>
      <trkpt lat="43.53207" lon="6.12977">
        <ele>366.8</ele>
        <time>2019-12-15T13:45:59Z</time>
      </trkpt>
      <trkpt lat="43.53199" lon="6.12986">
        <ele>368.3</ele>
        <time>2019-12-15T13:46:07Z</time>
      </trkpt>
      <trkpt lat="43.53183" lon="6.13">
        <ele>368.8</ele>
        <time>2019-12-15T13:46:21Z</time>
      </trkpt>
      <trkpt lat="43.53175" lon="6.13007">
        <ele>367.9</ele>
        <time>2019-12-15T13:46:29Z</time>
      </trkpt>
      <trkpt lat="43.53166" lon="6.13013">
        <ele>368.5</ele>
        <time>2019-12-15T13:46:37Z</time>
      </trkpt>
      <trkpt lat="43.53158" lon="6.13021">
        <ele>368</ele>
        <time>2019-12-15T13:46:45Z</time>
      </trkpt>
      <trkpt lat="43.5315" lon="6.13028">
        <ele>369.1</ele>
        <time>2019-12-15T13:46:52Z</time>
      </trkpt>
      <trkpt lat="43.53141" lon="6.13033">
        <ele>369.4</ele>
        <time>2019-12-15T13:47:00Z</time>
      </trkpt>
      <trkpt lat="43.53133" lon="6.13041">
        <ele>369.8</ele>
        <time>2019-12-15T13:47:08Z</time>
      </trkpt>
      <trkpt lat="43.5312" lon="6.13061">
        <ele>369.8</ele>
        <time>2019-12-15T13:47:26Z</time>
      </trkpt>
      <trkpt lat="43.53113" lon="6.1307">
        <ele>370.6</ele>
        <time>2019-12-15T13:47:34Z</time>
      </trkpt>
      <trkpt lat="43.53106" lon="6.13079">
        <ele>369.9</ele>
        <time>2019-12-15T13:47:41Z</time>
      </trkpt>
      <trkpt lat="43.53099" lon="6.13088">
        <ele>371.8</ele>
        <time>2019-12-15T13:47:48Z</time>
      </trkpt>
      <trkpt lat="43.53092" lon="6.13096">
        <ele>370.4</ele>
        <time>2019-12-15T13:47:56Z</time>
      </trkpt>
      <trkpt lat="43.53084" lon="6.13105">
        <ele>371.4</ele>
        <time>2019-12-15T13:48:05Z</time>
      </trkpt>
      <trkpt lat="43.53078" lon="6.13116">
        <ele>371.7</ele>
        <time>2019-12-15T13:48:13Z</time>
      </trkpt>
      <trkpt lat="43.53069" lon="6.1314">
        <ele>371.2</ele>
        <time>2019-12-15T13:48:27Z</time>
      </trkpt>
      <trkpt lat="43.53064" lon="6.13151">
        <ele>371.1</ele>
        <time>2019-12-15T13:48:33Z</time>
      </trkpt>
      <trkpt lat="43.53059" lon="6.13162">
        <ele>370.7</ele>
        <time>2019-12-15T13:48:40Z</time>
      </trkpt>
      <trkpt lat="43.53054" lon="6.13174">
        <ele>370.3</ele>
        <time>2019-12-15T13:48:47Z</time>
      </trkpt>
      <trkpt lat="43.53048" lon="6.13185">
        <ele>369.7</ele>
        <time>2019-12-15T13:48:54Z</time>
      </trkpt>
      <trkpt lat="43.53042" lon="6.13195">
        <ele>368.7</ele>
        <time>2019-12-15T13:49:02Z</time>
      </trkpt>
      <trkpt lat="43.53036" lon="6.13205">
        <ele>369.7</ele>
        <time>2019-12-15T13:49:12Z</time>
      </trkpt>
      <trkpt lat="43.53027" lon="6.13213">
        <ele>370</ele>
        <time>2019-12-15T13:49:21Z</time>
      </trkpt>
      <trkpt lat="43.53011" lon="6.13225">
        <ele>369.6</ele>
        <time>2019-12-15T13:49:36Z</time>
      </trkpt>
      <trkpt lat="43.53003" lon="6.13232">
        <ele>369.5</ele>
        <time>2019-12-15T13:49:45Z</time>
      </trkpt>
      <trkpt lat="43.52995" lon="6.13238">
        <ele>368.9</ele>
        <time>2019-12-15T13:49:59Z</time>
      </trkpt>
      <trkpt lat="43.52987" lon="6.13244">
        <ele>367.9</ele>
        <time>2019-12-15T13:50:19Z</time>
      </trkpt>
      <trkpt lat="43.52979" lon="6.1325">
        <ele>368</ele>
        <time>2019-12-15T13:50:29Z</time>
      </trkpt>
      <trkpt lat="43.52962" lon="6.13262">
        <ele>367.5</ele>
        <time>2019-12-15T13:50:49Z</time>
      </trkpt>
      <trkpt lat="43.52953" lon="6.13268">
        <ele>368.7</ele>
        <time>2019-12-15T13:50:58Z</time>
      </trkpt>
      <trkpt lat="43.52944" lon="6.13273">
        <ele>368.1</ele>
        <time>2019-12-15T13:51:07Z</time>
      </trkpt>
      <trkpt lat="43.52935" lon="6.13278">
        <ele>368.5</ele>
        <time>2019-12-15T13:51:16Z</time>
      </trkpt>
      <trkpt lat="43.52926" lon="6.1328">
        <ele>369</ele>
        <time>2019-12-15T13:51:33Z</time>
      </trkpt>
      <trkpt lat="43.52909" lon="6.13291">
        <ele>367.5</ele>
        <time>2019-12-15T13:51:54Z</time>
      </trkpt>
      <trkpt lat="43.52901" lon="6.13298">
        <ele>367.6</ele>
        <time>2019-12-15T13:52:03Z</time>
      </trkpt>
      <trkpt lat="43.52893" lon="6.13304">
        <ele>367.2</ele>
        <time>2019-12-15T13:52:10Z</time>
      </trkpt>
      <trkpt lat="43.52884" lon="6.1331">
        <ele>367.7</ele>
        <time>2019-12-15T13:52:18Z</time>
      </trkpt>
      <trkpt lat="43.52875" lon="6.13316">
        <ele>368.1</ele>
        <time>2019-12-15T13:52:27Z</time>
      </trkpt>
      <trkpt lat="43.52868" lon="6.13323">
        <ele>368.9</ele>
        <time>2019-12-15T13:52:35Z</time>
      </trkpt>
      <trkpt lat="43.52871" lon="6.13341">
        <ele>370.4</ele>
        <time>2019-12-15T13:53:11Z</time>
      </trkpt>
      <trkpt lat="43.52879" lon="6.13347">
        <ele>370.5</ele>
        <time>2019-12-15T13:53:22Z</time>
      </trkpt>
      <trkpt lat="43.52889" lon="6.13351">
        <ele>370.6</ele>
        <time>2019-12-15T13:53:32Z</time>
      </trkpt>
      <trkpt lat="43.52896" lon="6.13359">
        <ele>370.4</ele>
        <time>2019-12-15T13:53:42Z</time>
      </trkpt>
      <trkpt lat="43.52912" lon="6.13375">
        <ele>372.1</ele>
        <time>2019-12-15T13:54:03Z</time>
      </trkpt>
      <trkpt lat="43.5292" lon="6.13383">
        <ele>373.6</ele>
        <time>2019-12-15T13:54:12Z</time>
      </trkpt>
      <trkpt lat="43.52927" lon="6.13392">
        <ele>373.6</ele>
        <time>2019-12-15T13:54:22Z</time>
      </trkpt>
      <trkpt lat="43.52934" lon="6.13399">
        <ele>373.3</ele>
        <time>2019-12-15T13:54:31Z</time>
      </trkpt>
      <trkpt lat="43.52941" lon="6.13409">
        <ele>373.3</ele>
        <time>2019-12-15T13:54:40Z</time>
      </trkpt>
      <trkpt lat="43.52947" lon="6.1342">
        <ele>373.1</ele>
        <time>2019-12-15T13:54:49Z</time>
      </trkpt>
      <trkpt lat="43.52956" lon="6.13441">
        <ele>373</ele>
        <time>2019-12-15T13:55:07Z</time>
      </trkpt>
      <trkpt lat="43.5296" lon="6.13453">
        <ele>373.3</ele>
        <time>2019-12-15T13:55:18Z</time>
      </trkpt>
      <trkpt lat="43.52965" lon="6.13465">
        <ele>372.9</ele>
        <time>2019-12-15T13:55:29Z</time>
      </trkpt>
      <trkpt lat="43.5297" lon="6.13477">
        <ele>372.7</ele>
        <time>2019-12-15T13:55:39Z</time>
      </trkpt>
      <trkpt lat="43.52974" lon="6.13488">
        <ele>372.5</ele>
        <time>2019-12-15T13:55:50Z</time>
      </trkpt>
      <trkpt lat="43.52986" lon="6.13508">
        <ele>371.5</ele>
        <time>2019-12-15T13:56:09Z</time>
      </trkpt>
      <trkpt lat="43.52992" lon="6.13519">
        <ele>371.7</ele>
        <time>2019-12-15T13:56:18Z</time>
      </trkpt>
      <trkpt lat="43.52998" lon="6.13529">
        <ele>371.4</ele>
        <time>2019-12-15T13:56:27Z</time>
      </trkpt>
      <trkpt lat="43.53004" lon="6.1354">
        <ele>369.9</ele>
        <time>2019-12-15T13:56:36Z</time>
      </trkpt>
      <trkpt lat="43.5301" lon="6.13549">
        <ele>370.9</ele>
        <time>2019-12-15T13:56:45Z</time>
      </trkpt>
      <trkpt lat="43.53017" lon="6.13556">
        <ele>370.5</ele>
        <time>2019-12-15T13:56:54Z</time>
      </trkpt>
      <trkpt lat="43.53033" lon="6.13569">
        <ele>370</ele>
        <time>2019-12-15T13:57:10Z</time>
      </trkpt>
      <trkpt lat="43.53042" lon="6.13576">
        <ele>371.1</ele>
        <time>2019-12-15T13:57:19Z</time>
      </trkpt>
      <trkpt lat="43.5305" lon="6.13582">
        <ele>369.6</ele>
        <time>2019-12-15T13:57:28Z</time>
      </trkpt>
      <trkpt lat="43.53059" lon="6.13589">
        <ele>369</ele>
        <time>2019-12-15T13:57:38Z</time>
      </trkpt>
      <trkpt lat="43.53066" lon="6.13596">
        <ele>369.5</ele>
        <time>2019-12-15T13:57:46Z</time>
      </trkpt>
      <trkpt lat="43.53073" lon="6.13604">
        <ele>369.2</ele>
        <time>2019-12-15T13:57:54Z</time>
      </trkpt>
      <trkpt lat="43.5308" lon="6.13613">
        <ele>369.7</ele>
        <time>2019-12-15T13:58:02Z</time>
      </trkpt>
      <trkpt lat="43.53093" lon="6.13633">
        <ele>371.9</ele>
        <time>2019-12-15T13:58:19Z</time>
      </trkpt>
      <trkpt lat="43.53101" lon="6.13641">
        <ele>371.6</ele>
        <time>2019-12-15T13:58:28Z</time>
      </trkpt>
      <trkpt lat="43.53108" lon="6.13649">
        <ele>372.4</ele>
        <time>2019-12-15T13:58:36Z</time>
      </trkpt>
      <trkpt lat="43.53116" lon="6.13658">
        <ele>373</ele>
        <time>2019-12-15T13:58:45Z</time>
      </trkpt>
      <trkpt lat="43.53122" lon="6.13668">
        <ele>373</ele>
        <time>2019-12-15T13:58:54Z</time>
      </trkpt>
      <trkpt lat="43.53129" lon="6.13677">
        <ele>374.2</ele>
        <time>2019-12-15T13:59:03Z</time>
      </trkpt>
      <trkpt lat="43.53145" lon="6.13693">
        <ele>374.5</ele>
        <time>2019-12-15T13:59:21Z</time>
      </trkpt>
      <trkpt lat="43.53153" lon="6.137">
        <ele>373.8</ele>
        <time>2019-12-15T13:59:30Z</time>
      </trkpt>
      <trkpt lat="43.53162" lon="6.13706">
        <ele>373.4</ele>
        <time>2019-12-15T13:59:39Z</time>
      </trkpt>
      <trkpt lat="43.53169" lon="6.13715">
        <ele>372</ele>
        <time>2019-12-15T13:59:50Z</time>
      </trkpt>
      <trkpt lat="43.53177" lon="6.13723">
        <ele>371.5</ele>
        <time>2019-12-15T13:59:59Z</time>
      </trkpt>
      <trkpt lat="43.53184" lon="6.13731">
        <ele>370.3</ele>
        <time>2019-12-15T14:00:08Z</time>
      </trkpt>
      <trkpt lat="43.532" lon="6.13746">
        <ele>369.8</ele>
        <time>2019-12-15T14:00:22Z</time>
      </trkpt>
      <trkpt lat="43.53207" lon="6.13754">
        <ele>370.4</ele>
        <time>2019-12-15T14:00:30Z</time>
      </trkpt>
      <trkpt lat="43.53214" lon="6.13762">
        <ele>371</ele>
        <time>2019-12-15T14:00:38Z</time>
      </trkpt>
      <trkpt lat="43.53221" lon="6.13771">
        <ele>370.6</ele>
        <time>2019-12-15T14:00:46Z</time>
      </trkpt>
      <trkpt lat="43.53229" lon="6.1378">
        <ele>369.5</ele>
        <time>2019-12-15T14:00:54Z</time>
      </trkpt>
      <trkpt lat="43.53236" lon="6.13789">
        <ele>369.3</ele>
        <time>2019-12-15T14:01:02Z</time>
      </trkpt>
      <trkpt lat="43.53243" lon="6.13797">
        <ele>369.1</ele>
        <time>2019-12-15T14:01:10Z</time>
      </trkpt>
      <trkpt lat="43.53257" lon="6.13814">
        <ele>368.6</ele>
        <time>2019-12-15T14:01:26Z</time>
      </trkpt>
      <trkpt lat="43.53264" lon="6.13823">
        <ele>369.2</ele>
        <time>2019-12-15T14:01:34Z</time>
      </trkpt>
      <trkpt lat="43.53271" lon="6.13832">
        <ele>371.1</ele>
        <time>2019-12-15T14:01:42Z</time>
      </trkpt>
      <trkpt lat="43.53278" lon="6.13841">
        <ele>369.8</ele>
        <time>2019-12-15T14:01:50Z</time>
      </trkpt>
      <trkpt lat="43.53286" lon="6.13849">
        <ele>370</ele>
        <time>2019-12-15T14:01:58Z</time>
      </trkpt>
      <trkpt lat="43.53296" lon="6.13853">
        <ele>368.6</ele>
        <time>2019-12-15T14:02:07Z</time>
      </trkpt>
      <trkpt lat="43.53305" lon="6.13858">
        <ele>368.1</ele>
        <time>2019-12-15T14:02:16Z</time>
      </trkpt>
      <trkpt lat="43.53323" lon="6.13865">
        <ele>366.5</ele>
        <time>2019-12-15T14:02:32Z</time>
      </trkpt>
      <trkpt lat="43.53333" lon="6.13868">
        <ele>366.3</ele>
        <time>2019-12-15T14:02:40Z</time>
      </trkpt>
      <trkpt lat="43.53343" lon="6.13869">
        <ele>366.2</ele>
        <time>2019-12-15T14:02:50Z</time>
      </trkpt>
      <trkpt lat="43.53352" lon="6.13874">
        <ele>365.1</ele>
        <time>2019-12-15T14:02:59Z</time>
      </trkpt>
      <trkpt lat="43.53359" lon="6.13881">
        <ele>365</ele>
        <time>2019-12-15T14:03:09Z</time>
      </trkpt>
      <trkpt lat="43.53368" lon="6.13886">
        <ele>364.2</ele>
        <time>2019-12-15T14:03:17Z</time>
      </trkpt>
      <trkpt lat="43.53386" lon="6.13892">
        <ele>361.9</ele>
        <time>2019-12-15T14:03:33Z</time>
      </trkpt>
      <trkpt lat="43.53394" lon="6.13899">
        <ele>360</ele>
        <time>2019-12-15T14:03:48Z</time>
      </trkpt>
      <trkpt lat="43.53403" lon="6.139">
        <ele>358.1</ele>
        <time>2019-12-15T14:04:04Z</time>
      </trkpt>
      <trkpt lat="43.53411" lon="6.13905">
        <ele>356.5</ele>
        <time>2019-12-15T14:04:15Z</time>
      </trkpt>
      <trkpt lat="43.5342" lon="6.13912">
        <ele>354.5</ele>
        <time>2019-12-15T14:04:29Z</time>
      </trkpt>
      <trkpt lat="43.53433" lon="6.13919">
        <ele>354.1</ele>
        <time>2019-12-15T14:05:11Z</time>
      </trkpt>
      <trkpt lat="43.53423" lon="6.1392">
        <ele>353.8</ele>
        <time>2019-12-15T14:05:46Z</time>
      </trkpt>
      <trkpt lat="43.53424" lon="6.13916">
        <ele>352.6</ele>
        <time>2019-12-15T14:06:27Z</time>
      </trkpt>
      <trkpt lat="43.53432" lon="6.13923">
        <ele>350.9</ele>
        <time>2019-12-15T14:06:36Z</time>
      </trkpt>
      <trkpt lat="43.53441" lon="6.13927">
        <ele>349.6</ele>
        <time>2019-12-15T14:06:43Z</time>
      </trkpt>
      <trkpt lat="43.53449" lon="6.13931">
        <ele>349.2</ele>
        <time>2019-12-15T14:06:50Z</time>
      </trkpt>
      <trkpt lat="43.53467" lon="6.13939">
        <ele>346.7</ele>
        <time>2019-12-15T14:07:08Z</time>
      </trkpt>
      <trkpt lat="43.53475" lon="6.13948">
        <ele>345.5</ele>
        <time>2019-12-15T14:07:18Z</time>
      </trkpt>
      <trkpt lat="43.53476" lon="6.13961">
        <ele>345.4</ele>
        <time>2019-12-15T14:07:58Z</time>
      </trkpt>
      <trkpt lat="43.53494" lon="6.13953">
        <ele>343.9</ele>
        <time>2019-12-15T14:08:48Z</time>
      </trkpt>
      <trkpt lat="43.53485" lon="6.13957">
        <ele>344.1</ele>
        <time>2019-12-15T14:09:29Z</time>
      </trkpt>
      <trkpt lat="43.53476" lon="6.13972">
        <ele>344.7</ele>
        <time>2019-12-15T14:10:30Z</time>
      </trkpt>
      <trkpt lat="43.53466" lon="6.13992">
        <ele>345</ele>
        <time>2019-12-15T14:10:58Z</time>
      </trkpt>
      <trkpt lat="43.5346" lon="6.14003">
        <ele>344.5</ele>
        <time>2019-12-15T14:11:08Z</time>
      </trkpt>
      <trkpt lat="43.53454" lon="6.14013">
        <ele>344.6</ele>
        <time>2019-12-15T14:11:20Z</time>
      </trkpt>
      <trkpt lat="43.53447" lon="6.14022">
        <ele>343.7</ele>
        <time>2019-12-15T14:11:32Z</time>
      </trkpt>
      <trkpt lat="43.53432" lon="6.14037">
        <ele>343.3</ele>
        <time>2019-12-15T14:11:51Z</time>
      </trkpt>
      <trkpt lat="43.53424" lon="6.14043">
        <ele>343.2</ele>
        <time>2019-12-15T14:11:59Z</time>
      </trkpt>
      <trkpt lat="43.53415" lon="6.14049">
        <ele>343.3</ele>
        <time>2019-12-15T14:12:07Z</time>
      </trkpt>
      <trkpt lat="43.53407" lon="6.14055">
        <ele>343.7</ele>
        <time>2019-12-15T14:12:15Z</time>
      </trkpt>
      <trkpt lat="43.53399" lon="6.14061">
        <ele>343.8</ele>
        <time>2019-12-15T14:12:24Z</time>
      </trkpt>
      <trkpt lat="43.53394" lon="6.14072">
        <ele>342.8</ele>
        <time>2019-12-15T14:12:40Z</time>
      </trkpt>
      <trkpt lat="43.53388" lon="6.14097">
        <ele>342.1</ele>
        <time>2019-12-15T14:13:01Z</time>
      </trkpt>
      <trkpt lat="43.53384" lon="6.14108">
        <ele>342.2</ele>
        <time>2019-12-15T14:13:10Z</time>
      </trkpt>
      <trkpt lat="43.5338" lon="6.14119">
        <ele>340.4</ele>
        <time>2019-12-15T14:13:28Z</time>
      </trkpt>
      <trkpt lat="43.53371" lon="6.14126">
        <ele>338.3</ele>
        <time>2019-12-15T14:13:43Z</time>
      </trkpt>
      <trkpt lat="43.53355" lon="6.14139">
        <ele>337.5</ele>
        <time>2019-12-15T14:14:03Z</time>
      </trkpt>
      <trkpt lat="43.53347" lon="6.14145">
        <ele>338.2</ele>
        <time>2019-12-15T14:14:12Z</time>
      </trkpt>
      <trkpt lat="43.5334" lon="6.14155">
        <ele>336.3</ele>
        <time>2019-12-15T14:14:23Z</time>
      </trkpt>
      <trkpt lat="43.53335" lon="6.14166">
        <ele>335.6</ele>
        <time>2019-12-15T14:14:34Z</time>
      </trkpt>
      <trkpt lat="43.53333" lon="6.14178">
        <ele>333.4</ele>
        <time>2019-12-15T14:14:52Z</time>
      </trkpt>
      <trkpt lat="43.53344" lon="6.142">
        <ele>330.1</ele>
        <time>2019-12-15T14:15:55Z</time>
      </trkpt>
      <trkpt lat="43.53357" lon="6.14219">
        <ele>329.9</ele>
        <time>2019-12-15T14:16:11Z</time>
      </trkpt>
      <trkpt lat="43.53363" lon="6.14229">
        <ele>328.4</ele>
        <time>2019-12-15T14:16:19Z</time>
      </trkpt>
      <trkpt lat="43.53369" lon="6.1424">
        <ele>327.9</ele>
        <time>2019-12-15T14:16:27Z</time>
      </trkpt>
      <trkpt lat="43.53376" lon="6.1425">
        <ele>327.4</ele>
        <time>2019-12-15T14:16:36Z</time>
      </trkpt>
      <trkpt lat="43.53382" lon="6.14261">
        <ele>327.2</ele>
        <time>2019-12-15T14:16:45Z</time>
      </trkpt>
      <trkpt lat="43.53387" lon="6.14273">
        <ele>325.8</ele>
        <time>2019-12-15T14:16:53Z</time>
      </trkpt>
      <trkpt lat="43.53393" lon="6.14285">
        <ele>325.2</ele>
        <time>2019-12-15T14:17:00Z</time>
      </trkpt>
      <trkpt lat="43.53389" lon="6.14299">
        <ele>322.7</ele>
        <time>2019-12-15T14:17:21Z</time>
      </trkpt>
      <trkpt lat="43.53383" lon="6.1431">
        <ele>320.4</ele>
        <time>2019-12-15T14:17:33Z</time>
      </trkpt>
      <trkpt lat="43.53377" lon="6.14319">
        <ele>318.8</ele>
        <time>2019-12-15T14:17:41Z</time>
      </trkpt>
      <trkpt lat="43.53371" lon="6.14329">
        <ele>318.8</ele>
        <time>2019-12-15T14:17:49Z</time>
      </trkpt>
      <trkpt lat="43.53365" lon="6.1434">
        <ele>316</ele>
        <time>2019-12-15T14:17:59Z</time>
      </trkpt>
      <trkpt lat="43.53358" lon="6.14349">
        <ele>315.1</ele>
        <time>2019-12-15T14:18:07Z</time>
      </trkpt>
      <trkpt lat="43.53344" lon="6.14367">
        <ele>312.9</ele>
        <time>2019-12-15T14:18:30Z</time>
      </trkpt>
      <trkpt lat="43.53336" lon="6.14361">
        <ele>311.5</ele>
        <time>2019-12-15T14:19:18Z</time>
      </trkpt>
      <trkpt lat="43.53311" lon="6.14336">
        <ele>315.2</ele>
        <time>2019-12-15T14:23:00Z</time>
      </trkpt>
      <trkpt lat="43.53293" lon="6.14327">
        <ele>314.3</ele>
        <time>2019-12-15T14:23:23Z</time>
      </trkpt>
      <trkpt lat="43.53283" lon="6.14323">
        <ele>314.1</ele>
        <time>2019-12-15T14:23:34Z</time>
      </trkpt>
      <trkpt lat="43.53275" lon="6.14317">
        <ele>315</ele>
        <time>2019-12-15T14:23:42Z</time>
      </trkpt>
      <trkpt lat="43.53267" lon="6.1431">
        <ele>312.8</ele>
        <time>2019-12-15T14:23:51Z</time>
      </trkpt>
      <trkpt lat="43.5326" lon="6.14302">
        <ele>312.9</ele>
        <time>2019-12-15T14:23:59Z</time>
      </trkpt>
      <trkpt lat="43.53253" lon="6.14293">
        <ele>313.2</ele>
        <time>2019-12-15T14:24:07Z</time>
      </trkpt>
      <trkpt lat="43.53239" lon="6.14274">
        <ele>312.8</ele>
        <time>2019-12-15T14:24:22Z</time>
      </trkpt>
      <trkpt lat="43.53232" lon="6.14265">
        <ele>313.1</ele>
        <time>2019-12-15T14:24:29Z</time>
      </trkpt>
      <trkpt lat="43.53224" lon="6.14256">
        <ele>313.6</ele>
        <time>2019-12-15T14:24:37Z</time>
      </trkpt>
      <trkpt lat="43.53216" lon="6.14248">
        <ele>311.7</ele>
        <time>2019-12-15T14:24:46Z</time>
      </trkpt>
      <trkpt lat="43.53209" lon="6.14239">
        <ele>310.4</ele>
        <time>2019-12-15T14:24:54Z</time>
      </trkpt>
      <trkpt lat="43.53203" lon="6.14229">
        <ele>309.5</ele>
        <time>2019-12-15T14:25:02Z</time>
      </trkpt>
      <trkpt lat="43.53195" lon="6.14222">
        <ele>308.2</ele>
        <time>2019-12-15T14:25:10Z</time>
      </trkpt>
      <trkpt lat="43.53178" lon="6.14213">
        <ele>306.6</ele>
        <time>2019-12-15T14:25:30Z</time>
      </trkpt>
      <trkpt lat="43.53169" lon="6.14208">
        <ele>305.4</ele>
        <time>2019-12-15T14:25:40Z</time>
      </trkpt>
      <trkpt lat="43.53161" lon="6.14202">
        <ele>304.9</ele>
        <time>2019-12-15T14:25:49Z</time>
      </trkpt>
      <trkpt lat="43.53153" lon="6.14195">
        <ele>303.3</ele>
        <time>2019-12-15T14:25:59Z</time>
      </trkpt>
      <trkpt lat="43.53146" lon="6.14184">
        <ele>300.8</ele>
        <time>2019-12-15T14:26:09Z</time>
      </trkpt>
      <trkpt lat="43.5314" lon="6.14175">
        <ele>299.6</ele>
        <time>2019-12-15T14:26:18Z</time>
      </trkpt>
      <trkpt lat="43.53128" lon="6.14154">
        <ele>299</ele>
        <time>2019-12-15T14:26:37Z</time>
      </trkpt>
      <trkpt lat="43.53123" lon="6.14143">
        <ele>296.5</ele>
        <time>2019-12-15T14:26:48Z</time>
      </trkpt>
      <trkpt lat="43.53115" lon="6.14133">
        <ele>295.3</ele>
        <time>2019-12-15T14:26:57Z</time>
      </trkpt>
      <trkpt lat="43.53107" lon="6.14127">
        <ele>293.9</ele>
        <time>2019-12-15T14:27:05Z</time>
      </trkpt>
      <trkpt lat="43.53098" lon="6.14122">
        <ele>291.9</ele>
        <time>2019-12-15T14:27:14Z</time>
      </trkpt>
      <trkpt lat="43.5309" lon="6.14117">
        <ele>290.5</ele>
        <time>2019-12-15T14:27:24Z</time>
      </trkpt>
      <trkpt lat="43.53072" lon="6.14108">
        <ele>287.1</ele>
        <time>2019-12-15T14:27:43Z</time>
      </trkpt>
      <trkpt lat="43.53064" lon="6.14101">
        <ele>285.3</ele>
        <time>2019-12-15T14:27:52Z</time>
      </trkpt>
      <trkpt lat="43.53055" lon="6.14096">
        <ele>283.5</ele>
        <time>2019-12-15T14:28:00Z</time>
      </trkpt>
      <trkpt lat="43.53048" lon="6.14087">
        <ele>282.9</ele>
        <time>2019-12-15T14:28:09Z</time>
      </trkpt>
      <trkpt lat="43.53042" lon="6.14077">
        <ele>282.4</ele>
        <time>2019-12-15T14:28:18Z</time>
      </trkpt>
      <trkpt lat="43.53035" lon="6.14069">
        <ele>281.8</ele>
        <time>2019-12-15T14:28:27Z</time>
      </trkpt>
      <trkpt lat="43.5302" lon="6.14055">
        <ele>280</ele>
        <time>2019-12-15T14:28:47Z</time>
      </trkpt>
      <trkpt lat="43.53011" lon="6.14059">
        <ele>278.7</ele>
        <time>2019-12-15T14:29:00Z</time>
      </trkpt>
      <trkpt lat="43.53003" lon="6.14066">
        <ele>275.7</ele>
        <time>2019-12-15T14:29:15Z</time>
      </trkpt>
      <trkpt lat="43.52995" lon="6.14073">
        <ele>274.1</ele>
        <time>2019-12-15T14:29:26Z</time>
      </trkpt>
      <trkpt lat="43.52987" lon="6.14079">
        <ele>271.5</ele>
        <time>2019-12-15T14:29:35Z</time>
      </trkpt>
      <trkpt lat="43.52971" lon="6.14097">
        <ele>268</ele>
        <time>2019-12-15T14:29:54Z</time>
      </trkpt>
      <trkpt lat="43.52967" lon="6.14109">
        <ele>267.3</ele>
        <time>2019-12-15T14:30:03Z</time>
      </trkpt>
      <trkpt lat="43.52961" lon="6.1412">
        <ele>267.1</ele>
        <time>2019-12-15T14:30:11Z</time>
      </trkpt>
      <trkpt lat="43.52956" lon="6.1413">
        <ele>265.1</ele>
        <time>2019-12-15T14:30:23Z</time>
      </trkpt>
      <trkpt lat="43.52948" lon="6.14138">
        <ele>264.1</ele>
        <time>2019-12-15T14:30:31Z</time>
      </trkpt>
      <trkpt lat="43.52942" lon="6.14147">
        <ele>262</ele>
        <time>2019-12-15T14:30:40Z</time>
      </trkpt>
      <trkpt lat="43.5293" lon="6.14167">
        <ele>259.1</ele>
        <time>2019-12-15T14:31:03Z</time>
      </trkpt>
      <trkpt lat="43.52924" lon="6.14176">
        <ele>259.9</ele>
        <time>2019-12-15T14:31:24Z</time>
      </trkpt>
      <trkpt lat="43.52917" lon="6.14185">
        <ele>258.8</ele>
        <time>2019-12-15T14:32:51Z</time>
      </trkpt>
      <trkpt lat="43.52903" lon="6.14203">
        <ele>254.3</ele>
        <time>2019-12-15T14:33:34Z</time>
      </trkpt>
      <trkpt lat="43.52898" lon="6.14213">
        <ele>253.8</ele>
        <time>2019-12-15T14:33:51Z</time>
      </trkpt>
      <trkpt lat="43.52896" lon="6.14225">
        <ele>251.2</ele>
        <time>2019-12-15T14:34:07Z</time>
      </trkpt>
      <trkpt lat="43.52884" lon="6.14246">
        <ele>249.1</ele>
        <time>2019-12-15T14:34:36Z</time>
      </trkpt>
      <trkpt lat="43.52878" lon="6.14255">
        <ele>248.7</ele>
        <time>2019-12-15T14:34:56Z</time>
      </trkpt>
      <trkpt lat="43.52873" lon="6.14267">
        <ele>248.4</ele>
        <time>2019-12-15T14:35:37Z</time>
      </trkpt>
      <trkpt lat="43.52874" lon="6.14292">
        <ele>249.3</ele>
        <time>2019-12-15T14:35:59Z</time>
      </trkpt>
      <trkpt lat="43.52872" lon="6.14304">
        <ele>253.4</ele>
        <time>2019-12-15T14:36:14Z</time>
      </trkpt>
      <trkpt lat="43.52863" lon="6.1431">
        <ele>255.2</ele>
        <time>2019-12-15T14:36:26Z</time>
      </trkpt>
      <trkpt lat="43.52856" lon="6.14317">
        <ele>257.3</ele>
        <time>2019-12-15T14:36:37Z</time>
      </trkpt>
      <trkpt lat="43.5285" lon="6.14328">
        <ele>255.5</ele>
        <time>2019-12-15T14:36:48Z</time>
      </trkpt>
      <trkpt lat="43.52843" lon="6.14352">
        <ele>255.1</ele>
        <time>2019-12-15T14:37:07Z</time>
      </trkpt>
      <trkpt lat="43.52843" lon="6.14366">
        <ele>255.6</ele>
        <time>2019-12-15T14:37:17Z</time>
      </trkpt>
      <trkpt lat="43.5284" lon="6.14378">
        <ele>254.8</ele>
        <time>2019-12-15T14:37:23Z</time>
      </trkpt>
      <trkpt lat="43.52839" lon="6.14391">
        <ele>254.6</ele>
        <time>2019-12-15T14:37:32Z</time>
      </trkpt>
      <trkpt lat="43.52837" lon="6.14404">
        <ele>255.8</ele>
        <time>2019-12-15T14:37:41Z</time>
      </trkpt>
      <trkpt lat="43.52838" lon="6.14417">
        <ele>256</ele>
        <time>2019-12-15T14:37:49Z</time>
      </trkpt>
      <trkpt lat="43.52838" lon="6.1443">
        <ele>258.8</ele>
        <time>2019-12-15T14:37:58Z</time>
      </trkpt>
      <trkpt lat="43.52836" lon="6.14456">
        <ele>259.4</ele>
        <time>2019-12-15T14:38:16Z</time>
      </trkpt>
      <trkpt lat="43.52838" lon="6.1447">
        <ele>260.4</ele>
        <time>2019-12-15T14:38:24Z</time>
      </trkpt>
      <trkpt lat="43.5284" lon="6.14482">
        <ele>260.2</ele>
        <time>2019-12-15T14:38:32Z</time>
      </trkpt>
      <trkpt lat="43.52841" lon="6.14495">
        <ele>258.7</ele>
        <time>2019-12-15T14:38:41Z</time>
      </trkpt>
      <trkpt lat="43.52837" lon="6.14507">
        <ele>258.7</ele>
        <time>2019-12-15T14:38:48Z</time>
      </trkpt>
      <trkpt lat="43.52834" lon="6.14519">
        <ele>257.4</ele>
        <time>2019-12-15T14:38:54Z</time>
      </trkpt>
      <trkpt lat="43.52831" lon="6.14531">
        <ele>257.2</ele>
        <time>2019-12-15T14:39:01Z</time>
      </trkpt>
      <trkpt lat="43.52825" lon="6.14557">
        <ele>256.5</ele>
        <time>2019-12-15T14:39:14Z</time>
      </trkpt>
      <trkpt lat="43.52822" lon="6.14569">
        <ele>256.9</ele>
        <time>2019-12-15T14:39:21Z</time>
      </trkpt>
      <trkpt lat="43.5282" lon="6.14582">
        <ele>255.6</ele>
        <time>2019-12-15T14:39:31Z</time>
      </trkpt>
      <trkpt lat="43.5282" lon="6.14595">
        <ele>255.8</ele>
        <time>2019-12-15T14:40:23Z</time>
      </trkpt>
      <trkpt lat="43.52806" lon="6.14611">
        <ele>253.6</ele>
        <time>2019-12-15T14:40:57Z</time>
      </trkpt>
      <trkpt lat="43.52798" lon="6.14619">
        <ele>252.7</ele>
        <time>2019-12-15T14:41:06Z</time>
      </trkpt>
      <trkpt lat="43.52789" lon="6.14625">
        <ele>249.9</ele>
        <time>2019-12-15T14:41:14Z</time>
      </trkpt>
      <trkpt lat="43.52781" lon="6.14631">
        <ele>248.7</ele>
        <time>2019-12-15T14:41:25Z</time>
      </trkpt>
      <trkpt lat="43.52772" lon="6.14656">
        <ele>245.5</ele>
        <time>2019-12-15T14:41:41Z</time>
      </trkpt>
      <trkpt lat="43.52769" lon="6.14668">
        <ele>244.4</ele>
        <time>2019-12-15T14:41:49Z</time>
      </trkpt>
      <trkpt lat="43.52772" lon="6.1468">
        <ele>243.8</ele>
        <time>2019-12-15T14:41:58Z</time>
      </trkpt>
      <trkpt lat="43.52781" lon="6.14686">
        <ele>242.6</ele>
        <time>2019-12-15T14:42:11Z</time>
      </trkpt>
      <trkpt lat="43.52789" lon="6.14692">
        <ele>243.3</ele>
        <time>2019-12-15T14:42:20Z</time>
      </trkpt>
      <trkpt lat="43.52797" lon="6.14699">
        <ele>242.5</ele>
        <time>2019-12-15T14:42:29Z</time>
      </trkpt>
      <trkpt lat="43.52814" lon="6.14711">
        <ele>240.4</ele>
        <time>2019-12-15T14:42:47Z</time>
      </trkpt>
      <trkpt lat="43.52823" lon="6.14719">
        <ele>239.9</ele>
        <time>2019-12-15T14:42:55Z</time>
      </trkpt>
      <trkpt lat="43.52829" lon="6.14728">
        <ele>240.7</ele>
        <time>2019-12-15T14:43:03Z</time>
      </trkpt>
      <trkpt lat="43.52835" lon="6.14739">
        <ele>239.6</ele>
        <time>2019-12-15T14:43:12Z</time>
      </trkpt>
      <trkpt lat="43.52838" lon="6.14752">
        <ele>240.9</ele>
        <time>2019-12-15T14:43:22Z</time>
      </trkpt>
      <trkpt lat="43.52841" lon="6.14765">
        <ele>241.8</ele>
        <time>2019-12-15T14:43:31Z</time>
      </trkpt>
      <trkpt lat="43.52846" lon="6.14791">
        <ele>241.8</ele>
        <time>2019-12-15T14:43:48Z</time>
      </trkpt>
      <trkpt lat="43.52851" lon="6.14802">
        <ele>241.2</ele>
        <time>2019-12-15T14:43:59Z</time>
      </trkpt>
      <trkpt lat="43.52859" lon="6.14808">
        <ele>241.1</ele>
        <time>2019-12-15T14:44:32Z</time>
      </trkpt>
      <trkpt lat="43.5285" lon="6.14786">
        <ele>241.5</ele>
        <time>2019-12-15T14:45:31Z</time>
      </trkpt>
      <trkpt lat="43.52847" lon="6.14774">
        <ele>241.7</ele>
        <time>2019-12-15T14:45:41Z</time>
      </trkpt>
      <trkpt lat="43.52851" lon="6.14799">
        <ele>242.4</ele>
        <time>2019-12-15T14:46:30Z</time>
      </trkpt>
      <trkpt lat="43.52852" lon="6.14812">
        <ele>241</ele>
        <time>2019-12-15T14:46:39Z</time>
      </trkpt>
      <trkpt lat="43.52853" lon="6.14825">
        <ele>240.6</ele>
        <time>2019-12-15T14:46:49Z</time>
      </trkpt>
      <trkpt lat="43.52862" lon="6.14847">
        <ele>237</ele>
        <time>2019-12-15T14:47:15Z</time>
      </trkpt>
      <trkpt lat="43.52866" lon="6.14859">
        <ele>236.4</ele>
        <time>2019-12-15T14:47:24Z</time>
      </trkpt>
      <trkpt lat="43.52871" lon="6.1487">
        <ele>236.5</ele>
        <time>2019-12-15T14:47:37Z</time>
      </trkpt>
      <trkpt lat="43.52881" lon="6.14873">
        <ele>237.3</ele>
        <time>2019-12-15T14:47:57Z</time>
      </trkpt>
      <trkpt lat="43.52914" lon="6.14862">
        <ele>236.3</ele>
        <time>2019-12-15T14:49:17Z</time>
      </trkpt>
      <trkpt lat="43.52909" lon="6.1483">
        <ele>235</ele>
        <time>2019-12-15T14:50:15Z</time>
      </trkpt>
      <trkpt lat="43.52906" lon="6.14821">
        <ele>236</ele>
        <time>2019-12-15T14:51:36Z</time>
      </trkpt>
      <trkpt lat="43.52911" lon="6.14844">
        <ele>235.7</ele>
        <time>2019-12-15T14:52:03Z</time>
      </trkpt>
      <trkpt lat="43.52912" lon="6.14857">
        <ele>235.4</ele>
        <time>2019-12-15T14:52:19Z</time>
      </trkpt>
      <trkpt lat="43.52912" lon="6.1487">
        <ele>234.4</ele>
        <time>2019-12-15T14:52:43Z</time>
      </trkpt>
      <trkpt lat="43.52917" lon="6.14888">
        <ele>232.6</ele>
        <time>2019-12-15T14:54:13Z</time>
      </trkpt>
      <trkpt lat="43.52919" lon="6.14913">
        <ele>230.6</ele>
        <time>2019-12-15T14:54:43Z</time>
      </trkpt>
      <trkpt lat="43.5291" lon="6.14915">
        <ele>229.6</ele>
        <time>2019-12-15T14:55:05Z</time>
      </trkpt>
      <trkpt lat="43.52899" lon="6.14915">
        <ele>228.8</ele>
        <time>2019-12-15T14:55:11Z</time>
      </trkpt>
      <trkpt lat="43.52889" lon="6.14914">
        <ele>229.2</ele>
        <time>2019-12-15T14:55:21Z</time>
      </trkpt>
      <trkpt lat="43.52857" lon="6.14905">
        <ele>227</ele>
        <time>2019-12-15T14:56:06Z</time>
      </trkpt>
      <trkpt lat="43.52823" lon="6.14895">
        <ele>226.2</ele>
        <time>2019-12-15T14:57:02Z</time>
      </trkpt>
      <trkpt lat="43.52813" lon="6.14893">
        <ele>226</ele>
        <time>2019-12-15T14:57:17Z</time>
      </trkpt>
      <trkpt lat="43.52804" lon="6.14897">
        <ele>224</ele>
        <time>2019-12-15T14:58:11Z</time>
      </trkpt>
      <trkpt lat="43.52798" lon="6.14919">
        <ele>221.8</ele>
        <time>2019-12-15T14:59:53Z</time>
      </trkpt>
      <trkpt lat="43.52789" lon="6.14921">
        <ele>222</ele>
        <time>2019-12-15T15:00:02Z</time>
      </trkpt>
      <trkpt lat="43.5278" lon="6.14922">
        <ele>221.4</ele>
        <time>2019-12-15T15:00:10Z</time>
      </trkpt>
      <trkpt lat="43.52761" lon="6.14926">
        <ele>220.2</ele>
        <time>2019-12-15T15:00:26Z</time>
      </trkpt>
      <trkpt lat="43.52751" lon="6.14926">
        <ele>219.8</ele>
        <time>2019-12-15T15:00:34Z</time>
      </trkpt>
      <trkpt lat="43.52742" lon="6.14927">
        <ele>219.3</ele>
        <time>2019-12-15T15:00:42Z</time>
      </trkpt>
      <trkpt lat="43.52733" lon="6.14926">
        <ele>219.1</ele>
        <time>2019-12-15T15:00:53Z</time>
      </trkpt>
      <trkpt lat="43.52724" lon="6.14927">
        <ele>218.7</ele>
        <time>2019-12-15T15:01:02Z</time>
      </trkpt>
      <trkpt lat="43.52714" lon="6.14928">
        <ele>218.1</ele>
        <time>2019-12-15T15:01:10Z</time>
      </trkpt>
      <trkpt lat="43.52705" lon="6.14929">
        <ele>217.4</ele>
        <time>2019-12-15T15:01:19Z</time>
      </trkpt>
      <trkpt lat="43.52687" lon="6.14937">
        <ele>215.7</ele>
        <time>2019-12-15T15:01:36Z</time>
      </trkpt>
      <trkpt lat="43.52677" lon="6.14938">
        <ele>215.9</ele>
        <time>2019-12-15T15:01:44Z</time>
      </trkpt>
      <trkpt lat="43.52668" lon="6.1494">
        <ele>214.5</ele>
        <time>2019-12-15T15:01:53Z</time>
      </trkpt>
      <trkpt lat="43.52658" lon="6.14941">
        <ele>214</ele>
        <time>2019-12-15T15:02:00Z</time>
      </trkpt>
      <trkpt lat="43.5265" lon="6.14944">
        <ele>215.1</ele>
        <time>2019-12-15T15:02:06Z</time>
      </trkpt>
      <trkpt lat="43.52641" lon="6.14947">
        <ele>213.5</ele>
        <time>2019-12-15T15:02:12Z</time>
      </trkpt>
      <trkpt lat="43.52631" lon="6.14948">
        <ele>211.6</ele>
        <time>2019-12-15T15:02:20Z</time>
      </trkpt>
      <trkpt lat="43.52622" lon="6.14945">
        <ele>211</ele>
        <time>2019-12-15T15:02:29Z</time>
      </trkpt>
      <trkpt lat="43.52606" lon="6.1493">
        <ele>210.7</ele>
        <time>2019-12-15T15:02:47Z</time>
      </trkpt>
      <trkpt lat="43.526" lon="6.14919">
        <ele>208.3</ele>
        <time>2019-12-15T15:02:56Z</time>
      </trkpt>
      <trkpt lat="43.52594" lon="6.1491">
        <ele>208.4</ele>
        <time>2019-12-15T15:03:04Z</time>
      </trkpt>
      <trkpt lat="43.52585" lon="6.14905">
        <ele>207.5</ele>
        <time>2019-12-15T15:03:12Z</time>
      </trkpt>
      <trkpt lat="43.52575" lon="6.14904">
        <ele>207.1</ele>
        <time>2019-12-15T15:03:20Z</time>
      </trkpt>
      <trkpt lat="43.52566" lon="6.14901">
        <ele>207</ele>
        <time>2019-12-15T15:03:42Z</time>
      </trkpt>
      <trkpt lat="43.52556" lon="6.14923">
        <ele>208.7</ele>
        <time>2019-12-15T15:04:03Z</time>
      </trkpt>
      <trkpt lat="43.52548" lon="6.1493">
        <ele>208.8</ele>
        <time>2019-12-15T15:04:13Z</time>
      </trkpt>
      <trkpt lat="43.5254" lon="6.14938">
        <ele>209</ele>
        <time>2019-12-15T15:04:22Z</time>
      </trkpt>
      <trkpt lat="43.52532" lon="6.14946">
        <ele>210</ele>
        <time>2019-12-15T15:04:29Z</time>
      </trkpt>
      <trkpt lat="43.52525" lon="6.14954">
        <ele>209.3</ele>
        <time>2019-12-15T15:04:37Z</time>
      </trkpt>
      <trkpt lat="43.52517" lon="6.14963">
        <ele>209.9</ele>
        <time>2019-12-15T15:04:45Z</time>
      </trkpt>
      <trkpt lat="43.52512" lon="6.14985">
        <ele>208.4</ele>
        <time>2019-12-15T15:05:11Z</time>
      </trkpt>
      <trkpt lat="43.52511" lon="6.14999">
        <ele>207.9</ele>
        <time>2019-12-15T15:05:19Z</time>
      </trkpt>
      <trkpt lat="43.52509" lon="6.15011">
        <ele>206.3</ele>
        <time>2019-12-15T15:05:27Z</time>
      </trkpt>
      <trkpt lat="43.52504" lon="6.15021">
        <ele>205.8</ele>
        <time>2019-12-15T15:05:53Z</time>
      </trkpt>
    </trkseg>
  </trk>
</gpx>